<?xml version="1.0" encoding="UTF-8" standalone="no" ?>
<gpx xmlns="http://www.topografix.com/GPX/1/1" xmlns:xsi="http://www.w3.org/2001/XMLSchema-instance" xsi:schemaLocation="http://www.topografix.com/GPX/1/1 http://www.topografix.com/GPX/1/1/gpx.xsd" version="1.1" creator="VisuGPX - https://www.visugpx.com">
  <metadata>
    <name>les mollets verts</name>
    <desc><![CDATA[parcours de 34 km des mollets verts le 13 juin 2010 (Phalsbourg)]]></desc>
  </metadata>
  <trk>
    <name><![CDATA[Holux2010/06/13_09:12]]></name>
    <trkseg>
      <trkpt lat="48.76704" lon="7.25876">
        <ele>339.320679</ele>
        <time>2010-06-13T07:14:02Z</time>
      </trkpt>
      <trkpt lat="48.76684" lon="7.25883">
        <ele>339.890991</ele>
        <time>2010-06-13T07:14:11Z</time>
      </trkpt>
      <trkpt lat="48.76665" lon="7.25888">
        <ele>339.203491</ele>
        <time>2010-06-13T07:14:20Z</time>
      </trkpt>
      <trkpt lat="48.76645" lon="7.25895">
        <ele>339.344116</ele>
        <time>2010-06-13T07:14:29Z</time>
      </trkpt>
      <trkpt lat="48.76625" lon="7.25901">
        <ele>338.976929</ele>
        <time>2010-06-13T07:14:36Z</time>
      </trkpt>
      <trkpt lat="48.76608" lon="7.25906">
        <ele>339.031616</ele>
        <time>2010-06-13T07:14:42Z</time>
      </trkpt>
      <trkpt lat="48.76589" lon="7.25912">
        <ele>338.625366</ele>
        <time>2010-06-13T07:14:49Z</time>
      </trkpt>
      <trkpt lat="48.7657" lon="7.25917">
        <ele>338.453491</ele>
        <time>2010-06-13T07:14:55Z</time>
      </trkpt>
      <trkpt lat="48.76552" lon="7.25931">
        <ele>337.844116</ele>
        <time>2010-06-13T07:15:01Z</time>
      </trkpt>
      <trkpt lat="48.7654" lon="7.25957">
        <ele>338.117554</ele>
        <time>2010-06-13T07:15:07Z</time>
      </trkpt>
      <trkpt lat="48.76533" lon="7.25984">
        <ele>337.773804</ele>
        <time>2010-06-13T07:15:13Z</time>
      </trkpt>
      <trkpt lat="48.76516" lon="7.26002">
        <ele>337.055054</ele>
        <time>2010-06-13T07:15:18Z</time>
      </trkpt>
      <trkpt lat="48.76499" lon="7.26017">
        <ele>337.812866</ele>
        <time>2010-06-13T07:15:23Z</time>
      </trkpt>
      <trkpt lat="48.76487" lon="7.26038">
        <ele>337.898804</ele>
        <time>2010-06-13T07:15:28Z</time>
      </trkpt>
      <trkpt lat="48.76471" lon="7.26055">
        <ele>338.680054</ele>
        <time>2010-06-13T07:15:33Z</time>
      </trkpt>
      <trkpt lat="48.7646" lon="7.2608">
        <ele>341.414429</ele>
        <time>2010-06-13T07:15:40Z</time>
      </trkpt>
      <trkpt lat="48.76447" lon="7.26103">
        <ele>342.656616</ele>
        <time>2010-06-13T07:15:46Z</time>
      </trkpt>
      <trkpt lat="48.76432" lon="7.26119">
        <ele>341.101929</ele>
        <time>2010-06-13T07:15:51Z</time>
      </trkpt>
      <trkpt lat="48.76415" lon="7.26128">
        <ele>339.867554</ele>
        <time>2010-06-13T07:15:55Z</time>
      </trkpt>
      <trkpt lat="48.76395" lon="7.26135">
        <ele>337.750366</ele>
        <time>2010-06-13T07:15:59Z</time>
      </trkpt>
      <trkpt lat="48.76377" lon="7.2614">
        <ele>336.656616</ele>
        <time>2010-06-13T07:16:03Z</time>
      </trkpt>
      <trkpt lat="48.76368" lon="7.26164">
        <ele>335.578491</ele>
        <time>2010-06-13T07:16:17Z</time>
      </trkpt>
      <trkpt lat="48.76378" lon="7.26189">
        <ele>333.476929</ele>
        <time>2010-06-13T07:16:22Z</time>
      </trkpt>
      <trkpt lat="48.76389" lon="7.26218">
        <ele>332.367554</ele>
        <time>2010-06-13T07:16:27Z</time>
      </trkpt>
      <trkpt lat="48.76402" lon="7.26244">
        <ele>332.055054</ele>
        <time>2010-06-13T07:16:32Z</time>
      </trkpt>
      <trkpt lat="48.76412" lon="7.26267">
        <ele>332.508179</ele>
        <time>2010-06-13T07:16:37Z</time>
      </trkpt>
      <trkpt lat="48.76426" lon="7.2629">
        <ele>333.562866</ele>
        <time>2010-06-13T07:16:43Z</time>
      </trkpt>
      <trkpt lat="48.76444" lon="7.26306">
        <ele>334.273804</ele>
        <time>2010-06-13T07:16:49Z</time>
      </trkpt>
      <trkpt lat="48.76461" lon="7.2632">
        <ele>334.062866</ele>
        <time>2010-06-13T07:16:54Z</time>
      </trkpt>
      <trkpt lat="48.76477" lon="7.2633">
        <ele>334.515991</ele>
        <time>2010-06-13T07:16:59Z</time>
      </trkpt>
      <trkpt lat="48.76494" lon="7.2634">
        <ele>335.172241</ele>
        <time>2010-06-13T07:17:04Z</time>
      </trkpt>
      <trkpt lat="48.76512" lon="7.2635">
        <ele>335.265991</ele>
        <time>2010-06-13T07:17:09Z</time>
      </trkpt>
      <trkpt lat="48.7653" lon="7.26362">
        <ele>335.890991</ele>
        <time>2010-06-13T07:17:14Z</time>
      </trkpt>
      <trkpt lat="48.76548" lon="7.26373">
        <ele>336.039429</ele>
        <time>2010-06-13T07:17:19Z</time>
      </trkpt>
      <trkpt lat="48.76566" lon="7.26385">
        <ele>335.969116</ele>
        <time>2010-06-13T07:17:24Z</time>
      </trkpt>
      <trkpt lat="48.76584" lon="7.26397">
        <ele>334.961304</ele>
        <time>2010-06-13T07:17:29Z</time>
      </trkpt>
      <trkpt lat="48.76603" lon="7.26408">
        <ele>334.336304</ele>
        <time>2010-06-13T07:17:34Z</time>
      </trkpt>
      <trkpt lat="48.7662" lon="7.26419">
        <ele>333.820679</ele>
        <time>2010-06-13T07:17:38Z</time>
      </trkpt>
      <trkpt lat="48.76637" lon="7.26431">
        <ele>333.008179</ele>
        <time>2010-06-13T07:17:43Z</time>
      </trkpt>
      <trkpt lat="48.76633" lon="7.26458">
        <ele>332.820679</ele>
        <time>2010-06-13T07:17:48Z</time>
      </trkpt>
      <trkpt lat="48.76626" lon="7.26485">
        <ele>332.351929</ele>
        <time>2010-06-13T07:17:52Z</time>
      </trkpt>
      <trkpt lat="48.76619" lon="7.26513">
        <ele>332.758179</ele>
        <time>2010-06-13T07:17:56Z</time>
      </trkpt>
      <trkpt lat="48.76615" lon="7.2654">
        <ele>333.164429</ele>
        <time>2010-06-13T07:18:00Z</time>
      </trkpt>
      <trkpt lat="48.76609" lon="7.26569">
        <ele>333.039429</ele>
        <time>2010-06-13T07:18:04Z</time>
      </trkpt>
      <trkpt lat="48.76605" lon="7.26598">
        <ele>333.328491</ele>
        <time>2010-06-13T07:18:08Z</time>
      </trkpt>
      <trkpt lat="48.766" lon="7.26629">
        <ele>333.344116</ele>
        <time>2010-06-13T07:18:12Z</time>
      </trkpt>
      <trkpt lat="48.76598" lon="7.26659">
        <ele>333.101929</ele>
        <time>2010-06-13T07:18:16Z</time>
      </trkpt>
      <trkpt lat="48.76598" lon="7.26689">
        <ele>332.922241</ele>
        <time>2010-06-13T07:18:20Z</time>
      </trkpt>
      <trkpt lat="48.76598" lon="7.26719">
        <ele>332.976929</ele>
        <time>2010-06-13T07:18:24Z</time>
      </trkpt>
      <trkpt lat="48.766" lon="7.26749">
        <ele>332.890991</ele>
        <time>2010-06-13T07:18:28Z</time>
      </trkpt>
      <trkpt lat="48.76606" lon="7.26778">
        <ele>331.734741</ele>
        <time>2010-06-13T07:18:32Z</time>
      </trkpt>
      <trkpt lat="48.76613" lon="7.26807">
        <ele>331.039429</ele>
        <time>2010-06-13T07:18:37Z</time>
      </trkpt>
      <trkpt lat="48.76624" lon="7.26835">
        <ele>331.984741</ele>
        <time>2010-06-13T07:18:42Z</time>
      </trkpt>
      <trkpt lat="48.76635" lon="7.26864">
        <ele>331.922241</ele>
        <time>2010-06-13T07:18:47Z</time>
      </trkpt>
      <trkpt lat="48.76644" lon="7.26893">
        <ele>332.570679</ele>
        <time>2010-06-13T07:18:52Z</time>
      </trkpt>
      <trkpt lat="48.76652" lon="7.26924">
        <ele>333.515991</ele>
        <time>2010-06-13T07:18:57Z</time>
      </trkpt>
      <trkpt lat="48.7666" lon="7.26956">
        <ele>332.305054</ele>
        <time>2010-06-13T07:19:02Z</time>
      </trkpt>
      <trkpt lat="48.76669" lon="7.26982">
        <ele>332.476929</ele>
        <time>2010-06-13T07:19:06Z</time>
      </trkpt>
      <trkpt lat="48.76675" lon="7.27014">
        <ele>332.031616</ele>
        <time>2010-06-13T07:19:11Z</time>
      </trkpt>
      <trkpt lat="48.76678" lon="7.27043">
        <ele>331.062866</ele>
        <time>2010-06-13T07:19:15Z</time>
      </trkpt>
      <trkpt lat="48.76679" lon="7.27071">
        <ele>330.797241</ele>
        <time>2010-06-13T07:19:19Z</time>
      </trkpt>
      <trkpt lat="48.76674" lon="7.27102">
        <ele>332.375366</ele>
        <time>2010-06-13T07:19:24Z</time>
      </trkpt>
      <trkpt lat="48.76668" lon="7.27131">
        <ele>334.164429</ele>
        <time>2010-06-13T07:19:29Z</time>
      </trkpt>
      <trkpt lat="48.76664" lon="7.27161">
        <ele>335.297241</ele>
        <time>2010-06-13T07:19:34Z</time>
      </trkpt>
      <trkpt lat="48.76661" lon="7.27189">
        <ele>336.187866</ele>
        <time>2010-06-13T07:19:39Z</time>
      </trkpt>
      <trkpt lat="48.76657" lon="7.27219">
        <ele>335.219116</ele>
        <time>2010-06-13T07:19:45Z</time>
      </trkpt>
      <trkpt lat="48.76653" lon="7.27249">
        <ele>335.539429</ele>
        <time>2010-06-13T07:19:50Z</time>
      </trkpt>
      <trkpt lat="48.76645" lon="7.27277">
        <ele>336.789429</ele>
        <time>2010-06-13T07:19:55Z</time>
      </trkpt>
      <trkpt lat="48.76627" lon="7.27283">
        <ele>336.656616</ele>
        <time>2010-06-13T07:19:59Z</time>
      </trkpt>
      <trkpt lat="48.76608" lon="7.27279">
        <ele>335.734741</ele>
        <time>2010-06-13T07:20:04Z</time>
      </trkpt>
      <trkpt lat="48.76589" lon="7.27273">
        <ele>336.156616</ele>
        <time>2010-06-13T07:20:09Z</time>
      </trkpt>
      <trkpt lat="48.76571" lon="7.27269">
        <ele>336.211304</ele>
        <time>2010-06-13T07:20:14Z</time>
      </trkpt>
      <trkpt lat="48.76549" lon="7.27266">
        <ele>336.195679</ele>
        <time>2010-06-13T07:20:20Z</time>
      </trkpt>
      <trkpt lat="48.76529" lon="7.27264">
        <ele>336.015991</ele>
        <time>2010-06-13T07:20:26Z</time>
      </trkpt>
      <trkpt lat="48.76509" lon="7.27266">
        <ele>336.594116</ele>
        <time>2010-06-13T07:20:33Z</time>
      </trkpt>
      <trkpt lat="48.76491" lon="7.27271">
        <ele>336.695679</ele>
        <time>2010-06-13T07:20:39Z</time>
      </trkpt>
      <trkpt lat="48.76473" lon="7.27277">
        <ele>337.703491</ele>
        <time>2010-06-13T07:20:45Z</time>
      </trkpt>
      <trkpt lat="48.76454" lon="7.27283">
        <ele>338.273804</ele>
        <time>2010-06-13T07:20:51Z</time>
      </trkpt>
      <trkpt lat="48.76435" lon="7.27289">
        <ele>339.234741</ele>
        <time>2010-06-13T07:20:57Z</time>
      </trkpt>
      <trkpt lat="48.76415" lon="7.27293">
        <ele>340.570679</ele>
        <time>2010-06-13T07:21:03Z</time>
      </trkpt>
      <trkpt lat="48.76395" lon="7.27292">
        <ele>341.258179</ele>
        <time>2010-06-13T07:21:09Z</time>
      </trkpt>
      <trkpt lat="48.76377" lon="7.27287">
        <ele>341.406616</ele>
        <time>2010-06-13T07:21:14Z</time>
      </trkpt>
      <trkpt lat="48.7636" lon="7.27278">
        <ele>342.328491</ele>
        <time>2010-06-13T07:21:19Z</time>
      </trkpt>
      <trkpt lat="48.76342" lon="7.27272">
        <ele>343.867554</ele>
        <time>2010-06-13T07:21:24Z</time>
      </trkpt>
      <trkpt lat="48.76322" lon="7.27261">
        <ele>344.515991</ele>
        <time>2010-06-13T07:21:30Z</time>
      </trkpt>
      <trkpt lat="48.76302" lon="7.27252">
        <ele>344.687866</ele>
        <time>2010-06-13T07:21:36Z</time>
      </trkpt>
      <trkpt lat="48.76284" lon="7.27242">
        <ele>345.062866</ele>
        <time>2010-06-13T07:21:41Z</time>
      </trkpt>
      <trkpt lat="48.76264" lon="7.27232">
        <ele>344.851929</ele>
        <time>2010-06-13T07:21:47Z</time>
      </trkpt>
      <trkpt lat="48.76244" lon="7.27222">
        <ele>344.375366</ele>
        <time>2010-06-13T07:21:53Z</time>
      </trkpt>
      <trkpt lat="48.76225" lon="7.27213">
        <ele>343.922241</ele>
        <time>2010-06-13T07:21:58Z</time>
      </trkpt>
      <trkpt lat="48.76206" lon="7.27203">
        <ele>343.586304</ele>
        <time>2010-06-13T07:22:03Z</time>
      </trkpt>
      <trkpt lat="48.76186" lon="7.27197">
        <ele>343.609741</ele>
        <time>2010-06-13T07:22:08Z</time>
      </trkpt>
      <trkpt lat="48.76167" lon="7.27194">
        <ele>344.180054</ele>
        <time>2010-06-13T07:22:13Z</time>
      </trkpt>
      <trkpt lat="48.76148" lon="7.27201">
        <ele>345.164429</ele>
        <time>2010-06-13T07:22:19Z</time>
      </trkpt>
      <trkpt lat="48.76134" lon="7.2722">
        <ele>346.805054</ele>
        <time>2010-06-13T07:22:26Z</time>
      </trkpt>
      <trkpt lat="48.76123" lon="7.27242">
        <ele>349.117554</ele>
        <time>2010-06-13T07:22:33Z</time>
      </trkpt>
      <trkpt lat="48.76112" lon="7.27267">
        <ele>350.617554</ele>
        <time>2010-06-13T07:22:41Z</time>
      </trkpt>
      <trkpt lat="48.76102" lon="7.27292">
        <ele>352.133179</ele>
        <time>2010-06-13T07:22:49Z</time>
      </trkpt>
      <trkpt lat="48.76092" lon="7.27316">
        <ele>353.351929</ele>
        <time>2010-06-13T07:22:56Z</time>
      </trkpt>
      <trkpt lat="48.76079" lon="7.27338">
        <ele>355.656616</ele>
        <time>2010-06-13T07:23:04Z</time>
      </trkpt>
      <trkpt lat="48.76064" lon="7.27358">
        <ele>357.570679</ele>
        <time>2010-06-13T07:23:12Z</time>
      </trkpt>
      <trkpt lat="48.76047" lon="7.27375">
        <ele>358.289429</ele>
        <time>2010-06-13T07:23:19Z</time>
      </trkpt>
      <trkpt lat="48.76047" lon="7.27404">
        <ele>357.664429</ele>
        <time>2010-06-13T07:23:27Z</time>
      </trkpt>
      <trkpt lat="48.76054" lon="7.2743">
        <ele>359.219116</ele>
        <time>2010-06-13T07:23:34Z</time>
      </trkpt>
      <trkpt lat="48.76047" lon="7.27457">
        <ele>361.789429</ele>
        <time>2010-06-13T07:23:41Z</time>
      </trkpt>
      <trkpt lat="48.76034" lon="7.2748">
        <ele>362.281616</ele>
        <time>2010-06-13T07:23:49Z</time>
      </trkpt>
      <trkpt lat="48.7602" lon="7.27501">
        <ele>362.375366</ele>
        <time>2010-06-13T07:23:57Z</time>
      </trkpt>
      <trkpt lat="48.76008" lon="7.27521">
        <ele>364.445679</ele>
        <time>2010-06-13T07:24:04Z</time>
      </trkpt>
      <trkpt lat="48.75995" lon="7.27544">
        <ele>365.117554</ele>
        <time>2010-06-13T07:24:11Z</time>
      </trkpt>
      <trkpt lat="48.75983" lon="7.27564">
        <ele>365.609741</ele>
        <time>2010-06-13T07:24:17Z</time>
      </trkpt>
      <trkpt lat="48.75971" lon="7.27588">
        <ele>366.008179</ele>
        <time>2010-06-13T07:24:23Z</time>
      </trkpt>
      <trkpt lat="48.75963" lon="7.27618">
        <ele>367.617554</ele>
        <time>2010-06-13T07:24:30Z</time>
      </trkpt>
      <trkpt lat="48.75957" lon="7.27648">
        <ele>368.226929</ele>
        <time>2010-06-13T07:24:37Z</time>
      </trkpt>
      <trkpt lat="48.75949" lon="7.27675">
        <ele>369.140991</ele>
        <time>2010-06-13T07:24:44Z</time>
      </trkpt>
      <trkpt lat="48.75938" lon="7.27701">
        <ele>370.094116</ele>
        <time>2010-06-13T07:24:51Z</time>
      </trkpt>
      <trkpt lat="48.75926" lon="7.27724">
        <ele>371.094116</ele>
        <time>2010-06-13T07:24:58Z</time>
      </trkpt>
      <trkpt lat="48.75914" lon="7.27748">
        <ele>371.351929</ele>
        <time>2010-06-13T07:25:05Z</time>
      </trkpt>
      <trkpt lat="48.75902" lon="7.27774">
        <ele>372.476929</ele>
        <time>2010-06-13T07:25:12Z</time>
      </trkpt>
      <trkpt lat="48.75891" lon="7.27798">
        <ele>369.023804</ele>
        <time>2010-06-13T07:25:19Z</time>
      </trkpt>
      <trkpt lat="48.75879" lon="7.27821">
        <ele>368.414429</ele>
        <time>2010-06-13T07:25:26Z</time>
      </trkpt>
      <trkpt lat="48.75867" lon="7.27845">
        <ele>369.062866</ele>
        <time>2010-06-13T07:25:32Z</time>
      </trkpt>
      <trkpt lat="48.75855" lon="7.27869">
        <ele>370.461304</ele>
        <time>2010-06-13T07:25:38Z</time>
      </trkpt>
      <trkpt lat="48.75844" lon="7.2789">
        <ele>371.992554</ele>
        <time>2010-06-13T07:25:44Z</time>
      </trkpt>
      <trkpt lat="48.75831" lon="7.27913">
        <ele>372.867554</ele>
        <time>2010-06-13T07:25:50Z</time>
      </trkpt>
      <trkpt lat="48.75818" lon="7.27932">
        <ele>373.640991</ele>
        <time>2010-06-13T07:25:56Z</time>
      </trkpt>
      <trkpt lat="48.75804" lon="7.27953">
        <ele>374.469116</ele>
        <time>2010-06-13T07:26:02Z</time>
      </trkpt>
      <trkpt lat="48.75791" lon="7.27973">
        <ele>375.695679</ele>
        <time>2010-06-13T07:26:08Z</time>
      </trkpt>
      <trkpt lat="48.75779" lon="7.27996">
        <ele>376.359741</ele>
        <time>2010-06-13T07:26:14Z</time>
      </trkpt>
      <trkpt lat="48.75769" lon="7.28019">
        <ele>376.742554</ele>
        <time>2010-06-13T07:26:20Z</time>
      </trkpt>
      <trkpt lat="48.75757" lon="7.28041">
        <ele>377.039429</ele>
        <time>2010-06-13T07:26:26Z</time>
      </trkpt>
      <trkpt lat="48.75737" lon="7.28042">
        <ele>377.258179</ele>
        <time>2010-06-13T07:26:32Z</time>
      </trkpt>
      <trkpt lat="48.75717" lon="7.28032">
        <ele>376.305054</ele>
        <time>2010-06-13T07:26:38Z</time>
      </trkpt>
      <trkpt lat="48.75697" lon="7.28029">
        <ele>375.531616</ele>
        <time>2010-06-13T07:26:44Z</time>
      </trkpt>
      <trkpt lat="48.75678" lon="7.28031">
        <ele>374.086304</ele>
        <time>2010-06-13T07:26:50Z</time>
      </trkpt>
      <trkpt lat="48.7566" lon="7.28044">
        <ele>373.695679</ele>
        <time>2010-06-13T07:26:56Z</time>
      </trkpt>
      <trkpt lat="48.75644" lon="7.28063">
        <ele>373.414429</ele>
        <time>2010-06-13T07:27:02Z</time>
      </trkpt>
      <trkpt lat="48.75628" lon="7.28076">
        <ele>373.109741</ele>
        <time>2010-06-13T07:27:07Z</time>
      </trkpt>
      <trkpt lat="48.75607" lon="7.28085">
        <ele>373.047241</ele>
        <time>2010-06-13T07:27:13Z</time>
      </trkpt>
      <trkpt lat="48.75588" lon="7.28092">
        <ele>373.476929</ele>
        <time>2010-06-13T07:27:18Z</time>
      </trkpt>
      <trkpt lat="48.75569" lon="7.28103">
        <ele>373.992554</ele>
        <time>2010-06-13T07:27:23Z</time>
      </trkpt>
      <trkpt lat="48.7555" lon="7.28118">
        <ele>373.758179</ele>
        <time>2010-06-13T07:27:28Z</time>
      </trkpt>
      <trkpt lat="48.75532" lon="7.28131">
        <ele>374.445679</ele>
        <time>2010-06-13T07:27:33Z</time>
      </trkpt>
      <trkpt lat="48.75514" lon="7.28144">
        <ele>374.719116</ele>
        <time>2010-06-13T07:27:38Z</time>
      </trkpt>
      <trkpt lat="48.75496" lon="7.28159">
        <ele>374.461304</ele>
        <time>2010-06-13T07:27:43Z</time>
      </trkpt>
      <trkpt lat="48.75479" lon="7.28178">
        <ele>374.656616</ele>
        <time>2010-06-13T07:27:48Z</time>
      </trkpt>
      <trkpt lat="48.75463" lon="7.28198">
        <ele>375.078491</ele>
        <time>2010-06-13T07:27:53Z</time>
      </trkpt>
      <trkpt lat="48.75444" lon="7.28212">
        <ele>375.265991</ele>
        <time>2010-06-13T07:27:58Z</time>
      </trkpt>
      <trkpt lat="48.75425" lon="7.28224">
        <ele>374.383179</ele>
        <time>2010-06-13T07:28:02Z</time>
      </trkpt>
      <trkpt lat="48.75406" lon="7.28238">
        <ele>374.242554</ele>
        <time>2010-06-13T07:28:07Z</time>
      </trkpt>
      <trkpt lat="48.75393" lon="7.2826">
        <ele>373.633179</ele>
        <time>2010-06-13T07:28:12Z</time>
      </trkpt>
      <trkpt lat="48.75386" lon="7.28289">
        <ele>372.687866</ele>
        <time>2010-06-13T07:28:18Z</time>
      </trkpt>
      <trkpt lat="48.75389" lon="7.2832">
        <ele>372.984741</ele>
        <time>2010-06-13T07:28:23Z</time>
      </trkpt>
      <trkpt lat="48.75382" lon="7.28345">
        <ele>373.601929</ele>
        <time>2010-06-13T07:28:27Z</time>
      </trkpt>
      <trkpt lat="48.75372" lon="7.28373">
        <ele>374.109741</ele>
        <time>2010-06-13T07:28:32Z</time>
      </trkpt>
      <trkpt lat="48.75364" lon="7.28401">
        <ele>373.992554</ele>
        <time>2010-06-13T07:28:37Z</time>
      </trkpt>
      <trkpt lat="48.75357" lon="7.2843">
        <ele>374.109741</ele>
        <time>2010-06-13T07:28:42Z</time>
      </trkpt>
      <trkpt lat="48.75348" lon="7.28455">
        <ele>374.023804</ele>
        <time>2010-06-13T07:28:49Z</time>
      </trkpt>
      <trkpt lat="48.7533" lon="7.28451">
        <ele>371.625366</ele>
        <time>2010-06-13T07:29:45Z</time>
      </trkpt>
      <trkpt lat="48.75312" lon="7.28444">
        <ele>371.890991</ele>
        <time>2010-06-13T07:29:50Z</time>
      </trkpt>
      <trkpt lat="48.75292" lon="7.28443">
        <ele>372.015991</ele>
        <time>2010-06-13T07:29:55Z</time>
      </trkpt>
      <trkpt lat="48.75266" lon="7.28429">
        <ele>372.234741</ele>
        <time>2010-06-13T07:30:00Z</time>
      </trkpt>
      <trkpt lat="48.75248" lon="7.28428">
        <ele>371.930054</ele>
        <time>2010-06-13T07:30:04Z</time>
      </trkpt>
      <trkpt lat="48.75228" lon="7.28429">
        <ele>370.523804</ele>
        <time>2010-06-13T07:30:07Z</time>
      </trkpt>
      <trkpt lat="48.75209" lon="7.28434">
        <ele>370.390991</ele>
        <time>2010-06-13T07:30:10Z</time>
      </trkpt>
      <trkpt lat="48.75186" lon="7.28435">
        <ele>371.226929</ele>
        <time>2010-06-13T07:30:13Z</time>
      </trkpt>
      <trkpt lat="48.75168" lon="7.28442">
        <ele>373.383179</ele>
        <time>2010-06-13T07:30:16Z</time>
      </trkpt>
      <trkpt lat="48.75149" lon="7.28449">
        <ele>374.906616</ele>
        <time>2010-06-13T07:30:20Z</time>
      </trkpt>
      <trkpt lat="48.75128" lon="7.28453">
        <ele>377.031616</ele>
        <time>2010-06-13T07:30:24Z</time>
      </trkpt>
      <trkpt lat="48.7511" lon="7.28457">
        <ele>379.781616</ele>
        <time>2010-06-13T07:30:29Z</time>
      </trkpt>
      <trkpt lat="48.75087" lon="7.2846">
        <ele>382.594116</ele>
        <time>2010-06-13T07:30:33Z</time>
      </trkpt>
      <trkpt lat="48.75071" lon="7.28482">
        <ele>379.719116</ele>
        <time>2010-06-13T07:30:37Z</time>
      </trkpt>
      <trkpt lat="48.75051" lon="7.28475">
        <ele>383.633179</ele>
        <time>2010-06-13T07:30:48Z</time>
      </trkpt>
      <trkpt lat="48.75032" lon="7.28498">
        <ele>382.195679</ele>
        <time>2010-06-13T07:30:52Z</time>
      </trkpt>
      <trkpt lat="48.75022" lon="7.28525">
        <ele>376.117554</ele>
        <time>2010-06-13T07:30:55Z</time>
      </trkpt>
      <trkpt lat="48.75016" lon="7.28553">
        <ele>370.234741</ele>
        <time>2010-06-13T07:31:01Z</time>
      </trkpt>
      <trkpt lat="48.75008" lon="7.2858">
        <ele>367.320679</ele>
        <time>2010-06-13T07:31:06Z</time>
      </trkpt>
      <trkpt lat="48.75" lon="7.28611">
        <ele>365.742554</ele>
        <time>2010-06-13T07:31:11Z</time>
      </trkpt>
      <trkpt lat="48.74993" lon="7.28637">
        <ele>364.086304</ele>
        <time>2010-06-13T07:31:16Z</time>
      </trkpt>
      <trkpt lat="48.74975" lon="7.28635">
        <ele>362.094116</ele>
        <time>2010-06-13T07:31:22Z</time>
      </trkpt>
      <trkpt lat="48.74956" lon="7.28635">
        <ele>355.523804</ele>
        <time>2010-06-13T07:31:27Z</time>
      </trkpt>
      <trkpt lat="48.74936" lon="7.28637">
        <ele>351.617554</ele>
        <time>2010-06-13T07:31:32Z</time>
      </trkpt>
      <trkpt lat="48.74918" lon="7.2863">
        <ele>347.961304</ele>
        <time>2010-06-13T07:31:35Z</time>
      </trkpt>
      <trkpt lat="48.74905" lon="7.28604">
        <ele>343.984741</ele>
        <time>2010-06-13T07:31:40Z</time>
      </trkpt>
      <trkpt lat="48.74888" lon="7.2859">
        <ele>340.422241</ele>
        <time>2010-06-13T07:31:44Z</time>
      </trkpt>
      <trkpt lat="48.74867" lon="7.28591">
        <ele>339.289429</ele>
        <time>2010-06-13T07:31:49Z</time>
      </trkpt>
      <trkpt lat="48.74855" lon="7.28615">
        <ele>338.992554</ele>
        <time>2010-06-13T07:31:54Z</time>
      </trkpt>
      <trkpt lat="48.74846" lon="7.28638">
        <ele>335.875366</ele>
        <time>2010-06-13T07:31:58Z</time>
      </trkpt>
      <trkpt lat="48.74834" lon="7.2866">
        <ele>336.070679</ele>
        <time>2010-06-13T07:32:04Z</time>
      </trkpt>
      <trkpt lat="48.74822" lon="7.28685">
        <ele>332.750366</ele>
        <time>2010-06-13T07:32:12Z</time>
      </trkpt>
      <trkpt lat="48.74809" lon="7.28707">
        <ele>335.883179</ele>
        <time>2010-06-13T07:32:18Z</time>
      </trkpt>
      <trkpt lat="48.74794" lon="7.28722">
        <ele>339.742554</ele>
        <time>2010-06-13T07:32:24Z</time>
      </trkpt>
      <trkpt lat="48.74779" lon="7.28743">
        <ele>341.820679</ele>
        <time>2010-06-13T07:32:31Z</time>
      </trkpt>
      <trkpt lat="48.74765" lon="7.28761">
        <ele>345.515991</ele>
        <time>2010-06-13T07:32:37Z</time>
      </trkpt>
      <trkpt lat="48.74752" lon="7.28782">
        <ele>345.430054</ele>
        <time>2010-06-13T07:32:44Z</time>
      </trkpt>
      <trkpt lat="48.74737" lon="7.28801">
        <ele>345.351929</ele>
        <time>2010-06-13T07:32:51Z</time>
      </trkpt>
      <trkpt lat="48.74724" lon="7.2882">
        <ele>347.031616</ele>
        <time>2010-06-13T07:32:59Z</time>
      </trkpt>
      <trkpt lat="48.74709" lon="7.28834">
        <ele>344.305054</ele>
        <time>2010-06-13T07:33:07Z</time>
      </trkpt>
      <trkpt lat="48.74687" lon="7.28833">
        <ele>341.250366</ele>
        <time>2010-06-13T07:33:12Z</time>
      </trkpt>
      <trkpt lat="48.74668" lon="7.28826">
        <ele>340.156616</ele>
        <time>2010-06-13T07:33:16Z</time>
      </trkpt>
      <trkpt lat="48.74647" lon="7.28822">
        <ele>339.508179</ele>
        <time>2010-06-13T07:33:21Z</time>
      </trkpt>
      <trkpt lat="48.74626" lon="7.28815">
        <ele>340.445679</ele>
        <time>2010-06-13T07:33:26Z</time>
      </trkpt>
      <trkpt lat="48.74608" lon="7.28803">
        <ele>340.867554</ele>
        <time>2010-06-13T07:33:31Z</time>
      </trkpt>
      <trkpt lat="48.74589" lon="7.28796">
        <ele>340.890991</ele>
        <time>2010-06-13T07:33:36Z</time>
      </trkpt>
      <trkpt lat="48.74569" lon="7.28791">
        <ele>340.828491</ele>
        <time>2010-06-13T07:33:42Z</time>
      </trkpt>
      <trkpt lat="48.7455" lon="7.28785">
        <ele>341.648804</ele>
        <time>2010-06-13T07:33:46Z</time>
      </trkpt>
      <trkpt lat="48.74532" lon="7.28785">
        <ele>342.695679</ele>
        <time>2010-06-13T07:33:51Z</time>
      </trkpt>
      <trkpt lat="48.74511" lon="7.28785">
        <ele>343.562866</ele>
        <time>2010-06-13T07:33:57Z</time>
      </trkpt>
      <trkpt lat="48.74491" lon="7.28782">
        <ele>342.242554</ele>
        <time>2010-06-13T07:34:02Z</time>
      </trkpt>
      <trkpt lat="48.74472" lon="7.28783">
        <ele>341.695679</ele>
        <time>2010-06-13T07:34:06Z</time>
      </trkpt>
      <trkpt lat="48.74455" lon="7.28779">
        <ele>341.125366</ele>
        <time>2010-06-13T07:34:10Z</time>
      </trkpt>
      <trkpt lat="48.74434" lon="7.2877">
        <ele>340.062866</ele>
        <time>2010-06-13T07:34:15Z</time>
      </trkpt>
      <trkpt lat="48.74413" lon="7.28761">
        <ele>337.703491</ele>
        <time>2010-06-13T07:34:19Z</time>
      </trkpt>
      <trkpt lat="48.74395" lon="7.28756">
        <ele>337.078491</ele>
        <time>2010-06-13T07:34:22Z</time>
      </trkpt>
      <trkpt lat="48.74377" lon="7.2875">
        <ele>336.164429</ele>
        <time>2010-06-13T07:34:25Z</time>
      </trkpt>
      <trkpt lat="48.74354" lon="7.28745">
        <ele>335.133179</ele>
        <time>2010-06-13T07:34:29Z</time>
      </trkpt>
      <trkpt lat="48.74334" lon="7.28736">
        <ele>335.531616</ele>
        <time>2010-06-13T07:34:33Z</time>
      </trkpt>
      <trkpt lat="48.74315" lon="7.28729">
        <ele>335.906616</ele>
        <time>2010-06-13T07:34:37Z</time>
      </trkpt>
      <trkpt lat="48.74297" lon="7.28723">
        <ele>336.859741</ele>
        <time>2010-06-13T07:34:42Z</time>
      </trkpt>
      <trkpt lat="48.74277" lon="7.28715">
        <ele>338.765991</ele>
        <time>2010-06-13T07:34:47Z</time>
      </trkpt>
      <trkpt lat="48.74259" lon="7.28705">
        <ele>336.547241</ele>
        <time>2010-06-13T07:34:51Z</time>
      </trkpt>
      <trkpt lat="48.74241" lon="7.28693">
        <ele>337.203491</ele>
        <time>2010-06-13T07:34:56Z</time>
      </trkpt>
      <trkpt lat="48.74222" lon="7.28689">
        <ele>338.422241</ele>
        <time>2010-06-13T07:35:00Z</time>
      </trkpt>
      <trkpt lat="48.74201" lon="7.2869">
        <ele>339.461304</ele>
        <time>2010-06-13T07:35:05Z</time>
      </trkpt>
      <trkpt lat="48.74179" lon="7.28692">
        <ele>341.258179</ele>
        <time>2010-06-13T07:35:10Z</time>
      </trkpt>
      <trkpt lat="48.74161" lon="7.28687">
        <ele>342.547241</ele>
        <time>2010-06-13T07:35:14Z</time>
      </trkpt>
      <trkpt lat="48.74143" lon="7.28679">
        <ele>342.812866</ele>
        <time>2010-06-13T07:35:18Z</time>
      </trkpt>
      <trkpt lat="48.74122" lon="7.28673">
        <ele>343.367554</ele>
        <time>2010-06-13T07:35:23Z</time>
      </trkpt>
      <trkpt lat="48.74101" lon="7.28665">
        <ele>342.437866</ele>
        <time>2010-06-13T07:35:28Z</time>
      </trkpt>
      <trkpt lat="48.74083" lon="7.28658">
        <ele>340.922241</ele>
        <time>2010-06-13T07:35:32Z</time>
      </trkpt>
      <trkpt lat="48.74063" lon="7.28648">
        <ele>338.695679</ele>
        <time>2010-06-13T07:35:37Z</time>
      </trkpt>
      <trkpt lat="48.74047" lon="7.28633">
        <ele>338.305054</ele>
        <time>2010-06-13T07:35:42Z</time>
      </trkpt>
      <trkpt lat="48.74028" lon="7.28621">
        <ele>337.523804</ele>
        <time>2010-06-13T07:35:47Z</time>
      </trkpt>
      <trkpt lat="48.7401" lon="7.28608">
        <ele>336.351929</ele>
        <time>2010-06-13T07:35:53Z</time>
      </trkpt>
      <trkpt lat="48.74026" lon="7.28593">
        <ele>339.375366</ele>
        <time>2010-06-13T07:36:13Z</time>
      </trkpt>
      <trkpt lat="48.74041" lon="7.28576">
        <ele>342.289429</ele>
        <time>2010-06-13T07:36:25Z</time>
      </trkpt>
      <trkpt lat="48.74052" lon="7.28553">
        <ele>341.859741</ele>
        <time>2010-06-13T07:36:32Z</time>
      </trkpt>
      <trkpt lat="48.7407" lon="7.28543">
        <ele>341.711304</ele>
        <time>2010-06-13T07:36:40Z</time>
      </trkpt>
      <trkpt lat="48.7409" lon="7.28541">
        <ele>340.992554</ele>
        <time>2010-06-13T07:36:48Z</time>
      </trkpt>
      <trkpt lat="48.74108" lon="7.28544">
        <ele>342.359741</ele>
        <time>2010-06-13T07:37:05Z</time>
      </trkpt>
      <trkpt lat="48.74126" lon="7.2855">
        <ele>344.703491</ele>
        <time>2010-06-13T07:37:21Z</time>
      </trkpt>
      <trkpt lat="48.74145" lon="7.28549">
        <ele>346.414429</ele>
        <time>2010-06-13T07:37:32Z</time>
      </trkpt>
      <trkpt lat="48.74163" lon="7.28546">
        <ele>347.992554</ele>
        <time>2010-06-13T07:37:42Z</time>
      </trkpt>
      <trkpt lat="48.74181" lon="7.28543">
        <ele>348.469116</ele>
        <time>2010-06-13T07:37:50Z</time>
      </trkpt>
      <trkpt lat="48.742" lon="7.2854">
        <ele>349.500366</ele>
        <time>2010-06-13T07:37:57Z</time>
      </trkpt>
      <trkpt lat="48.74219" lon="7.28534">
        <ele>351.226929</ele>
        <time>2010-06-13T07:38:04Z</time>
      </trkpt>
      <trkpt lat="48.74238" lon="7.28531">
        <ele>352.664429</ele>
        <time>2010-06-13T07:38:12Z</time>
      </trkpt>
      <trkpt lat="48.74256" lon="7.28535">
        <ele>353.859741</ele>
        <time>2010-06-13T07:38:20Z</time>
      </trkpt>
      <trkpt lat="48.74275" lon="7.2854">
        <ele>354.031616</ele>
        <time>2010-06-13T07:38:28Z</time>
      </trkpt>
      <trkpt lat="48.74294" lon="7.28541">
        <ele>355.086304</ele>
        <time>2010-06-13T07:38:35Z</time>
      </trkpt>
      <trkpt lat="48.74313" lon="7.28542">
        <ele>356.101929</ele>
        <time>2010-06-13T07:38:42Z</time>
      </trkpt>
      <trkpt lat="48.74331" lon="7.28542">
        <ele>357.437866</ele>
        <time>2010-06-13T07:38:49Z</time>
      </trkpt>
      <trkpt lat="48.7435" lon="7.28535">
        <ele>359.594116</ele>
        <time>2010-06-13T07:38:59Z</time>
      </trkpt>
      <trkpt lat="48.74365" lon="7.28521">
        <ele>359.242554</ele>
        <time>2010-06-13T07:40:26Z</time>
      </trkpt>
      <trkpt lat="48.74383" lon="7.28512">
        <ele>361.539429</ele>
        <time>2010-06-13T07:40:38Z</time>
      </trkpt>
      <trkpt lat="48.74402" lon="7.28499">
        <ele>360.844116</ele>
        <time>2010-06-13T07:40:47Z</time>
      </trkpt>
      <trkpt lat="48.7442" lon="7.28488">
        <ele>361.890991</ele>
        <time>2010-06-13T07:40:55Z</time>
      </trkpt>
      <trkpt lat="48.74438" lon="7.28478">
        <ele>362.703491</ele>
        <time>2010-06-13T07:41:04Z</time>
      </trkpt>
      <trkpt lat="48.74456" lon="7.28472">
        <ele>365.187866</ele>
        <time>2010-06-13T07:41:14Z</time>
      </trkpt>
      <trkpt lat="48.74474" lon="7.2846">
        <ele>366.094116</ele>
        <time>2010-06-13T07:41:25Z</time>
      </trkpt>
      <trkpt lat="48.74492" lon="7.2845">
        <ele>369.445679</ele>
        <time>2010-06-13T07:41:34Z</time>
      </trkpt>
      <trkpt lat="48.74511" lon="7.28441">
        <ele>370.015991</ele>
        <time>2010-06-13T07:41:44Z</time>
      </trkpt>
      <trkpt lat="48.74527" lon="7.28429">
        <ele>369.867554</ele>
        <time>2010-06-13T07:41:54Z</time>
      </trkpt>
      <trkpt lat="48.74545" lon="7.28419">
        <ele>369.547241</ele>
        <time>2010-06-13T07:42:04Z</time>
      </trkpt>
      <trkpt lat="48.74562" lon="7.28402">
        <ele>370.000366</ele>
        <time>2010-06-13T07:42:13Z</time>
      </trkpt>
      <trkpt lat="48.74578" lon="7.28383">
        <ele>373.437866</ele>
        <time>2010-06-13T07:42:19Z</time>
      </trkpt>
      <trkpt lat="48.74591" lon="7.28365">
        <ele>373.672241</ele>
        <time>2010-06-13T07:42:25Z</time>
      </trkpt>
      <trkpt lat="48.74609" lon="7.28353">
        <ele>374.469116</ele>
        <time>2010-06-13T07:42:31Z</time>
      </trkpt>
      <trkpt lat="48.74626" lon="7.28341">
        <ele>376.851929</ele>
        <time>2010-06-13T07:42:37Z</time>
      </trkpt>
      <trkpt lat="48.74644" lon="7.28328">
        <ele>375.094116</ele>
        <time>2010-06-13T07:42:44Z</time>
      </trkpt>
      <trkpt lat="48.74663" lon="7.28318">
        <ele>376.008179</ele>
        <time>2010-06-13T07:42:51Z</time>
      </trkpt>
      <trkpt lat="48.74682" lon="7.28306">
        <ele>376.594116</ele>
        <time>2010-06-13T07:42:57Z</time>
      </trkpt>
      <trkpt lat="48.747" lon="7.28295">
        <ele>375.930054</ele>
        <time>2010-06-13T07:43:02Z</time>
      </trkpt>
      <trkpt lat="48.7472" lon="7.28289">
        <ele>374.265991</ele>
        <time>2010-06-13T07:43:06Z</time>
      </trkpt>
      <trkpt lat="48.74741" lon="7.28283">
        <ele>372.140991</ele>
        <time>2010-06-13T07:43:10Z</time>
      </trkpt>
      <trkpt lat="48.74762" lon="7.28278">
        <ele>373.351929</ele>
        <time>2010-06-13T07:43:14Z</time>
      </trkpt>
      <trkpt lat="48.74782" lon="7.28273">
        <ele>373.476929</ele>
        <time>2010-06-13T07:43:19Z</time>
      </trkpt>
      <trkpt lat="48.74803" lon="7.28264">
        <ele>374.015991</ele>
        <time>2010-06-13T07:43:24Z</time>
      </trkpt>
      <trkpt lat="48.7482" lon="7.28257">
        <ele>371.695679</ele>
        <time>2010-06-13T07:43:28Z</time>
      </trkpt>
      <trkpt lat="48.74838" lon="7.28245">
        <ele>370.250366</ele>
        <time>2010-06-13T07:43:32Z</time>
      </trkpt>
      <trkpt lat="48.74858" lon="7.28242">
        <ele>368.140991</ele>
        <time>2010-06-13T07:43:36Z</time>
      </trkpt>
      <trkpt lat="48.74876" lon="7.28237">
        <ele>367.742554</ele>
        <time>2010-06-13T07:43:40Z</time>
      </trkpt>
      <trkpt lat="48.74898" lon="7.28232">
        <ele>366.648804</ele>
        <time>2010-06-13T07:43:45Z</time>
      </trkpt>
      <trkpt lat="48.74916" lon="7.28216">
        <ele>366.312866</ele>
        <time>2010-06-13T07:43:49Z</time>
      </trkpt>
      <trkpt lat="48.74935" lon="7.28202">
        <ele>366.445679</ele>
        <time>2010-06-13T07:43:53Z</time>
      </trkpt>
      <trkpt lat="48.74955" lon="7.28192">
        <ele>367.086304</ele>
        <time>2010-06-13T07:43:57Z</time>
      </trkpt>
      <trkpt lat="48.74961" lon="7.28166">
        <ele>369.562866</ele>
        <time>2010-06-13T07:44:09Z</time>
      </trkpt>
      <trkpt lat="48.74954" lon="7.28139">
        <ele>370.305054</ele>
        <time>2010-06-13T07:44:20Z</time>
      </trkpt>
      <trkpt lat="48.74934" lon="7.28137">
        <ele>370.140991</ele>
        <time>2010-06-13T07:45:50Z</time>
      </trkpt>
      <trkpt lat="48.74916" lon="7.2814">
        <ele>368.656616</ele>
        <time>2010-06-13T07:45:55Z</time>
      </trkpt>
      <trkpt lat="48.74894" lon="7.28147">
        <ele>366.773804</ele>
        <time>2010-06-13T07:46:00Z</time>
      </trkpt>
      <trkpt lat="48.74877" lon="7.28155">
        <ele>366.273804</ele>
        <time>2010-06-13T07:46:04Z</time>
      </trkpt>
      <trkpt lat="48.74856" lon="7.28162">
        <ele>366.320679</ele>
        <time>2010-06-13T07:46:09Z</time>
      </trkpt>
      <trkpt lat="48.74837" lon="7.28167">
        <ele>365.828491</ele>
        <time>2010-06-13T07:46:14Z</time>
      </trkpt>
      <trkpt lat="48.74818" lon="7.28172">
        <ele>365.445679</ele>
        <time>2010-06-13T07:46:21Z</time>
      </trkpt>
      <trkpt lat="48.74804" lon="7.28153">
        <ele>363.523804</ele>
        <time>2010-06-13T07:46:28Z</time>
      </trkpt>
      <trkpt lat="48.74793" lon="7.28125">
        <ele>359.180054</ele>
        <time>2010-06-13T07:46:33Z</time>
      </trkpt>
      <trkpt lat="48.74783" lon="7.28096">
        <ele>354.601929</ele>
        <time>2010-06-13T07:46:38Z</time>
      </trkpt>
      <trkpt lat="48.74772" lon="7.28071">
        <ele>348.156616</ele>
        <time>2010-06-13T07:46:43Z</time>
      </trkpt>
      <trkpt lat="48.7476" lon="7.28046">
        <ele>342.008179</ele>
        <time>2010-06-13T07:46:49Z</time>
      </trkpt>
      <trkpt lat="48.74762" lon="7.28018">
        <ele>338.680054</ele>
        <time>2010-06-13T07:46:57Z</time>
      </trkpt>
      <trkpt lat="48.74779" lon="7.28009">
        <ele>337.258179</ele>
        <time>2010-06-13T07:47:02Z</time>
      </trkpt>
      <trkpt lat="48.74797" lon="7.27992">
        <ele>338.297241</ele>
        <time>2010-06-13T07:47:08Z</time>
      </trkpt>
      <trkpt lat="48.74807" lon="7.27968">
        <ele>337.914429</ele>
        <time>2010-06-13T07:47:13Z</time>
      </trkpt>
      <trkpt lat="48.7481" lon="7.27934">
        <ele>336.648804</ele>
        <time>2010-06-13T07:47:18Z</time>
      </trkpt>
      <trkpt lat="48.74809" lon="7.27897">
        <ele>334.758179</ele>
        <time>2010-06-13T07:47:22Z</time>
      </trkpt>
      <trkpt lat="48.74805" lon="7.27865">
        <ele>332.117554</ele>
        <time>2010-06-13T07:47:26Z</time>
      </trkpt>
      <trkpt lat="48.74804" lon="7.27836">
        <ele>329.922241</ele>
        <time>2010-06-13T07:47:30Z</time>
      </trkpt>
      <trkpt lat="48.74807" lon="7.27801">
        <ele>329.312866</ele>
        <time>2010-06-13T07:47:34Z</time>
      </trkpt>
      <trkpt lat="48.74816" lon="7.2777">
        <ele>328.515991</ele>
        <time>2010-06-13T07:47:38Z</time>
      </trkpt>
      <trkpt lat="48.74828" lon="7.27749">
        <ele>330.312866</ele>
        <time>2010-06-13T07:47:42Z</time>
      </trkpt>
      <trkpt lat="48.7484" lon="7.27727">
        <ele>332.094116</ele>
        <time>2010-06-13T07:47:47Z</time>
      </trkpt>
      <trkpt lat="48.74857" lon="7.27714">
        <ele>329.023804</ele>
        <time>2010-06-13T07:47:51Z</time>
      </trkpt>
      <trkpt lat="48.74869" lon="7.27688">
        <ele>325.375366</ele>
        <time>2010-06-13T07:47:59Z</time>
      </trkpt>
      <trkpt lat="48.74878" lon="7.27662">
        <ele>323.609741</ele>
        <time>2010-06-13T07:48:03Z</time>
      </trkpt>
      <trkpt lat="48.74888" lon="7.27635">
        <ele>326.687866</ele>
        <time>2010-06-13T07:48:07Z</time>
      </trkpt>
      <trkpt lat="48.74897" lon="7.27607">
        <ele>328.562866</ele>
        <time>2010-06-13T07:48:11Z</time>
      </trkpt>
      <trkpt lat="48.74903" lon="7.27578">
        <ele>329.594116</ele>
        <time>2010-06-13T07:48:16Z</time>
      </trkpt>
      <trkpt lat="48.74885" lon="7.27593">
        <ele>324.039429</ele>
        <time>2010-06-13T07:48:30Z</time>
      </trkpt>
      <trkpt lat="48.74867" lon="7.27609">
        <ele>321.297241</ele>
        <time>2010-06-13T07:48:34Z</time>
      </trkpt>
      <trkpt lat="48.74846" lon="7.27627">
        <ele>319.265991</ele>
        <time>2010-06-13T07:48:38Z</time>
      </trkpt>
      <trkpt lat="48.74828" lon="7.27646">
        <ele>318.226929</ele>
        <time>2010-06-13T07:48:42Z</time>
      </trkpt>
      <trkpt lat="48.74811" lon="7.27662">
        <ele>316.125366</ele>
        <time>2010-06-13T07:48:45Z</time>
      </trkpt>
      <trkpt lat="48.74796" lon="7.27688">
        <ele>313.930054</ele>
        <time>2010-06-13T07:48:48Z</time>
      </trkpt>
      <trkpt lat="48.7478" lon="7.27711">
        <ele>311.890991</ele>
        <time>2010-06-13T07:48:51Z</time>
      </trkpt>
      <trkpt lat="48.74763" lon="7.27735">
        <ele>310.320679</ele>
        <time>2010-06-13T07:48:54Z</time>
      </trkpt>
      <trkpt lat="48.74748" lon="7.27759">
        <ele>308.351929</ele>
        <time>2010-06-13T07:48:58Z</time>
      </trkpt>
      <trkpt lat="48.74731" lon="7.27781">
        <ele>305.726929</ele>
        <time>2010-06-13T07:49:01Z</time>
      </trkpt>
      <trkpt lat="48.74716" lon="7.27812">
        <ele>302.031616</ele>
        <time>2010-06-13T07:49:04Z</time>
      </trkpt>
      <trkpt lat="48.74701" lon="7.27841">
        <ele>300.203491</ele>
        <time>2010-06-13T07:49:07Z</time>
      </trkpt>
      <trkpt lat="48.74686" lon="7.27863">
        <ele>298.430054</ele>
        <time>2010-06-13T07:49:10Z</time>
      </trkpt>
      <trkpt lat="48.74672" lon="7.27886">
        <ele>296.625366</ele>
        <time>2010-06-13T07:49:13Z</time>
      </trkpt>
      <trkpt lat="48.74655" lon="7.27903">
        <ele>295.258179</ele>
        <time>2010-06-13T07:49:17Z</time>
      </trkpt>
      <trkpt lat="48.74638" lon="7.27916">
        <ele>293.117554</ele>
        <time>2010-06-13T07:49:21Z</time>
      </trkpt>
      <trkpt lat="48.74621" lon="7.27928">
        <ele>291.883179</ele>
        <time>2010-06-13T07:49:25Z</time>
      </trkpt>
      <trkpt lat="48.74604" lon="7.27941">
        <ele>289.492554</ele>
        <time>2010-06-13T07:49:29Z</time>
      </trkpt>
      <trkpt lat="48.74586" lon="7.27956">
        <ele>286.758179</ele>
        <time>2010-06-13T07:49:33Z</time>
      </trkpt>
      <trkpt lat="48.74571" lon="7.27972">
        <ele>285.226929</ele>
        <time>2010-06-13T07:49:37Z</time>
      </trkpt>
      <trkpt lat="48.74555" lon="7.27988">
        <ele>285.711304</ele>
        <time>2010-06-13T07:49:42Z</time>
      </trkpt>
      <trkpt lat="48.74538" lon="7.28004">
        <ele>285.609741</ele>
        <time>2010-06-13T07:49:47Z</time>
      </trkpt>
      <trkpt lat="48.74521" lon="7.28019">
        <ele>285.320679</ele>
        <time>2010-06-13T07:49:52Z</time>
      </trkpt>
      <trkpt lat="48.74504" lon="7.28037">
        <ele>283.875366</ele>
        <time>2010-06-13T07:49:57Z</time>
      </trkpt>
      <trkpt lat="48.7449" lon="7.28055">
        <ele>284.961304</ele>
        <time>2010-06-13T07:50:02Z</time>
      </trkpt>
      <trkpt lat="48.74474" lon="7.2807">
        <ele>285.086304</ele>
        <time>2010-06-13T07:50:08Z</time>
      </trkpt>
      <trkpt lat="48.74459" lon="7.28086">
        <ele>284.992554</ele>
        <time>2010-06-13T07:50:14Z</time>
      </trkpt>
      <trkpt lat="48.74442" lon="7.28102">
        <ele>287.922241</ele>
        <time>2010-06-13T07:50:21Z</time>
      </trkpt>
      <trkpt lat="48.74428" lon="7.28121">
        <ele>286.117554</ele>
        <time>2010-06-13T07:50:27Z</time>
      </trkpt>
      <trkpt lat="48.74409" lon="7.28134">
        <ele>284.586304</ele>
        <time>2010-06-13T07:50:37Z</time>
      </trkpt>
      <trkpt lat="48.7439" lon="7.28141">
        <ele>284.383179</ele>
        <time>2010-06-13T07:50:42Z</time>
      </trkpt>
      <trkpt lat="48.74373" lon="7.2815">
        <ele>284.156616</ele>
        <time>2010-06-13T07:50:47Z</time>
      </trkpt>
      <trkpt lat="48.74355" lon="7.28162">
        <ele>285.094116</ele>
        <time>2010-06-13T07:50:52Z</time>
      </trkpt>
      <trkpt lat="48.74336" lon="7.28178">
        <ele>285.383179</ele>
        <time>2010-06-13T07:50:57Z</time>
      </trkpt>
      <trkpt lat="48.74316" lon="7.28184">
        <ele>285.461304</ele>
        <time>2010-06-13T07:51:02Z</time>
      </trkpt>
      <trkpt lat="48.74296" lon="7.28196">
        <ele>285.312866</ele>
        <time>2010-06-13T07:51:07Z</time>
      </trkpt>
      <trkpt lat="48.74277" lon="7.28208">
        <ele>285.390991</ele>
        <time>2010-06-13T07:51:12Z</time>
      </trkpt>
      <trkpt lat="48.7426" lon="7.28222">
        <ele>284.180054</ele>
        <time>2010-06-13T07:51:17Z</time>
      </trkpt>
      <trkpt lat="48.74241" lon="7.28234">
        <ele>284.719116</ele>
        <time>2010-06-13T07:51:22Z</time>
      </trkpt>
      <trkpt lat="48.74221" lon="7.28242">
        <ele>284.711304</ele>
        <time>2010-06-13T07:51:28Z</time>
      </trkpt>
      <trkpt lat="48.74201" lon="7.28252">
        <ele>285.250366</ele>
        <time>2010-06-13T07:51:35Z</time>
      </trkpt>
      <trkpt lat="48.74184" lon="7.28264">
        <ele>286.336304</ele>
        <time>2010-06-13T07:51:41Z</time>
      </trkpt>
      <trkpt lat="48.74167" lon="7.28276">
        <ele>287.742554</ele>
        <time>2010-06-13T07:51:47Z</time>
      </trkpt>
      <trkpt lat="48.74149" lon="7.28287">
        <ele>287.461304</ele>
        <time>2010-06-13T07:51:53Z</time>
      </trkpt>
      <trkpt lat="48.74133" lon="7.28297">
        <ele>288.773804</ele>
        <time>2010-06-13T07:51:58Z</time>
      </trkpt>
      <trkpt lat="48.74115" lon="7.28307">
        <ele>290.969116</ele>
        <time>2010-06-13T07:52:05Z</time>
      </trkpt>
      <trkpt lat="48.74095" lon="7.28313">
        <ele>291.961304</ele>
        <time>2010-06-13T07:52:10Z</time>
      </trkpt>
      <trkpt lat="48.74075" lon="7.28317">
        <ele>292.187866</ele>
        <time>2010-06-13T07:52:14Z</time>
      </trkpt>
      <trkpt lat="48.74052" lon="7.28316">
        <ele>292.820679</ele>
        <time>2010-06-13T07:52:18Z</time>
      </trkpt>
      <trkpt lat="48.74034" lon="7.2832">
        <ele>289.617554</ele>
        <time>2010-06-13T07:52:21Z</time>
      </trkpt>
      <trkpt lat="48.74012" lon="7.28315">
        <ele>285.219116</ele>
        <time>2010-06-13T07:52:26Z</time>
      </trkpt>
      <trkpt lat="48.73993" lon="7.28309">
        <ele>279.836304</ele>
        <time>2010-06-13T07:52:30Z</time>
      </trkpt>
      <trkpt lat="48.73971" lon="7.28306">
        <ele>273.937866</ele>
        <time>2010-06-13T07:52:35Z</time>
      </trkpt>
      <trkpt lat="48.7395" lon="7.28306">
        <ele>267.406616</ele>
        <time>2010-06-13T07:52:39Z</time>
      </trkpt>
      <trkpt lat="48.7393" lon="7.28306">
        <ele>261.328491</ele>
        <time>2010-06-13T07:52:43Z</time>
      </trkpt>
      <trkpt lat="48.7391" lon="7.28308">
        <ele>258.062866</ele>
        <time>2010-06-13T07:52:47Z</time>
      </trkpt>
      <trkpt lat="48.7389" lon="7.28311">
        <ele>255.394714</ele>
        <time>2010-06-13T07:52:50Z</time>
      </trkpt>
      <trkpt lat="48.7387" lon="7.28308">
        <ele>251.586121</ele>
        <time>2010-06-13T07:52:53Z</time>
      </trkpt>
      <trkpt lat="48.7385" lon="7.28306">
        <ele>247.902527</ele>
        <time>2010-06-13T07:52:56Z</time>
      </trkpt>
      <trkpt lat="48.73832" lon="7.28305">
        <ele>242.742371</ele>
        <time>2010-06-13T07:52:59Z</time>
      </trkpt>
      <trkpt lat="48.73809" lon="7.28302">
        <ele>238.093933</ele>
        <time>2010-06-13T07:53:03Z</time>
      </trkpt>
      <trkpt lat="48.73789" lon="7.28304">
        <ele>235.918152</ele>
        <time>2010-06-13T07:53:06Z</time>
      </trkpt>
      <trkpt lat="48.73766" lon="7.28309">
        <ele>234.222839</ele>
        <time>2010-06-13T07:53:09Z</time>
      </trkpt>
      <trkpt lat="48.73741" lon="7.28314">
        <ele>232.590027</ele>
        <time>2010-06-13T07:53:12Z</time>
      </trkpt>
      <trkpt lat="48.73715" lon="7.28311">
        <ele>231.140808</ele>
        <time>2010-06-13T07:53:15Z</time>
      </trkpt>
      <trkpt lat="48.7369" lon="7.283">
        <ele>230.015808</ele>
        <time>2010-06-13T07:53:18Z</time>
      </trkpt>
      <trkpt lat="48.73666" lon="7.28285">
        <ele>229.183777</ele>
        <time>2010-06-13T07:53:21Z</time>
      </trkpt>
      <trkpt lat="48.7364" lon="7.28271">
        <ele>228.691589</ele>
        <time>2010-06-13T07:53:24Z</time>
      </trkpt>
      <trkpt lat="48.73616" lon="7.28257">
        <ele>227.550964</ele>
        <time>2010-06-13T07:53:27Z</time>
      </trkpt>
      <trkpt lat="48.73595" lon="7.28241">
        <ele>227.320496</ele>
        <time>2010-06-13T07:53:30Z</time>
      </trkpt>
      <trkpt lat="48.73575" lon="7.28222">
        <ele>226.972839</ele>
        <time>2010-06-13T07:53:33Z</time>
      </trkpt>
      <trkpt lat="48.73556" lon="7.28208">
        <ele>226.160339</ele>
        <time>2010-06-13T07:53:36Z</time>
      </trkpt>
      <trkpt lat="48.73534" lon="7.28196">
        <ele>227.640808</ele>
        <time>2010-06-13T07:53:40Z</time>
      </trkpt>
      <trkpt lat="48.73512" lon="7.28184">
        <ele>226.257996</ele>
        <time>2010-06-13T07:53:44Z</time>
      </trkpt>
      <trkpt lat="48.73491" lon="7.28171">
        <ele>223.925964</ele>
        <time>2010-06-13T07:53:48Z</time>
      </trkpt>
      <trkpt lat="48.73473" lon="7.28166">
        <ele>222.257996</ele>
        <time>2010-06-13T07:53:51Z</time>
      </trkpt>
      <trkpt lat="48.73454" lon="7.28166">
        <ele>222.472839</ele>
        <time>2010-06-13T07:53:54Z</time>
      </trkpt>
      <trkpt lat="48.73433" lon="7.28167">
        <ele>221.582214</ele>
        <time>2010-06-13T07:53:58Z</time>
      </trkpt>
      <trkpt lat="48.73409" lon="7.28167">
        <ele>219.500183</ele>
        <time>2010-06-13T07:54:02Z</time>
      </trkpt>
      <trkpt lat="48.73391" lon="7.2816">
        <ele>218.547058</ele>
        <time>2010-06-13T07:54:06Z</time>
      </trkpt>
      <trkpt lat="48.73373" lon="7.28154">
        <ele>216.136902</ele>
        <time>2010-06-13T07:54:30Z</time>
      </trkpt>
      <trkpt lat="48.73356" lon="7.28169">
        <ele>215.293152</ele>
        <time>2010-06-13T07:54:39Z</time>
      </trkpt>
      <trkpt lat="48.73345" lon="7.28193">
        <ele>213.929871</ele>
        <time>2010-06-13T07:54:58Z</time>
      </trkpt>
      <trkpt lat="48.73335" lon="7.28218">
        <ele>214.195496</ele>
        <time>2010-06-13T07:55:05Z</time>
      </trkpt>
      <trkpt lat="48.73318" lon="7.28227">
        <ele>212.984558</ele>
        <time>2010-06-13T07:55:33Z</time>
      </trkpt>
      <trkpt lat="48.7332" lon="7.28199">
        <ele>213.769714</ele>
        <time>2010-06-13T07:55:52Z</time>
      </trkpt>
      <trkpt lat="48.73327" lon="7.28172">
        <ele>216.125183</ele>
        <time>2010-06-13T07:58:44Z</time>
      </trkpt>
      <trkpt lat="48.73336" lon="7.28144">
        <ele>216.375183</ele>
        <time>2010-06-13T07:58:51Z</time>
      </trkpt>
      <trkpt lat="48.73345" lon="7.28117">
        <ele>216.289246</ele>
        <time>2010-06-13T07:58:57Z</time>
      </trkpt>
      <trkpt lat="48.73355" lon="7.28089">
        <ele>216.640808</ele>
        <time>2010-06-13T07:59:02Z</time>
      </trkpt>
      <trkpt lat="48.73365" lon="7.28061">
        <ele>216.617371</ele>
        <time>2010-06-13T07:59:07Z</time>
      </trkpt>
      <trkpt lat="48.73375" lon="7.28034">
        <ele>216.910339</ele>
        <time>2010-06-13T07:59:12Z</time>
      </trkpt>
      <trkpt lat="48.73385" lon="7.28006">
        <ele>217.156433</ele>
        <time>2010-06-13T07:59:17Z</time>
      </trkpt>
      <trkpt lat="48.73394" lon="7.27977">
        <ele>216.761902</ele>
        <time>2010-06-13T07:59:22Z</time>
      </trkpt>
      <trkpt lat="48.73405" lon="7.27947">
        <ele>215.898621</ele>
        <time>2010-06-13T07:59:27Z</time>
      </trkpt>
      <trkpt lat="48.73414" lon="7.27917">
        <ele>215.328308</ele>
        <time>2010-06-13T07:59:32Z</time>
      </trkpt>
      <trkpt lat="48.73423" lon="7.27893">
        <ele>215.246277</ele>
        <time>2010-06-13T07:59:36Z</time>
      </trkpt>
      <trkpt lat="48.73432" lon="7.27868">
        <ele>215.519714</ele>
        <time>2010-06-13T07:59:40Z</time>
      </trkpt>
      <trkpt lat="48.73441" lon="7.27843">
        <ele>216.035339</ele>
        <time>2010-06-13T07:59:44Z</time>
      </trkpt>
      <trkpt lat="48.73449" lon="7.27818">
        <ele>216.859558</ele>
        <time>2010-06-13T07:59:48Z</time>
      </trkpt>
      <trkpt lat="48.7346" lon="7.27788">
        <ele>217.144714</ele>
        <time>2010-06-13T07:59:53Z</time>
      </trkpt>
      <trkpt lat="48.73468" lon="7.27763">
        <ele>217.461121</ele>
        <time>2010-06-13T07:59:57Z</time>
      </trkpt>
      <trkpt lat="48.73476" lon="7.27738">
        <ele>217.558777</ele>
        <time>2010-06-13T08:00:01Z</time>
      </trkpt>
      <trkpt lat="48.73485" lon="7.27713">
        <ele>217.320496</ele>
        <time>2010-06-13T08:00:05Z</time>
      </trkpt>
      <trkpt lat="48.73494" lon="7.27688">
        <ele>217.543152</ele>
        <time>2010-06-13T08:00:09Z</time>
      </trkpt>
      <trkpt lat="48.73503" lon="7.27664">
        <ele>217.691589</ele>
        <time>2010-06-13T08:00:13Z</time>
      </trkpt>
      <trkpt lat="48.73515" lon="7.27635">
        <ele>217.664246</ele>
        <time>2010-06-13T08:00:18Z</time>
      </trkpt>
      <trkpt lat="48.73526" lon="7.27609">
        <ele>217.343933</ele>
        <time>2010-06-13T08:00:23Z</time>
      </trkpt>
      <trkpt lat="48.73531" lon="7.27582">
        <ele>216.644714</ele>
        <time>2010-06-13T08:00:43Z</time>
      </trkpt>
      <trkpt lat="48.73517" lon="7.27564">
        <ele>218.316589</ele>
        <time>2010-06-13T08:01:04Z</time>
      </trkpt>
      <trkpt lat="48.73503" lon="7.2754">
        <ele>216.300964</ele>
        <time>2010-06-13T08:01:14Z</time>
      </trkpt>
      <trkpt lat="48.73486" lon="7.27529">
        <ele>217.027527</ele>
        <time>2010-06-13T08:01:22Z</time>
      </trkpt>
      <trkpt lat="48.7347" lon="7.27547">
        <ele>218.168152</ele>
        <time>2010-06-13T08:01:34Z</time>
      </trkpt>
      <trkpt lat="48.73458" lon="7.27571">
        <ele>217.550964</ele>
        <time>2010-06-13T08:01:40Z</time>
      </trkpt>
      <trkpt lat="48.73445" lon="7.27595">
        <ele>218.070496</ele>
        <time>2010-06-13T08:01:47Z</time>
      </trkpt>
      <trkpt lat="48.73432" lon="7.27619">
        <ele>216.945496</ele>
        <time>2010-06-13T08:01:54Z</time>
      </trkpt>
      <trkpt lat="48.73421" lon="7.27641">
        <ele>216.234558</ele>
        <time>2010-06-13T08:01:59Z</time>
      </trkpt>
      <trkpt lat="48.73407" lon="7.27666">
        <ele>215.578308</ele>
        <time>2010-06-13T08:02:05Z</time>
      </trkpt>
      <trkpt lat="48.73391" lon="7.27686">
        <ele>215.496277</ele>
        <time>2010-06-13T08:02:11Z</time>
      </trkpt>
      <trkpt lat="48.73373" lon="7.27697">
        <ele>217.578308</ele>
        <time>2010-06-13T08:02:18Z</time>
      </trkpt>
      <trkpt lat="48.73357" lon="7.27681">
        <ele>219.332214</ele>
        <time>2010-06-13T08:02:26Z</time>
      </trkpt>
      <trkpt lat="48.73343" lon="7.27663">
        <ele>220.304871</ele>
        <time>2010-06-13T08:02:37Z</time>
      </trkpt>
      <trkpt lat="48.73332" lon="7.27639">
        <ele>222.433777</ele>
        <time>2010-06-13T08:02:52Z</time>
      </trkpt>
      <trkpt lat="48.73324" lon="7.27612">
        <ele>223.000183</ele>
        <time>2010-06-13T08:03:03Z</time>
      </trkpt>
      <trkpt lat="48.73324" lon="7.27586">
        <ele>226.914246</ele>
        <time>2010-06-13T08:03:15Z</time>
      </trkpt>
      <trkpt lat="48.73333" lon="7.27562">
        <ele>230.586121</ele>
        <time>2010-06-13T08:03:59Z</time>
      </trkpt>
      <trkpt lat="48.73345" lon="7.27538">
        <ele>232.488464</ele>
        <time>2010-06-13T08:04:10Z</time>
      </trkpt>
      <trkpt lat="48.73356" lon="7.27516">
        <ele>234.136902</ele>
        <time>2010-06-13T08:04:19Z</time>
      </trkpt>
      <trkpt lat="48.73368" lon="7.27492">
        <ele>235.523621</ele>
        <time>2010-06-13T08:04:29Z</time>
      </trkpt>
      <trkpt lat="48.73383" lon="7.27471">
        <ele>236.441589</ele>
        <time>2010-06-13T08:04:37Z</time>
      </trkpt>
      <trkpt lat="48.73389" lon="7.27446">
        <ele>234.425964</ele>
        <time>2010-06-13T08:04:45Z</time>
      </trkpt>
      <trkpt lat="48.73394" lon="7.27418">
        <ele>236.187683</ele>
        <time>2010-06-13T08:04:54Z</time>
      </trkpt>
      <trkpt lat="48.73412" lon="7.27404">
        <ele>238.593933</ele>
        <time>2010-06-13T08:05:06Z</time>
      </trkpt>
      <trkpt lat="48.73429" lon="7.27394">
        <ele>243.148621</ele>
        <time>2010-06-13T08:05:18Z</time>
      </trkpt>
      <trkpt lat="48.73445" lon="7.27381">
        <ele>246.312683</ele>
        <time>2010-06-13T08:05:28Z</time>
      </trkpt>
      <trkpt lat="48.73462" lon="7.27373">
        <ele>246.257996</ele>
        <time>2010-06-13T08:05:39Z</time>
      </trkpt>
      <trkpt lat="48.73479" lon="7.2736">
        <ele>247.523621</ele>
        <time>2010-06-13T08:05:48Z</time>
      </trkpt>
      <trkpt lat="48.73493" lon="7.27342">
        <ele>249.484558</ele>
        <time>2010-06-13T08:05:59Z</time>
      </trkpt>
      <trkpt lat="48.73504" lon="7.27321">
        <ele>253.379089</ele>
        <time>2010-06-13T08:06:11Z</time>
      </trkpt>
      <trkpt lat="48.73521" lon="7.27313">
        <ele>255.086121</ele>
        <time>2010-06-13T08:06:23Z</time>
      </trkpt>
      <trkpt lat="48.7354" lon="7.27314">
        <ele>254.992371</ele>
        <time>2010-06-13T08:06:35Z</time>
      </trkpt>
      <trkpt lat="48.73554" lon="7.27294">
        <ele>260.312866</ele>
        <time>2010-06-13T08:06:46Z</time>
      </trkpt>
      <trkpt lat="48.73565" lon="7.27269">
        <ele>259.344116</ele>
        <time>2010-06-13T08:06:53Z</time>
      </trkpt>
      <trkpt lat="48.73572" lon="7.27243">
        <ele>257.789429</ele>
        <time>2010-06-13T08:06:59Z</time>
      </trkpt>
      <trkpt lat="48.73573" lon="7.2721">
        <ele>254.871277</ele>
        <time>2010-06-13T08:07:05Z</time>
      </trkpt>
      <trkpt lat="48.7357" lon="7.27178">
        <ele>254.363464</ele>
        <time>2010-06-13T08:07:10Z</time>
      </trkpt>
      <trkpt lat="48.73563" lon="7.2715">
        <ele>250.035339</ele>
        <time>2010-06-13T08:07:15Z</time>
      </trkpt>
      <trkpt lat="48.73557" lon="7.27119">
        <ele>246.457214</ele>
        <time>2010-06-13T08:07:22Z</time>
      </trkpt>
      <trkpt lat="48.7355" lon="7.27094">
        <ele>245.324402</ele>
        <time>2010-06-13T08:07:26Z</time>
      </trkpt>
      <trkpt lat="48.73545" lon="7.27063">
        <ele>244.082214</ele>
        <time>2010-06-13T08:07:31Z</time>
      </trkpt>
      <trkpt lat="48.73544" lon="7.27033">
        <ele>243.601746</ele>
        <time>2010-06-13T08:07:35Z</time>
      </trkpt>
      <trkpt lat="48.73544" lon="7.26999">
        <ele>242.808777</ele>
        <time>2010-06-13T08:07:40Z</time>
      </trkpt>
      <trkpt lat="48.73545" lon="7.26971">
        <ele>242.894714</ele>
        <time>2010-06-13T08:07:45Z</time>
      </trkpt>
      <trkpt lat="48.73543" lon="7.26938">
        <ele>243.457214</ele>
        <time>2010-06-13T08:07:50Z</time>
      </trkpt>
      <trkpt lat="48.73539" lon="7.26909">
        <ele>244.058777</ele>
        <time>2010-06-13T08:07:55Z</time>
      </trkpt>
      <trkpt lat="48.73538" lon="7.26873">
        <ele>244.117371</ele>
        <time>2010-06-13T08:08:01Z</time>
      </trkpt>
      <trkpt lat="48.73536" lon="7.26843">
        <ele>244.871277</ele>
        <time>2010-06-13T08:08:07Z</time>
      </trkpt>
      <trkpt lat="48.73531" lon="7.26816">
        <ele>245.543152</ele>
        <time>2010-06-13T08:08:16Z</time>
      </trkpt>
      <trkpt lat="48.73526" lon="7.26783">
        <ele>246.242371</ele>
        <time>2010-06-13T08:08:23Z</time>
      </trkpt>
      <trkpt lat="48.73525" lon="7.26756">
        <ele>248.461121</ele>
        <time>2010-06-13T08:08:29Z</time>
      </trkpt>
      <trkpt lat="48.73526" lon="7.26724">
        <ele>249.890808</ele>
        <time>2010-06-13T08:08:35Z</time>
      </trkpt>
      <trkpt lat="48.73526" lon="7.26695">
        <ele>249.539246</ele>
        <time>2010-06-13T08:08:40Z</time>
      </trkpt>
      <trkpt lat="48.73525" lon="7.26662">
        <ele>250.297058</ele>
        <time>2010-06-13T08:08:44Z</time>
      </trkpt>
      <trkpt lat="48.73528" lon="7.26634">
        <ele>249.664246</ele>
        <time>2010-06-13T08:08:47Z</time>
      </trkpt>
      <trkpt lat="48.7353" lon="7.26602">
        <ele>251.054871</ele>
        <time>2010-06-13T08:08:52Z</time>
      </trkpt>
      <trkpt lat="48.73541" lon="7.26579">
        <ele>250.773621</ele>
        <time>2010-06-13T08:08:57Z</time>
      </trkpt>
      <trkpt lat="48.73552" lon="7.26559">
        <ele>249.867371</ele>
        <time>2010-06-13T08:09:01Z</time>
      </trkpt>
      <trkpt lat="48.73563" lon="7.26533">
        <ele>249.148621</ele>
        <time>2010-06-13T08:09:05Z</time>
      </trkpt>
      <trkpt lat="48.73572" lon="7.26503">
        <ele>249.984558</ele>
        <time>2010-06-13T08:09:10Z</time>
      </trkpt>
      <trkpt lat="48.73578" lon="7.26472">
        <ele>252.324402</ele>
        <time>2010-06-13T08:09:14Z</time>
      </trkpt>
      <trkpt lat="48.73584" lon="7.26445">
        <ele>252.246277</ele>
        <time>2010-06-13T08:09:18Z</time>
      </trkpt>
      <trkpt lat="48.73585" lon="7.26412">
        <ele>251.988464</ele>
        <time>2010-06-13T08:09:23Z</time>
      </trkpt>
      <trkpt lat="48.73584" lon="7.26385">
        <ele>249.402527</ele>
        <time>2010-06-13T08:09:27Z</time>
      </trkpt>
      <trkpt lat="48.73577" lon="7.26358">
        <ele>248.390808</ele>
        <time>2010-06-13T08:09:31Z</time>
      </trkpt>
      <trkpt lat="48.7357" lon="7.26331">
        <ele>247.179871</ele>
        <time>2010-06-13T08:09:35Z</time>
      </trkpt>
      <trkpt lat="48.7356" lon="7.26305">
        <ele>244.906433</ele>
        <time>2010-06-13T08:09:39Z</time>
      </trkpt>
      <trkpt lat="48.73548" lon="7.26278">
        <ele>244.808777</ele>
        <time>2010-06-13T08:09:44Z</time>
      </trkpt>
      <trkpt lat="48.73534" lon="7.26254">
        <ele>243.804871</ele>
        <time>2010-06-13T08:09:49Z</time>
      </trkpt>
      <trkpt lat="48.7352" lon="7.26231">
        <ele>244.609558</ele>
        <time>2010-06-13T08:09:54Z</time>
      </trkpt>
      <trkpt lat="48.73504" lon="7.26213">
        <ele>246.840027</ele>
        <time>2010-06-13T08:10:00Z</time>
      </trkpt>
      <trkpt lat="48.73488" lon="7.26194">
        <ele>247.566589</ele>
        <time>2010-06-13T08:10:07Z</time>
      </trkpt>
      <trkpt lat="48.73472" lon="7.2618">
        <ele>257.640991</ele>
        <time>2010-06-13T08:10:13Z</time>
      </trkpt>
      <trkpt lat="48.73457" lon="7.26165">
        <ele>255.933777</ele>
        <time>2010-06-13T08:10:21Z</time>
      </trkpt>
      <trkpt lat="48.73441" lon="7.26147">
        <ele>256.281616</ele>
        <time>2010-06-13T08:10:31Z</time>
      </trkpt>
      <trkpt lat="48.73426" lon="7.26129">
        <ele>259.336304</ele>
        <time>2010-06-13T08:10:39Z</time>
      </trkpt>
      <trkpt lat="48.73411" lon="7.26113">
        <ele>259.086304</ele>
        <time>2010-06-13T08:10:49Z</time>
      </trkpt>
      <trkpt lat="48.73393" lon="7.26099">
        <ele>256.680054</ele>
        <time>2010-06-13T08:10:59Z</time>
      </trkpt>
      <trkpt lat="48.73377" lon="7.26084">
        <ele>260.437866</ele>
        <time>2010-06-13T08:11:08Z</time>
      </trkpt>
      <trkpt lat="48.73362" lon="7.2607">
        <ele>266.851929</ele>
        <time>2010-06-13T08:11:18Z</time>
      </trkpt>
      <trkpt lat="48.73346" lon="7.26058">
        <ele>271.789429</ele>
        <time>2010-06-13T08:11:30Z</time>
      </trkpt>
      <trkpt lat="48.73328" lon="7.26048">
        <ele>276.937866</ele>
        <time>2010-06-13T08:11:42Z</time>
      </trkpt>
      <trkpt lat="48.7331" lon="7.26044">
        <ele>272.859741</ele>
        <time>2010-06-13T08:11:56Z</time>
      </trkpt>
      <trkpt lat="48.73291" lon="7.26033">
        <ele>272.617554</ele>
        <time>2010-06-13T08:12:07Z</time>
      </trkpt>
      <trkpt lat="48.73274" lon="7.26022">
        <ele>273.383179</ele>
        <time>2010-06-13T08:12:17Z</time>
      </trkpt>
      <trkpt lat="48.73257" lon="7.26012">
        <ele>273.992554</ele>
        <time>2010-06-13T08:12:28Z</time>
      </trkpt>
      <trkpt lat="48.73242" lon="7.25994">
        <ele>274.195679</ele>
        <time>2010-06-13T08:12:41Z</time>
      </trkpt>
      <trkpt lat="48.73237" lon="7.25968">
        <ele>272.695679</ele>
        <time>2010-06-13T08:12:55Z</time>
      </trkpt>
      <trkpt lat="48.73238" lon="7.25939">
        <ele>269.719116</ele>
        <time>2010-06-13T08:13:04Z</time>
      </trkpt>
      <trkpt lat="48.73235" lon="7.25909">
        <ele>266.656616</ele>
        <time>2010-06-13T08:13:11Z</time>
      </trkpt>
      <trkpt lat="48.73239" lon="7.25881">
        <ele>265.976929</ele>
        <time>2010-06-13T08:13:17Z</time>
      </trkpt>
      <trkpt lat="48.73249" lon="7.2586">
        <ele>271.242554</ele>
        <time>2010-06-13T08:17:36Z</time>
      </trkpt>
      <trkpt lat="48.73254" lon="7.25833">
        <ele>268.289429</ele>
        <time>2010-06-13T08:17:45Z</time>
      </trkpt>
      <trkpt lat="48.73263" lon="7.25808">
        <ele>263.023804</ele>
        <time>2010-06-13T08:17:55Z</time>
      </trkpt>
      <trkpt lat="48.7326" lon="7.25781">
        <ele>260.883179</ele>
        <time>2010-06-13T08:18:21Z</time>
      </trkpt>
      <trkpt lat="48.73268" lon="7.25754">
        <ele>259.633179</ele>
        <time>2010-06-13T08:18:29Z</time>
      </trkpt>
      <trkpt lat="48.73272" lon="7.25723">
        <ele>258.101929</ele>
        <time>2010-06-13T08:18:34Z</time>
      </trkpt>
      <trkpt lat="48.73279" lon="7.25696">
        <ele>256.609741</ele>
        <time>2010-06-13T08:18:40Z</time>
      </trkpt>
      <trkpt lat="48.73291" lon="7.25676">
        <ele>253.453308</ele>
        <time>2010-06-13T08:18:47Z</time>
      </trkpt>
      <trkpt lat="48.73304" lon="7.25652">
        <ele>250.933777</ele>
        <time>2010-06-13T08:18:52Z</time>
      </trkpt>
      <trkpt lat="48.73314" lon="7.25627">
        <ele>248.621277</ele>
        <time>2010-06-13T08:18:56Z</time>
      </trkpt>
      <trkpt lat="48.73324" lon="7.25603">
        <ele>246.957214</ele>
        <time>2010-06-13T08:18:59Z</time>
      </trkpt>
      <trkpt lat="48.73332" lon="7.25576">
        <ele>245.840027</ele>
        <time>2010-06-13T08:19:03Z</time>
      </trkpt>
      <trkpt lat="48.7334" lon="7.2555">
        <ele>244.750183</ele>
        <time>2010-06-13T08:19:07Z</time>
      </trkpt>
      <trkpt lat="48.73347" lon="7.25521">
        <ele>243.750183</ele>
        <time>2010-06-13T08:19:11Z</time>
      </trkpt>
      <trkpt lat="48.73354" lon="7.25494">
        <ele>246.523621</ele>
        <time>2010-06-13T08:19:18Z</time>
      </trkpt>
      <trkpt lat="48.7336" lon="7.25466">
        <ele>248.254089</ele>
        <time>2010-06-13T08:19:32Z</time>
      </trkpt>
      <trkpt lat="48.73365" lon="7.2544">
        <ele>250.566589</ele>
        <time>2010-06-13T08:19:40Z</time>
      </trkpt>
      <trkpt lat="48.73373" lon="7.25412">
        <ele>251.722839</ele>
        <time>2010-06-13T08:19:45Z</time>
      </trkpt>
      <trkpt lat="48.73378" lon="7.25382">
        <ele>253.972839</ele>
        <time>2010-06-13T08:19:51Z</time>
      </trkpt>
      <trkpt lat="48.73381" lon="7.25354">
        <ele>257.570679</ele>
        <time>2010-06-13T08:20:00Z</time>
      </trkpt>
      <trkpt lat="48.73385" lon="7.25322">
        <ele>256.594116</ele>
        <time>2010-06-13T08:20:10Z</time>
      </trkpt>
      <trkpt lat="48.73382" lon="7.25295">
        <ele>255.027527</ele>
        <time>2010-06-13T08:20:18Z</time>
      </trkpt>
      <trkpt lat="48.7338" lon="7.25263">
        <ele>252.980652</ele>
        <time>2010-06-13T08:20:23Z</time>
      </trkpt>
      <trkpt lat="48.73372" lon="7.25231">
        <ele>249.820496</ele>
        <time>2010-06-13T08:20:28Z</time>
      </trkpt>
      <trkpt lat="48.73359" lon="7.2521">
        <ele>250.531433</ele>
        <time>2010-06-13T08:20:36Z</time>
      </trkpt>
      <trkpt lat="48.73344" lon="7.25186">
        <ele>248.285339</ele>
        <time>2010-06-13T08:20:41Z</time>
      </trkpt>
      <trkpt lat="48.73323" lon="7.25172">
        <ele>244.496277</ele>
        <time>2010-06-13T08:20:45Z</time>
      </trkpt>
      <trkpt lat="48.73306" lon="7.25171">
        <ele>243.379089</ele>
        <time>2010-06-13T08:20:49Z</time>
      </trkpt>
      <trkpt lat="48.73289" lon="7.25181">
        <ele>245.949402</ele>
        <time>2010-06-13T08:20:56Z</time>
      </trkpt>
      <trkpt lat="48.7327" lon="7.25185">
        <ele>243.152527</ele>
        <time>2010-06-13T08:21:01Z</time>
      </trkpt>
      <trkpt lat="48.7325" lon="7.25189">
        <ele>241.273621</ele>
        <time>2010-06-13T08:21:04Z</time>
      </trkpt>
      <trkpt lat="48.73231" lon="7.25197">
        <ele>240.695496</ele>
        <time>2010-06-13T08:21:08Z</time>
      </trkpt>
      <trkpt lat="48.73214" lon="7.25204">
        <ele>234.597839</ele>
        <time>2010-06-13T08:22:21Z</time>
      </trkpt>
      <trkpt lat="48.73201" lon="7.25223">
        <ele>238.882996</ele>
        <time>2010-06-13T08:22:40Z</time>
      </trkpt>
      <trkpt lat="48.73187" lon="7.25233">
        <ele>247.875183</ele>
        <time>2010-06-13T08:23:14Z</time>
      </trkpt>
      <trkpt lat="48.73172" lon="7.25251">
        <ele>249.984558</ele>
        <time>2010-06-13T08:23:26Z</time>
      </trkpt>
      <trkpt lat="48.73156" lon="7.25266">
        <ele>250.488464</ele>
        <time>2010-06-13T08:23:37Z</time>
      </trkpt>
      <trkpt lat="48.73138" lon="7.25277">
        <ele>254.746277</ele>
        <time>2010-06-13T08:23:49Z</time>
      </trkpt>
      <trkpt lat="48.7312" lon="7.25285">
        <ele>256.976929</ele>
        <time>2010-06-13T08:24:01Z</time>
      </trkpt>
      <trkpt lat="48.73104" lon="7.25296">
        <ele>264.320679</ele>
        <time>2010-06-13T08:24:15Z</time>
      </trkpt>
      <trkpt lat="48.73087" lon="7.25308">
        <ele>263.711304</ele>
        <time>2010-06-13T08:24:33Z</time>
      </trkpt>
      <trkpt lat="48.73069" lon="7.25312">
        <ele>267.414429</ele>
        <time>2010-06-13T08:24:49Z</time>
      </trkpt>
      <trkpt lat="48.73051" lon="7.25306">
        <ele>268.687866</ele>
        <time>2010-06-13T08:24:59Z</time>
      </trkpt>
      <trkpt lat="48.73032" lon="7.25303">
        <ele>268.117554</ele>
        <time>2010-06-13T08:25:04Z</time>
      </trkpt>
      <trkpt lat="48.73011" lon="7.25302">
        <ele>268.953491</ele>
        <time>2010-06-13T08:25:09Z</time>
      </trkpt>
      <trkpt lat="48.72992" lon="7.25303">
        <ele>268.633179</ele>
        <time>2010-06-13T08:25:15Z</time>
      </trkpt>
      <trkpt lat="48.72973" lon="7.25308">
        <ele>267.211304</ele>
        <time>2010-06-13T08:25:20Z</time>
      </trkpt>
      <trkpt lat="48.72953" lon="7.25322">
        <ele>267.148804</ele>
        <time>2010-06-13T08:25:25Z</time>
      </trkpt>
      <trkpt lat="48.72936" lon="7.25334">
        <ele>264.469116</ele>
        <time>2010-06-13T08:25:30Z</time>
      </trkpt>
      <trkpt lat="48.72918" lon="7.25341">
        <ele>262.898804</ele>
        <time>2010-06-13T08:25:39Z</time>
      </trkpt>
      <trkpt lat="48.72899" lon="7.25345">
        <ele>261.625366</ele>
        <time>2010-06-13T08:25:50Z</time>
      </trkpt>
      <trkpt lat="48.72884" lon="7.25324">
        <ele>262.953491</ele>
        <time>2010-06-13T08:25:59Z</time>
      </trkpt>
      <trkpt lat="48.72874" lon="7.25302">
        <ele>264.109741</ele>
        <time>2010-06-13T08:26:06Z</time>
      </trkpt>
      <trkpt lat="48.72863" lon="7.2528">
        <ele>265.351929</ele>
        <time>2010-06-13T08:26:14Z</time>
      </trkpt>
      <trkpt lat="48.72851" lon="7.25258">
        <ele>269.508179</ele>
        <time>2010-06-13T08:26:23Z</time>
      </trkpt>
      <trkpt lat="48.72847" lon="7.2523">
        <ele>271.219116</ele>
        <time>2010-06-13T08:26:37Z</time>
      </trkpt>
      <trkpt lat="48.72855" lon="7.25201">
        <ele>268.758179</ele>
        <time>2010-06-13T08:26:44Z</time>
      </trkpt>
      <trkpt lat="48.72854" lon="7.25174">
        <ele>263.969116</ele>
        <time>2010-06-13T08:26:52Z</time>
      </trkpt>
      <trkpt lat="48.72849" lon="7.25145">
        <ele>264.726929</ele>
        <time>2010-06-13T08:26:59Z</time>
      </trkpt>
      <trkpt lat="48.72841" lon="7.25114">
        <ele>266.133179</ele>
        <time>2010-06-13T08:27:06Z</time>
      </trkpt>
      <trkpt lat="48.72839" lon="7.25085">
        <ele>262.336304</ele>
        <time>2010-06-13T08:27:10Z</time>
      </trkpt>
      <trkpt lat="48.72844" lon="7.25057">
        <ele>257.351929</ele>
        <time>2010-06-13T08:27:16Z</time>
      </trkpt>
      <trkpt lat="48.72846" lon="7.25031">
        <ele>252.035339</ele>
        <time>2010-06-13T08:27:21Z</time>
      </trkpt>
      <trkpt lat="48.72842" lon="7.25001">
        <ele>250.211121</ele>
        <time>2010-06-13T08:27:27Z</time>
      </trkpt>
      <trkpt lat="48.72835" lon="7.2497">
        <ele>246.656433</ele>
        <time>2010-06-13T08:27:32Z</time>
      </trkpt>
      <trkpt lat="48.72827" lon="7.24944">
        <ele>243.480652</ele>
        <time>2010-06-13T08:27:36Z</time>
      </trkpt>
      <trkpt lat="48.72817" lon="7.24917">
        <ele>239.230652</ele>
        <time>2010-06-13T08:27:39Z</time>
      </trkpt>
      <trkpt lat="48.72809" lon="7.24889">
        <ele>238.414246</ele>
        <time>2010-06-13T08:27:43Z</time>
      </trkpt>
      <trkpt lat="48.72796" lon="7.24865">
        <ele>236.023621</ele>
        <time>2010-06-13T08:27:47Z</time>
      </trkpt>
      <trkpt lat="48.72785" lon="7.24842">
        <ele>234.675964</ele>
        <time>2010-06-13T08:27:51Z</time>
      </trkpt>
      <trkpt lat="48.72775" lon="7.24817">
        <ele>232.933777</ele>
        <time>2010-06-13T08:27:55Z</time>
      </trkpt>
      <trkpt lat="48.72766" lon="7.2479">
        <ele>231.558777</ele>
        <time>2010-06-13T08:27:59Z</time>
      </trkpt>
      <trkpt lat="48.72758" lon="7.24764">
        <ele>230.132996</ele>
        <time>2010-06-13T08:28:03Z</time>
      </trkpt>
      <trkpt lat="48.72747" lon="7.24736">
        <ele>227.550964</ele>
        <time>2010-06-13T08:28:07Z</time>
      </trkpt>
      <trkpt lat="48.72734" lon="7.24715">
        <ele>224.574402</ele>
        <time>2010-06-13T08:28:10Z</time>
      </trkpt>
      <trkpt lat="48.72712" lon="7.24706">
        <ele>221.472839</ele>
        <time>2010-06-13T08:28:14Z</time>
      </trkpt>
      <trkpt lat="48.72692" lon="7.24705">
        <ele>220.019714</ele>
        <time>2010-06-13T08:28:18Z</time>
      </trkpt>
      <trkpt lat="48.72674" lon="7.24712">
        <ele>224.746277</ele>
        <time>2010-06-13T08:28:29Z</time>
      </trkpt>
      <trkpt lat="48.72656" lon="7.24722">
        <ele>228.664246</ele>
        <time>2010-06-13T08:28:41Z</time>
      </trkpt>
      <trkpt lat="48.72639" lon="7.24732">
        <ele>232.328308</ele>
        <time>2010-06-13T08:28:54Z</time>
      </trkpt>
      <trkpt lat="48.72622" lon="7.2474">
        <ele>231.750183</ele>
        <time>2010-06-13T08:29:04Z</time>
      </trkpt>
      <trkpt lat="48.72604" lon="7.24747">
        <ele>235.949402</ele>
        <time>2010-06-13T08:29:17Z</time>
      </trkpt>
      <trkpt lat="48.72587" lon="7.24758">
        <ele>241.722839</ele>
        <time>2010-06-13T08:29:30Z</time>
      </trkpt>
      <trkpt lat="48.72569" lon="7.24765">
        <ele>244.793152</ele>
        <time>2010-06-13T08:29:42Z</time>
      </trkpt>
      <trkpt lat="48.7255" lon="7.24774">
        <ele>247.398621</ele>
        <time>2010-06-13T08:29:52Z</time>
      </trkpt>
      <trkpt lat="48.72532" lon="7.24783">
        <ele>247.898621</ele>
        <time>2010-06-13T08:30:00Z</time>
      </trkpt>
      <trkpt lat="48.72514" lon="7.24796">
        <ele>253.109558</ele>
        <time>2010-06-13T08:30:11Z</time>
      </trkpt>
      <trkpt lat="48.72497" lon="7.24807">
        <ele>253.949402</ele>
        <time>2010-06-13T08:30:21Z</time>
      </trkpt>
      <trkpt lat="48.7248" lon="7.2482">
        <ele>257.172241</ele>
        <time>2010-06-13T08:30:30Z</time>
      </trkpt>
      <trkpt lat="48.72464" lon="7.24834">
        <ele>258.328491</ele>
        <time>2010-06-13T08:30:39Z</time>
      </trkpt>
      <trkpt lat="48.72448" lon="7.24849">
        <ele>260.172241</ele>
        <time>2010-06-13T08:30:49Z</time>
      </trkpt>
      <trkpt lat="48.72432" lon="7.24866">
        <ele>259.805054</ele>
        <time>2010-06-13T08:30:59Z</time>
      </trkpt>
      <trkpt lat="48.72417" lon="7.24881">
        <ele>260.289429</ele>
        <time>2010-06-13T08:31:08Z</time>
      </trkpt>
      <trkpt lat="48.72403" lon="7.24899">
        <ele>261.758179</ele>
        <time>2010-06-13T08:31:16Z</time>
      </trkpt>
      <trkpt lat="48.72395" lon="7.24925">
        <ele>258.133179</ele>
        <time>2010-06-13T08:31:24Z</time>
      </trkpt>
      <trkpt lat="48.7239" lon="7.24953">
        <ele>257.469116</ele>
        <time>2010-06-13T08:31:33Z</time>
      </trkpt>
      <trkpt lat="48.72384" lon="7.24979">
        <ele>256.398804</ele>
        <time>2010-06-13T08:31:42Z</time>
      </trkpt>
      <trkpt lat="48.72377" lon="7.25005">
        <ele>256.906616</ele>
        <time>2010-06-13T08:31:48Z</time>
      </trkpt>
      <trkpt lat="48.72367" lon="7.25028">
        <ele>257.469116</ele>
        <time>2010-06-13T08:31:54Z</time>
      </trkpt>
      <trkpt lat="48.7235" lon="7.25018">
        <ele>262.265991</ele>
        <time>2010-06-13T08:32:07Z</time>
      </trkpt>
      <trkpt lat="48.72345" lon="7.2499">
        <ele>263.437866</ele>
        <time>2010-06-13T08:32:13Z</time>
      </trkpt>
      <trkpt lat="48.7234" lon="7.2496">
        <ele>264.609741</ele>
        <time>2010-06-13T08:32:18Z</time>
      </trkpt>
      <trkpt lat="48.72331" lon="7.2493">
        <ele>262.656616</ele>
        <time>2010-06-13T08:32:24Z</time>
      </trkpt>
      <trkpt lat="48.72318" lon="7.24902">
        <ele>260.773804</ele>
        <time>2010-06-13T08:32:29Z</time>
      </trkpt>
      <trkpt lat="48.72304" lon="7.24883">
        <ele>259.148804</ele>
        <time>2010-06-13T08:32:33Z</time>
      </trkpt>
      <trkpt lat="48.72285" lon="7.24864">
        <ele>257.883179</ele>
        <time>2010-06-13T08:32:38Z</time>
      </trkpt>
      <trkpt lat="48.72269" lon="7.24847">
        <ele>257.289429</ele>
        <time>2010-06-13T08:32:42Z</time>
      </trkpt>
      <trkpt lat="48.72251" lon="7.24828">
        <ele>256.101929</ele>
        <time>2010-06-13T08:32:45Z</time>
      </trkpt>
      <trkpt lat="48.72234" lon="7.24813">
        <ele>255.007996</ele>
        <time>2010-06-13T08:32:48Z</time>
      </trkpt>
      <trkpt lat="48.72219" lon="7.24796">
        <ele>254.832214</ele>
        <time>2010-06-13T08:32:51Z</time>
      </trkpt>
      <trkpt lat="48.72201" lon="7.24784">
        <ele>254.156433</ele>
        <time>2010-06-13T08:32:54Z</time>
      </trkpt>
      <trkpt lat="48.7218" lon="7.24775">
        <ele>253.187683</ele>
        <time>2010-06-13T08:32:57Z</time>
      </trkpt>
      <trkpt lat="48.7216" lon="7.24775">
        <ele>251.843933</ele>
        <time>2010-06-13T08:33:00Z</time>
      </trkpt>
      <trkpt lat="48.72139" lon="7.24781">
        <ele>250.472839</ele>
        <time>2010-06-13T08:33:04Z</time>
      </trkpt>
      <trkpt lat="48.72121" lon="7.2478">
        <ele>248.996277</ele>
        <time>2010-06-13T08:33:10Z</time>
      </trkpt>
      <trkpt lat="48.72138" lon="7.24774">
        <ele>238.816589</ele>
        <time>2010-06-13T08:35:55Z</time>
      </trkpt>
      <trkpt lat="48.72158" lon="7.24766">
        <ele>236.804871</ele>
        <time>2010-06-13T08:36:00Z</time>
      </trkpt>
      <trkpt lat="48.72182" lon="7.24759">
        <ele>234.754089</ele>
        <time>2010-06-13T08:36:04Z</time>
      </trkpt>
      <trkpt lat="48.72203" lon="7.24761">
        <ele>233.097839</ele>
        <time>2010-06-13T08:36:07Z</time>
      </trkpt>
      <trkpt lat="48.72226" lon="7.24768">
        <ele>231.480652</ele>
        <time>2010-06-13T08:36:10Z</time>
      </trkpt>
      <trkpt lat="48.72243" lon="7.24775">
        <ele>230.519714</ele>
        <time>2010-06-13T08:36:13Z</time>
      </trkpt>
      <trkpt lat="48.72257" lon="7.2478">
        <ele>244.000183</ele>
        <time>2010-06-13T08:36:16Z</time>
      </trkpt>
      <trkpt lat="48.72251" lon="7.24754">
        <ele>247.144714</ele>
        <time>2010-06-13T08:36:33Z</time>
      </trkpt>
      <trkpt lat="48.72235" lon="7.24742">
        <ele>245.953308</ele>
        <time>2010-06-13T08:36:39Z</time>
      </trkpt>
      <trkpt lat="48.72218" lon="7.24729">
        <ele>244.359558</ele>
        <time>2010-06-13T08:36:45Z</time>
      </trkpt>
      <trkpt lat="48.722" lon="7.24719">
        <ele>243.289246</ele>
        <time>2010-06-13T08:36:54Z</time>
      </trkpt>
      <trkpt lat="48.72183" lon="7.24708">
        <ele>243.496277</ele>
        <time>2010-06-13T08:37:04Z</time>
      </trkpt>
      <trkpt lat="48.72166" lon="7.24698">
        <ele>242.937683</ele>
        <time>2010-06-13T08:37:14Z</time>
      </trkpt>
      <trkpt lat="48.72148" lon="7.24694">
        <ele>245.152527</ele>
        <time>2010-06-13T08:37:25Z</time>
      </trkpt>
      <trkpt lat="48.72129" lon="7.24699">
        <ele>248.382996</ele>
        <time>2010-06-13T08:37:37Z</time>
      </trkpt>
      <trkpt lat="48.72111" lon="7.24704">
        <ele>252.554871</ele>
        <time>2010-06-13T08:37:50Z</time>
      </trkpt>
      <trkpt lat="48.72093" lon="7.24709">
        <ele>248.531433</ele>
        <time>2010-06-13T08:38:08Z</time>
      </trkpt>
      <trkpt lat="48.72074" lon="7.24706">
        <ele>250.683777</ele>
        <time>2010-06-13T08:38:34Z</time>
      </trkpt>
      <trkpt lat="48.72057" lon="7.24712">
        <ele>253.058777</ele>
        <time>2010-06-13T08:38:57Z</time>
      </trkpt>
      <trkpt lat="48.72038" lon="7.24711">
        <ele>252.863464</ele>
        <time>2010-06-13T08:39:16Z</time>
      </trkpt>
      <trkpt lat="48.7202" lon="7.2471">
        <ele>253.824402</ele>
        <time>2010-06-13T08:39:29Z</time>
      </trkpt>
      <trkpt lat="48.72002" lon="7.24717">
        <ele>260.109741</ele>
        <time>2010-06-13T08:39:45Z</time>
      </trkpt>
      <trkpt lat="48.71985" lon="7.24722">
        <ele>266.219116</ele>
        <time>2010-06-13T08:40:00Z</time>
      </trkpt>
      <trkpt lat="48.71967" lon="7.24722">
        <ele>264.461304</ele>
        <time>2010-06-13T08:40:12Z</time>
      </trkpt>
      <trkpt lat="48.71951" lon="7.24706">
        <ele>267.515991</ele>
        <time>2010-06-13T08:40:57Z</time>
      </trkpt>
      <trkpt lat="48.71938" lon="7.24688">
        <ele>270.734741</ele>
        <time>2010-06-13T08:41:11Z</time>
      </trkpt>
      <trkpt lat="48.71954" lon="7.24702">
        <ele>273.422241</ele>
        <time>2010-06-13T08:42:23Z</time>
      </trkpt>
      <trkpt lat="48.71973" lon="7.247">
        <ele>271.219116</ele>
        <time>2010-06-13T08:42:30Z</time>
      </trkpt>
      <trkpt lat="48.71991" lon="7.24695">
        <ele>269.922241</ele>
        <time>2010-06-13T08:42:35Z</time>
      </trkpt>
      <trkpt lat="48.7201" lon="7.24686">
        <ele>269.867554</ele>
        <time>2010-06-13T08:42:43Z</time>
      </trkpt>
      <trkpt lat="48.72027" lon="7.24676">
        <ele>269.617554</ele>
        <time>2010-06-13T08:42:49Z</time>
      </trkpt>
      <trkpt lat="48.72044" lon="7.24668">
        <ele>270.773804</ele>
        <time>2010-06-13T08:42:56Z</time>
      </trkpt>
      <trkpt lat="48.72063" lon="7.2466">
        <ele>270.859741</ele>
        <time>2010-06-13T08:43:04Z</time>
      </trkpt>
      <trkpt lat="48.72082" lon="7.24649">
        <ele>269.430054</ele>
        <time>2010-06-13T08:43:11Z</time>
      </trkpt>
      <trkpt lat="48.721" lon="7.24642">
        <ele>267.836304</ele>
        <time>2010-06-13T08:43:16Z</time>
      </trkpt>
      <trkpt lat="48.72118" lon="7.24636">
        <ele>267.719116</ele>
        <time>2010-06-13T08:43:20Z</time>
      </trkpt>
      <trkpt lat="48.72138" lon="7.24626">
        <ele>267.031616</ele>
        <time>2010-06-13T08:43:25Z</time>
      </trkpt>
      <trkpt lat="48.72153" lon="7.24604">
        <ele>267.758179</ele>
        <time>2010-06-13T08:43:30Z</time>
      </trkpt>
      <trkpt lat="48.72162" lon="7.24581">
        <ele>267.719116</ele>
        <time>2010-06-13T08:43:35Z</time>
      </trkpt>
      <trkpt lat="48.7218" lon="7.24571">
        <ele>267.773804</ele>
        <time>2010-06-13T08:43:50Z</time>
      </trkpt>
      <trkpt lat="48.72196" lon="7.24589">
        <ele>269.187866</ele>
        <time>2010-06-13T08:44:00Z</time>
      </trkpt>
      <trkpt lat="48.72208" lon="7.24609">
        <ele>269.351929</ele>
        <time>2010-06-13T08:44:08Z</time>
      </trkpt>
      <trkpt lat="48.72223" lon="7.24628">
        <ele>269.851929</ele>
        <time>2010-06-13T08:44:17Z</time>
      </trkpt>
      <trkpt lat="48.7224" lon="7.24638">
        <ele>269.422241</ele>
        <time>2010-06-13T08:44:25Z</time>
      </trkpt>
      <trkpt lat="48.72258" lon="7.24644">
        <ele>268.430054</ele>
        <time>2010-06-13T08:44:33Z</time>
      </trkpt>
      <trkpt lat="48.72276" lon="7.24654">
        <ele>270.250366</ele>
        <time>2010-06-13T08:44:42Z</time>
      </trkpt>
      <trkpt lat="48.72293" lon="7.24669">
        <ele>270.695679</ele>
        <time>2010-06-13T08:44:52Z</time>
      </trkpt>
      <trkpt lat="48.72312" lon="7.24675">
        <ele>270.867554</ele>
        <time>2010-06-13T08:45:02Z</time>
      </trkpt>
      <trkpt lat="48.72329" lon="7.24682">
        <ele>271.109741</ele>
        <time>2010-06-13T08:45:12Z</time>
      </trkpt>
      <trkpt lat="48.72348" lon="7.2469">
        <ele>272.656616</ele>
        <time>2010-06-13T08:45:24Z</time>
      </trkpt>
      <trkpt lat="48.72366" lon="7.24682">
        <ele>269.969116</ele>
        <time>2010-06-13T08:45:34Z</time>
      </trkpt>
      <trkpt lat="48.72381" lon="7.24667">
        <ele>268.547241</ele>
        <time>2010-06-13T08:45:40Z</time>
      </trkpt>
      <trkpt lat="48.72397" lon="7.2465">
        <ele>268.719116</ele>
        <time>2010-06-13T08:45:46Z</time>
      </trkpt>
      <trkpt lat="48.72411" lon="7.2463">
        <ele>268.719116</ele>
        <time>2010-06-13T08:45:55Z</time>
      </trkpt>
      <trkpt lat="48.72426" lon="7.24614">
        <ele>269.711304</ele>
        <time>2010-06-13T08:46:04Z</time>
      </trkpt>
      <trkpt lat="48.7244" lon="7.24598">
        <ele>271.742554</ele>
        <time>2010-06-13T08:46:15Z</time>
      </trkpt>
      <trkpt lat="48.72455" lon="7.24582">
        <ele>273.047241</ele>
        <time>2010-06-13T08:46:25Z</time>
      </trkpt>
      <trkpt lat="48.72471" lon="7.24565">
        <ele>275.133179</ele>
        <time>2010-06-13T08:46:38Z</time>
      </trkpt>
      <trkpt lat="48.72486" lon="7.24551">
        <ele>276.367554</ele>
        <time>2010-06-13T08:46:50Z</time>
      </trkpt>
      <trkpt lat="48.72503" lon="7.24537">
        <ele>275.078491</ele>
        <time>2010-06-13T08:47:01Z</time>
      </trkpt>
      <trkpt lat="48.72519" lon="7.24524">
        <ele>277.039429</ele>
        <time>2010-06-13T08:47:12Z</time>
      </trkpt>
      <trkpt lat="48.72537" lon="7.24512">
        <ele>276.687866</ele>
        <time>2010-06-13T08:47:22Z</time>
      </trkpt>
      <trkpt lat="48.72554" lon="7.24501">
        <ele>275.828491</ele>
        <time>2010-06-13T08:47:31Z</time>
      </trkpt>
      <trkpt lat="48.72572" lon="7.24494">
        <ele>277.820679</ele>
        <time>2010-06-13T08:47:40Z</time>
      </trkpt>
      <trkpt lat="48.72591" lon="7.24488">
        <ele>280.148804</ele>
        <time>2010-06-13T08:47:50Z</time>
      </trkpt>
      <trkpt lat="48.72611" lon="7.2448">
        <ele>280.609741</ele>
        <time>2010-06-13T08:47:59Z</time>
      </trkpt>
      <trkpt lat="48.72629" lon="7.24471">
        <ele>281.539429</ele>
        <time>2010-06-13T08:48:08Z</time>
      </trkpt>
      <trkpt lat="48.72645" lon="7.24451">
        <ele>281.601929</ele>
        <time>2010-06-13T08:48:19Z</time>
      </trkpt>
      <trkpt lat="48.72646" lon="7.24422">
        <ele>278.742554</ele>
        <time>2010-06-13T08:48:24Z</time>
      </trkpt>
      <trkpt lat="48.72639" lon="7.24396">
        <ele>278.156616</ele>
        <time>2010-06-13T08:48:34Z</time>
      </trkpt>
      <trkpt lat="48.72628" lon="7.24375">
        <ele>278.625366</ele>
        <time>2010-06-13T08:48:44Z</time>
      </trkpt>
      <trkpt lat="48.72617" lon="7.24351">
        <ele>278.984741</ele>
        <time>2010-06-13T08:48:58Z</time>
      </trkpt>
      <trkpt lat="48.72609" lon="7.24327">
        <ele>282.664429</ele>
        <time>2010-06-13T08:49:13Z</time>
      </trkpt>
      <trkpt lat="48.72598" lon="7.24305">
        <ele>288.570679</ele>
        <time>2010-06-13T08:49:28Z</time>
      </trkpt>
      <trkpt lat="48.72589" lon="7.2428">
        <ele>293.297241</ele>
        <time>2010-06-13T08:49:44Z</time>
      </trkpt>
      <trkpt lat="48.72582" lon="7.24254">
        <ele>292.640991</ele>
        <time>2010-06-13T08:49:53Z</time>
      </trkpt>
      <trkpt lat="48.72575" lon="7.24228">
        <ele>295.242554</ele>
        <time>2010-06-13T08:50:04Z</time>
      </trkpt>
      <trkpt lat="48.72569" lon="7.24203">
        <ele>297.867554</ele>
        <time>2010-06-13T08:50:15Z</time>
      </trkpt>
      <trkpt lat="48.72564" lon="7.24175">
        <ele>298.711304</ele>
        <time>2010-06-13T08:51:49Z</time>
      </trkpt>
      <trkpt lat="48.72564" lon="7.24146">
        <ele>301.133179</ele>
        <time>2010-06-13T08:51:57Z</time>
      </trkpt>
      <trkpt lat="48.72568" lon="7.24115">
        <ele>302.742554</ele>
        <time>2010-06-13T08:52:03Z</time>
      </trkpt>
      <trkpt lat="48.72574" lon="7.24084">
        <ele>302.156616</ele>
        <time>2010-06-13T08:52:07Z</time>
      </trkpt>
      <trkpt lat="48.7258" lon="7.24055">
        <ele>302.539429</ele>
        <time>2010-06-13T08:52:11Z</time>
      </trkpt>
      <trkpt lat="48.72587" lon="7.2402">
        <ele>300.344116</ele>
        <time>2010-06-13T08:52:15Z</time>
      </trkpt>
      <trkpt lat="48.72594" lon="7.23988">
        <ele>298.461304</ele>
        <time>2010-06-13T08:52:19Z</time>
      </trkpt>
      <trkpt lat="48.72598" lon="7.2396">
        <ele>295.906616</ele>
        <time>2010-06-13T08:52:22Z</time>
      </trkpt>
      <trkpt lat="48.72602" lon="7.23924">
        <ele>293.328491</ele>
        <time>2010-06-13T08:52:26Z</time>
      </trkpt>
      <trkpt lat="48.72601" lon="7.23896">
        <ele>290.109741</ele>
        <time>2010-06-13T08:52:29Z</time>
      </trkpt>
      <trkpt lat="48.72603" lon="7.23861">
        <ele>286.297241</ele>
        <time>2010-06-13T08:52:33Z</time>
      </trkpt>
      <trkpt lat="48.72603" lon="7.23827">
        <ele>283.609741</ele>
        <time>2010-06-13T08:52:37Z</time>
      </trkpt>
      <trkpt lat="48.72602" lon="7.23792">
        <ele>281.351929</ele>
        <time>2010-06-13T08:52:41Z</time>
      </trkpt>
      <trkpt lat="48.72598" lon="7.23757">
        <ele>278.476929</ele>
        <time>2010-06-13T08:52:45Z</time>
      </trkpt>
      <trkpt lat="48.72596" lon="7.23727">
        <ele>276.422241</ele>
        <time>2010-06-13T08:52:48Z</time>
      </trkpt>
      <trkpt lat="48.72594" lon="7.23698">
        <ele>274.539429</ele>
        <time>2010-06-13T08:52:51Z</time>
      </trkpt>
      <trkpt lat="48.72592" lon="7.23669">
        <ele>272.367554</ele>
        <time>2010-06-13T08:52:54Z</time>
      </trkpt>
      <trkpt lat="48.72592" lon="7.2364">
        <ele>270.156616</ele>
        <time>2010-06-13T08:52:58Z</time>
      </trkpt>
      <trkpt lat="48.72589" lon="7.23609">
        <ele>269.328491</ele>
        <time>2010-06-13T08:53:02Z</time>
      </trkpt>
      <trkpt lat="48.72586" lon="7.23578">
        <ele>267.937866</ele>
        <time>2010-06-13T08:53:06Z</time>
      </trkpt>
      <trkpt lat="48.72583" lon="7.23549">
        <ele>266.695679</ele>
        <time>2010-06-13T08:53:10Z</time>
      </trkpt>
      <trkpt lat="48.72583" lon="7.23516">
        <ele>265.469116</ele>
        <time>2010-06-13T08:53:15Z</time>
      </trkpt>
      <trkpt lat="48.72581" lon="7.23487">
        <ele>265.125366</ele>
        <time>2010-06-13T08:53:19Z</time>
      </trkpt>
      <trkpt lat="48.72575" lon="7.2346">
        <ele>264.930054</ele>
        <time>2010-06-13T08:53:23Z</time>
      </trkpt>
      <trkpt lat="48.72575" lon="7.23431">
        <ele>264.484741</ele>
        <time>2010-06-13T08:53:27Z</time>
      </trkpt>
      <trkpt lat="48.72575" lon="7.23401">
        <ele>263.414429</ele>
        <time>2010-06-13T08:53:31Z</time>
      </trkpt>
      <trkpt lat="48.72577" lon="7.2337">
        <ele>261.289429</ele>
        <time>2010-06-13T08:53:35Z</time>
      </trkpt>
      <trkpt lat="48.72574" lon="7.23339">
        <ele>259.500366</ele>
        <time>2010-06-13T08:53:39Z</time>
      </trkpt>
      <trkpt lat="48.72577" lon="7.23304">
        <ele>258.555054</ele>
        <time>2010-06-13T08:53:43Z</time>
      </trkpt>
      <trkpt lat="48.72575" lon="7.23271">
        <ele>255.675964</ele>
        <time>2010-06-13T08:53:47Z</time>
      </trkpt>
      <trkpt lat="48.72566" lon="7.23245">
        <ele>249.722839</ele>
        <time>2010-06-13T08:53:51Z</time>
      </trkpt>
      <trkpt lat="48.72553" lon="7.23224">
        <ele>246.863464</ele>
        <time>2010-06-13T08:53:55Z</time>
      </trkpt>
      <trkpt lat="48.72531" lon="7.23213">
        <ele>245.461121</ele>
        <time>2010-06-13T08:53:59Z</time>
      </trkpt>
      <trkpt lat="48.72515" lon="7.23197">
        <ele>243.250183</ele>
        <time>2010-06-13T08:54:06Z</time>
      </trkpt>
      <trkpt lat="48.72495" lon="7.23183">
        <ele>241.656433</ele>
        <time>2010-06-13T08:54:13Z</time>
      </trkpt>
      <trkpt lat="48.72477" lon="7.23196">
        <ele>240.679871</ele>
        <time>2010-06-13T08:54:19Z</time>
      </trkpt>
      <trkpt lat="48.72461" lon="7.23182">
        <ele>244.312683</ele>
        <time>2010-06-13T08:54:31Z</time>
      </trkpt>
      <trkpt lat="48.72443" lon="7.2318">
        <ele>246.730652</ele>
        <time>2010-06-13T08:54:40Z</time>
      </trkpt>
      <trkpt lat="48.7243" lon="7.23159">
        <ele>247.437683</ele>
        <time>2010-06-13T08:54:55Z</time>
      </trkpt>
      <trkpt lat="48.72412" lon="7.23149">
        <ele>249.160339</ele>
        <time>2010-06-13T08:55:07Z</time>
      </trkpt>
      <trkpt lat="48.72389" lon="7.2315">
        <ele>251.586121</ele>
        <time>2010-06-13T08:55:17Z</time>
      </trkpt>
      <trkpt lat="48.72371" lon="7.23153">
        <ele>254.789246</ele>
        <time>2010-06-13T08:55:25Z</time>
      </trkpt>
      <trkpt lat="48.72348" lon="7.23151">
        <ele>258.250366</ele>
        <time>2010-06-13T08:55:32Z</time>
      </trkpt>
      <trkpt lat="48.72326" lon="7.23142">
        <ele>260.992554</ele>
        <time>2010-06-13T08:55:36Z</time>
      </trkpt>
      <trkpt lat="48.72307" lon="7.23135">
        <ele>262.336304</ele>
        <time>2010-06-13T08:55:39Z</time>
      </trkpt>
      <trkpt lat="48.72287" lon="7.23129">
        <ele>264.133179</ele>
        <time>2010-06-13T08:55:43Z</time>
      </trkpt>
      <trkpt lat="48.72267" lon="7.2312">
        <ele>265.953491</ele>
        <time>2010-06-13T08:55:48Z</time>
      </trkpt>
      <trkpt lat="48.72252" lon="7.23105">
        <ele>270.187866</ele>
        <time>2010-06-13T08:55:58Z</time>
      </trkpt>
      <trkpt lat="48.72236" lon="7.23095">
        <ele>276.039429</ele>
        <time>2010-06-13T08:57:35Z</time>
      </trkpt>
      <trkpt lat="48.72221" lon="7.23078">
        <ele>277.390991</ele>
        <time>2010-06-13T08:57:54Z</time>
      </trkpt>
      <trkpt lat="48.72205" lon="7.23068">
        <ele>276.140991</ele>
        <time>2010-06-13T08:58:12Z</time>
      </trkpt>
      <trkpt lat="48.72185" lon="7.23051">
        <ele>275.680054</ele>
        <time>2010-06-13T08:58:22Z</time>
      </trkpt>
      <trkpt lat="48.72173" lon="7.23031">
        <ele>275.062866</ele>
        <time>2010-06-13T08:58:28Z</time>
      </trkpt>
      <trkpt lat="48.72156" lon="7.23013">
        <ele>275.187866</ele>
        <time>2010-06-13T08:58:38Z</time>
      </trkpt>
      <trkpt lat="48.72138" lon="7.22999">
        <ele>276.008179</ele>
        <time>2010-06-13T08:58:43Z</time>
      </trkpt>
      <trkpt lat="48.72121" lon="7.22988">
        <ele>276.328491</ele>
        <time>2010-06-13T08:58:49Z</time>
      </trkpt>
      <trkpt lat="48.72103" lon="7.22986">
        <ele>277.125366</ele>
        <time>2010-06-13T08:58:55Z</time>
      </trkpt>
      <trkpt lat="48.72084" lon="7.22985">
        <ele>273.812866</ele>
        <time>2010-06-13T08:58:59Z</time>
      </trkpt>
      <trkpt lat="48.72066" lon="7.22987">
        <ele>272.515991</ele>
        <time>2010-06-13T08:59:10Z</time>
      </trkpt>
      <trkpt lat="48.72048" lon="7.22987">
        <ele>271.015991</ele>
        <time>2010-06-13T08:59:25Z</time>
      </trkpt>
      <trkpt lat="48.72042" lon="7.2296">
        <ele>270.234741</ele>
        <time>2010-06-13T08:59:51Z</time>
      </trkpt>
      <trkpt lat="48.72046" lon="7.22926">
        <ele>270.156616</ele>
        <time>2010-06-13T08:59:54Z</time>
      </trkpt>
      <trkpt lat="48.72041" lon="7.22899">
        <ele>269.594116</ele>
        <time>2010-06-13T08:59:58Z</time>
      </trkpt>
      <trkpt lat="48.72028" lon="7.2288">
        <ele>269.398804</ele>
        <time>2010-06-13T09:00:08Z</time>
      </trkpt>
      <trkpt lat="48.7201" lon="7.22871">
        <ele>269.687866</ele>
        <time>2010-06-13T09:00:15Z</time>
      </trkpt>
      <trkpt lat="48.71994" lon="7.22854">
        <ele>269.140991</ele>
        <time>2010-06-13T09:00:23Z</time>
      </trkpt>
      <trkpt lat="48.71983" lon="7.22832">
        <ele>268.359741</ele>
        <time>2010-06-13T09:00:34Z</time>
      </trkpt>
      <trkpt lat="48.71978" lon="7.22806">
        <ele>263.187866</ele>
        <time>2010-06-13T09:00:41Z</time>
      </trkpt>
      <trkpt lat="48.71978" lon="7.22773">
        <ele>259.828491</ele>
        <time>2010-06-13T09:00:47Z</time>
      </trkpt>
      <trkpt lat="48.71968" lon="7.22747">
        <ele>255.617371</ele>
        <time>2010-06-13T09:00:53Z</time>
      </trkpt>
      <trkpt lat="48.71956" lon="7.22724">
        <ele>255.093933</ele>
        <time>2010-06-13T09:00:57Z</time>
      </trkpt>
      <trkpt lat="48.71946" lon="7.227">
        <ele>252.843933</ele>
        <time>2010-06-13T09:01:02Z</time>
      </trkpt>
      <trkpt lat="48.71931" lon="7.22681">
        <ele>251.394714</ele>
        <time>2010-06-13T09:01:09Z</time>
      </trkpt>
      <trkpt lat="48.71925" lon="7.22654">
        <ele>249.410339</ele>
        <time>2010-06-13T09:01:17Z</time>
      </trkpt>
      <trkpt lat="48.71916" lon="7.2263">
        <ele>247.773621</ele>
        <time>2010-06-13T09:01:52Z</time>
      </trkpt>
      <trkpt lat="48.71905" lon="7.22607">
        <ele>244.484558</ele>
        <time>2010-06-13T09:02:05Z</time>
      </trkpt>
      <trkpt lat="48.71887" lon="7.226">
        <ele>241.609558</ele>
        <time>2010-06-13T09:02:19Z</time>
      </trkpt>
      <trkpt lat="48.71881" lon="7.22574">
        <ele>238.773621</ele>
        <time>2010-06-13T09:02:40Z</time>
      </trkpt>
      <trkpt lat="48.71875" lon="7.22547">
        <ele>235.054871</ele>
        <time>2010-06-13T09:02:47Z</time>
      </trkpt>
      <trkpt lat="48.71873" lon="7.22518">
        <ele>233.160339</ele>
        <time>2010-06-13T09:02:55Z</time>
      </trkpt>
      <trkpt lat="48.71877" lon="7.22489">
        <ele>230.582214</ele>
        <time>2010-06-13T09:03:00Z</time>
      </trkpt>
      <trkpt lat="48.71884" lon="7.2246">
        <ele>232.965027</ele>
        <time>2010-06-13T09:03:06Z</time>
      </trkpt>
      <trkpt lat="48.71887" lon="7.22433">
        <ele>229.375183</ele>
        <time>2010-06-13T09:03:12Z</time>
      </trkpt>
      <trkpt lat="48.71901" lon="7.22408">
        <ele>228.441589</ele>
        <time>2010-06-13T09:03:18Z</time>
      </trkpt>
      <trkpt lat="48.71914" lon="7.22383">
        <ele>227.871277</ele>
        <time>2010-06-13T09:03:24Z</time>
      </trkpt>
      <trkpt lat="48.71923" lon="7.22357">
        <ele>226.359558</ele>
        <time>2010-06-13T09:03:29Z</time>
      </trkpt>
      <trkpt lat="48.71929" lon="7.22323">
        <ele>223.414246</ele>
        <time>2010-06-13T09:03:34Z</time>
      </trkpt>
      <trkpt lat="48.71932" lon="7.22289">
        <ele>222.715027</ele>
        <time>2010-06-13T09:03:38Z</time>
      </trkpt>
      <trkpt lat="48.71935" lon="7.22261">
        <ele>221.234558</ele>
        <time>2010-06-13T09:03:41Z</time>
      </trkpt>
      <trkpt lat="48.71943" lon="7.22234">
        <ele>221.261902</ele>
        <time>2010-06-13T09:03:44Z</time>
      </trkpt>
      <trkpt lat="48.71951" lon="7.22201">
        <ele>222.289246</ele>
        <time>2010-06-13T09:03:48Z</time>
      </trkpt>
      <trkpt lat="48.71959" lon="7.22174">
        <ele>222.984558</ele>
        <time>2010-06-13T09:03:52Z</time>
      </trkpt>
      <trkpt lat="48.71966" lon="7.22142">
        <ele>223.742371</ele>
        <time>2010-06-13T09:03:57Z</time>
      </trkpt>
      <trkpt lat="48.71968" lon="7.22113">
        <ele>222.988464</ele>
        <time>2010-06-13T09:04:02Z</time>
      </trkpt>
      <trkpt lat="48.71973" lon="7.22085">
        <ele>224.359558</ele>
        <time>2010-06-13T09:04:09Z</time>
      </trkpt>
      <trkpt lat="48.71977" lon="7.22116">
        <ele>222.527527</ele>
        <time>2010-06-13T09:04:21Z</time>
      </trkpt>
      <trkpt lat="48.71975" lon="7.22146">
        <ele>223.090027</ele>
        <time>2010-06-13T09:04:25Z</time>
      </trkpt>
      <trkpt lat="48.71972" lon="7.22174">
        <ele>226.254089</ele>
        <time>2010-06-13T09:04:30Z</time>
      </trkpt>
      <trkpt lat="48.71973" lon="7.22206">
        <ele>226.859558</ele>
        <time>2010-06-13T09:04:36Z</time>
      </trkpt>
      <trkpt lat="48.71975" lon="7.22235">
        <ele>227.062683</ele>
        <time>2010-06-13T09:04:41Z</time>
      </trkpt>
      <trkpt lat="48.7198" lon="7.22263">
        <ele>225.925964</ele>
        <time>2010-06-13T09:04:47Z</time>
      </trkpt>
      <trkpt lat="48.71985" lon="7.2229">
        <ele>225.800964</ele>
        <time>2010-06-13T09:04:52Z</time>
      </trkpt>
      <trkpt lat="48.71991" lon="7.22321">
        <ele>224.425964</ele>
        <time>2010-06-13T09:04:57Z</time>
      </trkpt>
      <trkpt lat="48.71996" lon="7.22351">
        <ele>224.195496</ele>
        <time>2010-06-13T09:05:02Z</time>
      </trkpt>
      <trkpt lat="48.71998" lon="7.22379">
        <ele>224.422058</ele>
        <time>2010-06-13T09:05:07Z</time>
      </trkpt>
      <trkpt lat="48.72004" lon="7.22409">
        <ele>224.074402</ele>
        <time>2010-06-13T09:05:11Z</time>
      </trkpt>
      <trkpt lat="48.72012" lon="7.22434">
        <ele>224.500183</ele>
        <time>2010-06-13T09:05:15Z</time>
      </trkpt>
      <trkpt lat="48.72017" lon="7.22467">
        <ele>225.066589</ele>
        <time>2010-06-13T09:05:20Z</time>
      </trkpt>
      <trkpt lat="48.72023" lon="7.22499">
        <ele>226.070496</ele>
        <time>2010-06-13T09:05:25Z</time>
      </trkpt>
      <trkpt lat="48.72031" lon="7.22523">
        <ele>226.648621</ele>
        <time>2010-06-13T09:05:30Z</time>
      </trkpt>
      <trkpt lat="48.72044" lon="7.22542">
        <ele>224.379089</ele>
        <time>2010-06-13T09:05:40Z</time>
      </trkpt>
      <trkpt lat="48.72045" lon="7.22569">
        <ele>220.394714</ele>
        <time>2010-06-13T09:07:39Z</time>
      </trkpt>
      <trkpt lat="48.72041" lon="7.22543">
        <ele>223.765808</ele>
        <time>2010-06-13T09:21:26Z</time>
      </trkpt>
      <trkpt lat="48.72038" lon="7.2257">
        <ele>226.234558</ele>
        <time>2010-06-13T09:22:51Z</time>
      </trkpt>
      <trkpt lat="48.72055" lon="7.22579">
        <ele>226.890808</ele>
        <time>2010-06-13T09:23:01Z</time>
      </trkpt>
      <trkpt lat="48.72068" lon="7.22607">
        <ele>225.820496</ele>
        <time>2010-06-13T09:23:08Z</time>
      </trkpt>
      <trkpt lat="48.72077" lon="7.22639">
        <ele>224.660339</ele>
        <time>2010-06-13T09:23:12Z</time>
      </trkpt>
      <trkpt lat="48.72087" lon="7.22668">
        <ele>223.836121</ele>
        <time>2010-06-13T09:23:16Z</time>
      </trkpt>
      <trkpt lat="48.72096" lon="7.22694">
        <ele>222.988464</ele>
        <time>2010-06-13T09:23:20Z</time>
      </trkpt>
      <trkpt lat="48.72108" lon="7.22719">
        <ele>221.750183</ele>
        <time>2010-06-13T09:23:25Z</time>
      </trkpt>
      <trkpt lat="48.72118" lon="7.22744">
        <ele>220.879089</ele>
        <time>2010-06-13T09:23:30Z</time>
      </trkpt>
      <trkpt lat="48.72129" lon="7.22767">
        <ele>219.636902</ele>
        <time>2010-06-13T09:23:35Z</time>
      </trkpt>
      <trkpt lat="48.72139" lon="7.2279">
        <ele>218.789246</ele>
        <time>2010-06-13T09:23:40Z</time>
      </trkpt>
      <trkpt lat="48.7215" lon="7.22813">
        <ele>217.761902</ele>
        <time>2010-06-13T09:23:45Z</time>
      </trkpt>
      <trkpt lat="48.72162" lon="7.22839">
        <ele>218.867371</ele>
        <time>2010-06-13T09:23:51Z</time>
      </trkpt>
      <trkpt lat="48.72175" lon="7.22863">
        <ele>219.984558</ele>
        <time>2010-06-13T09:23:57Z</time>
      </trkpt>
      <trkpt lat="48.72189" lon="7.22886">
        <ele>219.351746</ele>
        <time>2010-06-13T09:24:02Z</time>
      </trkpt>
      <trkpt lat="48.72205" lon="7.22908">
        <ele>218.988464</ele>
        <time>2010-06-13T09:24:07Z</time>
      </trkpt>
      <trkpt lat="48.7222" lon="7.2293">
        <ele>217.996277</ele>
        <time>2010-06-13T09:24:12Z</time>
      </trkpt>
      <trkpt lat="48.72233" lon="7.22951">
        <ele>217.734558</ele>
        <time>2010-06-13T09:24:17Z</time>
      </trkpt>
      <trkpt lat="48.72248" lon="7.22975">
        <ele>217.078308</ele>
        <time>2010-06-13T09:24:21Z</time>
      </trkpt>
      <trkpt lat="48.72266" lon="7.22996">
        <ele>216.023621</ele>
        <time>2010-06-13T09:24:25Z</time>
      </trkpt>
      <trkpt lat="48.72285" lon="7.23002">
        <ele>216.875183</ele>
        <time>2010-06-13T09:24:30Z</time>
      </trkpt>
      <trkpt lat="48.72306" lon="7.22991">
        <ele>215.859558</ele>
        <time>2010-06-13T09:24:35Z</time>
      </trkpt>
      <trkpt lat="48.72316" lon="7.22961">
        <ele>217.754089</ele>
        <time>2010-06-13T09:24:41Z</time>
      </trkpt>
      <trkpt lat="48.72334" lon="7.22955">
        <ele>219.953308</ele>
        <time>2010-06-13T09:24:49Z</time>
      </trkpt>
      <trkpt lat="48.72351" lon="7.22969">
        <ele>221.140808</ele>
        <time>2010-06-13T09:24:55Z</time>
      </trkpt>
      <trkpt lat="48.72372" lon="7.22977">
        <ele>222.039246</ele>
        <time>2010-06-13T09:25:01Z</time>
      </trkpt>
      <trkpt lat="48.7239" lon="7.22989">
        <ele>222.605652</ele>
        <time>2010-06-13T09:25:06Z</time>
      </trkpt>
      <trkpt lat="48.72407" lon="7.23">
        <ele>223.617371</ele>
        <time>2010-06-13T09:25:12Z</time>
      </trkpt>
      <trkpt lat="48.72426" lon="7.23002">
        <ele>224.195496</ele>
        <time>2010-06-13T09:25:17Z</time>
      </trkpt>
      <trkpt lat="48.72443" lon="7.23011">
        <ele>223.711121</ele>
        <time>2010-06-13T09:25:21Z</time>
      </trkpt>
      <trkpt lat="48.72464" lon="7.23017">
        <ele>223.687683</ele>
        <time>2010-06-13T09:25:26Z</time>
      </trkpt>
      <trkpt lat="48.72485" lon="7.23012">
        <ele>223.382996</ele>
        <time>2010-06-13T09:25:31Z</time>
      </trkpt>
      <trkpt lat="48.72504" lon="7.23008">
        <ele>223.105652</ele>
        <time>2010-06-13T09:25:36Z</time>
      </trkpt>
      <trkpt lat="48.72523" lon="7.23011">
        <ele>224.679871</ele>
        <time>2010-06-13T09:25:40Z</time>
      </trkpt>
      <trkpt lat="48.72543" lon="7.23015">
        <ele>225.699402</ele>
        <time>2010-06-13T09:25:44Z</time>
      </trkpt>
      <trkpt lat="48.72562" lon="7.23015">
        <ele>227.328308</ele>
        <time>2010-06-13T09:25:49Z</time>
      </trkpt>
      <trkpt lat="48.72584" lon="7.23023">
        <ele>227.066589</ele>
        <time>2010-06-13T09:25:54Z</time>
      </trkpt>
      <trkpt lat="48.72605" lon="7.23031">
        <ele>228.531433</ele>
        <time>2010-06-13T09:25:59Z</time>
      </trkpt>
      <trkpt lat="48.72628" lon="7.23034">
        <ele>229.793152</ele>
        <time>2010-06-13T09:26:03Z</time>
      </trkpt>
      <trkpt lat="48.72646" lon="7.23041">
        <ele>230.910339</ele>
        <time>2010-06-13T09:26:07Z</time>
      </trkpt>
      <trkpt lat="48.72666" lon="7.23057">
        <ele>226.953308</ele>
        <time>2010-06-13T09:26:13Z</time>
      </trkpt>
      <trkpt lat="48.72688" lon="7.23062">
        <ele>224.519714</ele>
        <time>2010-06-13T09:26:17Z</time>
      </trkpt>
      <trkpt lat="48.72704" lon="7.23082">
        <ele>224.066589</ele>
        <time>2010-06-13T09:26:22Z</time>
      </trkpt>
      <trkpt lat="48.72719" lon="7.23108">
        <ele>218.621277</ele>
        <time>2010-06-13T09:26:27Z</time>
      </trkpt>
      <trkpt lat="48.72732" lon="7.23133">
        <ele>213.679871</ele>
        <time>2010-06-13T09:26:32Z</time>
      </trkpt>
      <trkpt lat="48.72745" lon="7.23159">
        <ele>210.242371</ele>
        <time>2010-06-13T09:26:37Z</time>
      </trkpt>
      <trkpt lat="48.72751" lon="7.23189">
        <ele>212.043152</ele>
        <time>2010-06-13T09:26:42Z</time>
      </trkpt>
      <trkpt lat="48.72755" lon="7.23222">
        <ele>212.961121</ele>
        <time>2010-06-13T09:26:47Z</time>
      </trkpt>
      <trkpt lat="48.72767" lon="7.23247">
        <ele>213.738464</ele>
        <time>2010-06-13T09:26:52Z</time>
      </trkpt>
      <trkpt lat="48.72785" lon="7.23243">
        <ele>215.984558</ele>
        <time>2010-06-13T09:26:58Z</time>
      </trkpt>
      <trkpt lat="48.72792" lon="7.23218">
        <ele>217.812683</ele>
        <time>2010-06-13T09:27:15Z</time>
      </trkpt>
      <trkpt lat="48.72799" lon="7.23192">
        <ele>220.996277</ele>
        <time>2010-06-13T09:27:28Z</time>
      </trkpt>
      <trkpt lat="48.72798" lon="7.23165">
        <ele>224.332214</ele>
        <time>2010-06-13T09:27:44Z</time>
      </trkpt>
      <trkpt lat="48.72794" lon="7.23136">
        <ele>226.996277</ele>
        <time>2010-06-13T09:27:56Z</time>
      </trkpt>
      <trkpt lat="48.72797" lon="7.23109">
        <ele>228.164246</ele>
        <time>2010-06-13T09:28:09Z</time>
      </trkpt>
      <trkpt lat="48.72813" lon="7.23091">
        <ele>231.566589</ele>
        <time>2010-06-13T09:28:21Z</time>
      </trkpt>
      <trkpt lat="48.72829" lon="7.23076">
        <ele>236.738464</ele>
        <time>2010-06-13T09:28:32Z</time>
      </trkpt>
      <trkpt lat="48.72846" lon="7.23061">
        <ele>241.093933</ele>
        <time>2010-06-13T09:28:41Z</time>
      </trkpt>
      <trkpt lat="48.7286" lon="7.23044">
        <ele>246.632996</ele>
        <time>2010-06-13T09:28:51Z</time>
      </trkpt>
      <trkpt lat="48.72846" lon="7.23036">
        <ele>257.726929</ele>
        <time>2010-06-13T09:29:20Z</time>
      </trkpt>
      <trkpt lat="48.72825" lon="7.23032">
        <ele>260.930054</ele>
        <time>2010-06-13T09:29:28Z</time>
      </trkpt>
      <trkpt lat="48.72805" lon="7.23039">
        <ele>256.422241</ele>
        <time>2010-06-13T09:29:35Z</time>
      </trkpt>
      <trkpt lat="48.72787" lon="7.23035">
        <ele>253.691589</ele>
        <time>2010-06-13T09:29:43Z</time>
      </trkpt>
      <trkpt lat="48.7277" lon="7.23021">
        <ele>251.972839</ele>
        <time>2010-06-13T09:29:53Z</time>
      </trkpt>
      <trkpt lat="48.72756" lon="7.22999">
        <ele>250.644714</ele>
        <time>2010-06-13T09:30:07Z</time>
      </trkpt>
      <trkpt lat="48.72745" lon="7.22976">
        <ele>248.191589</ele>
        <time>2010-06-13T09:30:22Z</time>
      </trkpt>
      <trkpt lat="48.72734" lon="7.22954">
        <ele>247.343933</ele>
        <time>2010-06-13T09:30:35Z</time>
      </trkpt>
      <trkpt lat="48.72728" lon="7.22927">
        <ele>251.808777</ele>
        <time>2010-06-13T09:30:51Z</time>
      </trkpt>
      <trkpt lat="48.72733" lon="7.22902">
        <ele>256.640991</ele>
        <time>2010-06-13T09:31:18Z</time>
      </trkpt>
      <trkpt lat="48.72715" lon="7.22896">
        <ele>258.547241</ele>
        <time>2010-06-13T09:31:33Z</time>
      </trkpt>
      <trkpt lat="48.72696" lon="7.22884">
        <ele>260.742554</ele>
        <time>2010-06-13T09:31:42Z</time>
      </trkpt>
      <trkpt lat="48.7268" lon="7.22873">
        <ele>263.742554</ele>
        <time>2010-06-13T09:31:52Z</time>
      </trkpt>
      <trkpt lat="48.72662" lon="7.22865">
        <ele>265.461304</ele>
        <time>2010-06-13T09:32:01Z</time>
      </trkpt>
      <trkpt lat="48.72644" lon="7.2286">
        <ele>267.265991</ele>
        <time>2010-06-13T09:32:10Z</time>
      </trkpt>
      <trkpt lat="48.72627" lon="7.22844">
        <ele>269.430054</ele>
        <time>2010-06-13T09:32:35Z</time>
      </trkpt>
      <trkpt lat="48.72609" lon="7.22832">
        <ele>270.976929</ele>
        <time>2010-06-13T09:32:49Z</time>
      </trkpt>
      <trkpt lat="48.72591" lon="7.22826">
        <ele>273.953491</ele>
        <time>2010-06-13T09:33:02Z</time>
      </trkpt>
      <trkpt lat="48.72574" lon="7.22815">
        <ele>276.906616</ele>
        <time>2010-06-13T09:33:17Z</time>
      </trkpt>
      <trkpt lat="48.7256" lon="7.22797">
        <ele>278.359741</ele>
        <time>2010-06-13T09:33:33Z</time>
      </trkpt>
      <trkpt lat="48.72545" lon="7.22781">
        <ele>279.023804</ele>
        <time>2010-06-13T09:33:46Z</time>
      </trkpt>
      <trkpt lat="48.72529" lon="7.22767">
        <ele>281.406616</ele>
        <time>2010-06-13T09:33:58Z</time>
      </trkpt>
      <trkpt lat="48.72527" lon="7.22738">
        <ele>280.187866</ele>
        <time>2010-06-13T09:34:09Z</time>
      </trkpt>
      <trkpt lat="48.72516" lon="7.22715">
        <ele>282.187866</ele>
        <time>2010-06-13T09:34:24Z</time>
      </trkpt>
      <trkpt lat="48.72504" lon="7.22696">
        <ele>288.726929</ele>
        <time>2010-06-13T09:34:44Z</time>
      </trkpt>
      <trkpt lat="48.72492" lon="7.22675">
        <ele>291.820679</ele>
        <time>2010-06-13T09:35:05Z</time>
      </trkpt>
      <trkpt lat="48.72473" lon="7.22672">
        <ele>295.070679</ele>
        <time>2010-06-13T09:35:16Z</time>
      </trkpt>
      <trkpt lat="48.72455" lon="7.22672">
        <ele>299.492554</ele>
        <time>2010-06-13T09:35:50Z</time>
      </trkpt>
      <trkpt lat="48.72437" lon="7.22678">
        <ele>300.430054</ele>
        <time>2010-06-13T09:36:00Z</time>
      </trkpt>
      <trkpt lat="48.7242" lon="7.22693">
        <ele>301.758179</ele>
        <time>2010-06-13T09:36:13Z</time>
      </trkpt>
      <trkpt lat="48.72405" lon="7.2271">
        <ele>302.562866</ele>
        <time>2010-06-13T09:36:23Z</time>
      </trkpt>
      <trkpt lat="48.72392" lon="7.22729">
        <ele>302.508179</ele>
        <time>2010-06-13T09:36:37Z</time>
      </trkpt>
      <trkpt lat="48.72387" lon="7.22758">
        <ele>305.445679</ele>
        <time>2010-06-13T09:36:52Z</time>
      </trkpt>
      <trkpt lat="48.72381" lon="7.22784">
        <ele>306.234741</ele>
        <time>2010-06-13T09:37:04Z</time>
      </trkpt>
      <trkpt lat="48.72368" lon="7.22803">
        <ele>302.914429</ele>
        <time>2010-06-13T09:37:41Z</time>
      </trkpt>
      <trkpt lat="48.72361" lon="7.2278">
        <ele>295.437866</ele>
        <time>2010-06-13T09:39:24Z</time>
      </trkpt>
      <trkpt lat="48.72364" lon="7.22753">
        <ele>299.164429</ele>
        <time>2010-06-13T09:39:34Z</time>
      </trkpt>
      <trkpt lat="48.72363" lon="7.22724">
        <ele>303.164429</ele>
        <time>2010-06-13T09:39:46Z</time>
      </trkpt>
      <trkpt lat="48.72354" lon="7.227">
        <ele>305.969116</ele>
        <time>2010-06-13T09:39:56Z</time>
      </trkpt>
      <trkpt lat="48.72368" lon="7.2268">
        <ele>308.867554</ele>
        <time>2010-06-13T09:40:11Z</time>
      </trkpt>
      <trkpt lat="48.72383" lon="7.22665">
        <ele>311.133179</ele>
        <time>2010-06-13T09:40:21Z</time>
      </trkpt>
      <trkpt lat="48.7239" lon="7.2264">
        <ele>308.633179</ele>
        <time>2010-06-13T09:40:29Z</time>
      </trkpt>
      <trkpt lat="48.72405" lon="7.22623">
        <ele>310.328491</ele>
        <time>2010-06-13T09:40:40Z</time>
      </trkpt>
      <trkpt lat="48.72421" lon="7.22609">
        <ele>313.117554</ele>
        <time>2010-06-13T09:40:52Z</time>
      </trkpt>
      <trkpt lat="48.72435" lon="7.2259">
        <ele>312.750366</ele>
        <time>2010-06-13T09:41:07Z</time>
      </trkpt>
      <trkpt lat="48.72452" lon="7.22578">
        <ele>311.890991</ele>
        <time>2010-06-13T09:41:24Z</time>
      </trkpt>
      <trkpt lat="48.72471" lon="7.22573">
        <ele>309.586304</ele>
        <time>2010-06-13T09:41:35Z</time>
      </trkpt>
      <trkpt lat="48.7249" lon="7.22576">
        <ele>309.805054</ele>
        <time>2010-06-13T09:41:42Z</time>
      </trkpt>
      <trkpt lat="48.72508" lon="7.22593">
        <ele>308.453491</ele>
        <time>2010-06-13T09:41:50Z</time>
      </trkpt>
      <trkpt lat="48.72524" lon="7.22606">
        <ele>307.461304</ele>
        <time>2010-06-13T09:41:59Z</time>
      </trkpt>
      <trkpt lat="48.7254" lon="7.22622">
        <ele>306.664429</ele>
        <time>2010-06-13T09:42:09Z</time>
      </trkpt>
      <trkpt lat="48.72553" lon="7.22645">
        <ele>305.742554</ele>
        <time>2010-06-13T09:42:21Z</time>
      </trkpt>
      <trkpt lat="48.72571" lon="7.22659">
        <ele>306.867554</ele>
        <time>2010-06-13T09:42:29Z</time>
      </trkpt>
      <trkpt lat="48.72587" lon="7.22676">
        <ele>310.625366</ele>
        <time>2010-06-13T09:42:37Z</time>
      </trkpt>
      <trkpt lat="48.72602" lon="7.22694">
        <ele>308.484741</ele>
        <time>2010-06-13T09:42:42Z</time>
      </trkpt>
      <trkpt lat="48.72622" lon="7.22702">
        <ele>307.664429</ele>
        <time>2010-06-13T09:42:49Z</time>
      </trkpt>
      <trkpt lat="48.72637" lon="7.22718">
        <ele>303.867554</ele>
        <time>2010-06-13T09:42:55Z</time>
      </trkpt>
      <trkpt lat="48.72652" lon="7.22738">
        <ele>301.422241</ele>
        <time>2010-06-13T09:43:05Z</time>
      </trkpt>
      <trkpt lat="48.72664" lon="7.22758">
        <ele>295.000366</ele>
        <time>2010-06-13T09:43:22Z</time>
      </trkpt>
      <trkpt lat="48.72678" lon="7.22743">
        <ele>285.430054</ele>
        <time>2010-06-13T09:43:36Z</time>
      </trkpt>
      <trkpt lat="48.72696" lon="7.22728">
        <ele>287.336304</ele>
        <time>2010-06-13T09:44:07Z</time>
      </trkpt>
      <trkpt lat="48.72714" lon="7.22717">
        <ele>287.820679</ele>
        <time>2010-06-13T09:44:15Z</time>
      </trkpt>
      <trkpt lat="48.72733" lon="7.22714">
        <ele>289.242554</ele>
        <time>2010-06-13T09:44:25Z</time>
      </trkpt>
      <trkpt lat="48.72752" lon="7.22718">
        <ele>290.555054</ele>
        <time>2010-06-13T09:44:31Z</time>
      </trkpt>
      <trkpt lat="48.72774" lon="7.22715">
        <ele>292.515991</ele>
        <time>2010-06-13T09:44:37Z</time>
      </trkpt>
      <trkpt lat="48.72792" lon="7.22709">
        <ele>293.086304</ele>
        <time>2010-06-13T09:44:41Z</time>
      </trkpt>
      <trkpt lat="48.72807" lon="7.22692">
        <ele>294.101929</ele>
        <time>2010-06-13T09:44:51Z</time>
      </trkpt>
      <trkpt lat="48.72815" lon="7.22666">
        <ele>296.250366</ele>
        <time>2010-06-13T09:45:03Z</time>
      </trkpt>
      <trkpt lat="48.72825" lon="7.22641">
        <ele>295.500366</ele>
        <time>2010-06-13T09:45:11Z</time>
      </trkpt>
      <trkpt lat="48.72823" lon="7.22613">
        <ele>290.625366</ele>
        <time>2010-06-13T09:45:18Z</time>
      </trkpt>
      <trkpt lat="48.72836" lon="7.22588">
        <ele>284.765991</ele>
        <time>2010-06-13T09:45:26Z</time>
      </trkpt>
      <trkpt lat="48.72853" lon="7.22578">
        <ele>277.250366</ele>
        <time>2010-06-13T09:45:31Z</time>
      </trkpt>
      <trkpt lat="48.7287" lon="7.22569">
        <ele>276.078491</ele>
        <time>2010-06-13T09:45:40Z</time>
      </trkpt>
      <trkpt lat="48.72888" lon="7.22576">
        <ele>278.359741</ele>
        <time>2010-06-13T09:45:48Z</time>
      </trkpt>
      <trkpt lat="48.72899" lon="7.226">
        <ele>282.101929</ele>
        <time>2010-06-13T09:45:55Z</time>
      </trkpt>
      <trkpt lat="48.72906" lon="7.22624">
        <ele>286.734741</ele>
        <time>2010-06-13T09:46:00Z</time>
      </trkpt>
      <trkpt lat="48.7291" lon="7.22654">
        <ele>288.062866</ele>
        <time>2010-06-13T09:46:07Z</time>
      </trkpt>
      <trkpt lat="48.72923" lon="7.22672">
        <ele>292.453491</ele>
        <time>2010-06-13T09:46:14Z</time>
      </trkpt>
      <trkpt lat="48.72932" lon="7.22694">
        <ele>299.664429</ele>
        <time>2010-06-13T09:46:26Z</time>
      </trkpt>
      <trkpt lat="48.72942" lon="7.2272">
        <ele>304.031616</ele>
        <time>2010-06-13T09:46:38Z</time>
      </trkpt>
      <trkpt lat="48.72953" lon="7.22742">
        <ele>301.851929</ele>
        <time>2010-06-13T09:46:47Z</time>
      </trkpt>
      <trkpt lat="48.72972" lon="7.2275">
        <ele>301.711304</ele>
        <time>2010-06-13T09:46:59Z</time>
      </trkpt>
      <trkpt lat="48.72991" lon="7.22743">
        <ele>303.367554</ele>
        <time>2010-06-13T09:47:09Z</time>
      </trkpt>
      <trkpt lat="48.73011" lon="7.22741">
        <ele>307.437866</ele>
        <time>2010-06-13T09:47:24Z</time>
      </trkpt>
      <trkpt lat="48.73026" lon="7.22755">
        <ele>310.625366</ele>
        <time>2010-06-13T09:47:33Z</time>
      </trkpt>
      <trkpt lat="48.73033" lon="7.22782">
        <ele>317.984741</ele>
        <time>2010-06-13T09:47:43Z</time>
      </trkpt>
      <trkpt lat="48.73025" lon="7.22811">
        <ele>321.422241</ele>
        <time>2010-06-13T09:47:51Z</time>
      </trkpt>
      <trkpt lat="48.73012" lon="7.22836">
        <ele>320.312866</ele>
        <time>2010-06-13T09:47:59Z</time>
      </trkpt>
      <trkpt lat="48.73004" lon="7.22863">
        <ele>317.320679</ele>
        <time>2010-06-13T09:48:05Z</time>
      </trkpt>
      <trkpt lat="48.73001" lon="7.22892">
        <ele>316.484741</ele>
        <time>2010-06-13T09:48:11Z</time>
      </trkpt>
      <trkpt lat="48.72996" lon="7.22921">
        <ele>314.953491</ele>
        <time>2010-06-13T09:48:18Z</time>
      </trkpt>
      <trkpt lat="48.72992" lon="7.22949">
        <ele>316.437866</ele>
        <time>2010-06-13T09:48:27Z</time>
      </trkpt>
      <trkpt lat="48.73001" lon="7.22976">
        <ele>318.320679</ele>
        <time>2010-06-13T09:48:35Z</time>
      </trkpt>
      <trkpt lat="48.73007" lon="7.23002">
        <ele>320.344116</ele>
        <time>2010-06-13T09:48:50Z</time>
      </trkpt>
      <trkpt lat="48.7301" lon="7.2303">
        <ele>318.890991</ele>
        <time>2010-06-13T09:49:00Z</time>
      </trkpt>
      <trkpt lat="48.73006" lon="7.2306">
        <ele>319.414429</ele>
        <time>2010-06-13T09:49:33Z</time>
      </trkpt>
      <trkpt lat="48.73012" lon="7.23086">
        <ele>316.359741</ele>
        <time>2010-06-13T09:49:48Z</time>
      </trkpt>
      <trkpt lat="48.73015" lon="7.23115">
        <ele>313.359741</ele>
        <time>2010-06-13T09:50:01Z</time>
      </trkpt>
      <trkpt lat="48.73018" lon="7.23143">
        <ele>308.633179</ele>
        <time>2010-06-13T09:50:09Z</time>
      </trkpt>
      <trkpt lat="48.73015" lon="7.2317">
        <ele>307.914429</ele>
        <time>2010-06-13T09:50:20Z</time>
      </trkpt>
      <trkpt lat="48.73002" lon="7.23191">
        <ele>303.976929</ele>
        <time>2010-06-13T09:51:01Z</time>
      </trkpt>
      <trkpt lat="48.72982" lon="7.23191">
        <ele>301.390991</ele>
        <time>2010-06-13T09:51:13Z</time>
      </trkpt>
      <trkpt lat="48.72966" lon="7.23201">
        <ele>300.469116</ele>
        <time>2010-06-13T09:51:23Z</time>
      </trkpt>
      <trkpt lat="48.72948" lon="7.23212">
        <ele>300.984741</ele>
        <time>2010-06-13T09:51:33Z</time>
      </trkpt>
      <trkpt lat="48.72925" lon="7.23221">
        <ele>300.250366</ele>
        <time>2010-06-13T09:51:41Z</time>
      </trkpt>
      <trkpt lat="48.72909" lon="7.23236">
        <ele>298.961304</ele>
        <time>2010-06-13T09:51:48Z</time>
      </trkpt>
      <trkpt lat="48.72909" lon="7.23266">
        <ele>299.375366</ele>
        <time>2010-06-13T09:52:03Z</time>
      </trkpt>
      <trkpt lat="48.72917" lon="7.23292">
        <ele>300.898804</ele>
        <time>2010-06-13T09:52:12Z</time>
      </trkpt>
      <trkpt lat="48.72926" lon="7.2332">
        <ele>300.515991</ele>
        <time>2010-06-13T09:52:21Z</time>
      </trkpt>
      <trkpt lat="48.72935" lon="7.23346">
        <ele>303.562866</ele>
        <time>2010-06-13T09:52:30Z</time>
      </trkpt>
      <trkpt lat="48.72938" lon="7.23373">
        <ele>310.125366</ele>
        <time>2010-06-13T09:52:42Z</time>
      </trkpt>
      <trkpt lat="48.72925" lon="7.23393">
        <ele>309.633179</ele>
        <time>2010-06-13T09:53:28Z</time>
      </trkpt>
      <trkpt lat="48.72909" lon="7.23407">
        <ele>307.523804</ele>
        <time>2010-06-13T09:53:51Z</time>
      </trkpt>
      <trkpt lat="48.7291" lon="7.23435">
        <ele>308.937866</ele>
        <time>2010-06-13T09:54:43Z</time>
      </trkpt>
      <trkpt lat="48.72919" lon="7.2346">
        <ele>312.219116</ele>
        <time>2010-06-13T09:54:54Z</time>
      </trkpt>
      <trkpt lat="48.72912" lon="7.23486">
        <ele>315.297241</ele>
        <time>2010-06-13T09:55:04Z</time>
      </trkpt>
      <trkpt lat="48.72909" lon="7.23514">
        <ele>319.609741</ele>
        <time>2010-06-13T09:55:10Z</time>
      </trkpt>
      <trkpt lat="48.72916" lon="7.23546">
        <ele>319.601929</ele>
        <time>2010-06-13T09:55:15Z</time>
      </trkpt>
      <trkpt lat="48.7292" lon="7.23577">
        <ele>320.664429</ele>
        <time>2010-06-13T09:55:20Z</time>
      </trkpt>
      <trkpt lat="48.72929" lon="7.23601">
        <ele>324.211304</ele>
        <time>2010-06-13T09:55:25Z</time>
      </trkpt>
      <trkpt lat="48.72937" lon="7.23628">
        <ele>329.000366</ele>
        <time>2010-06-13T09:55:31Z</time>
      </trkpt>
      <trkpt lat="48.72943" lon="7.23655">
        <ele>332.765991</ele>
        <time>2010-06-13T09:55:39Z</time>
      </trkpt>
      <trkpt lat="48.72942" lon="7.23684">
        <ele>333.344116</ele>
        <time>2010-06-13T09:55:45Z</time>
      </trkpt>
      <trkpt lat="48.72928" lon="7.23707">
        <ele>336.469116</ele>
        <time>2010-06-13T09:55:49Z</time>
      </trkpt>
      <trkpt lat="48.72919" lon="7.23737">
        <ele>334.172241</ele>
        <time>2010-06-13T09:55:53Z</time>
      </trkpt>
      <trkpt lat="48.7292" lon="7.23769">
        <ele>331.008179</ele>
        <time>2010-06-13T09:55:57Z</time>
      </trkpt>
      <trkpt lat="48.72916" lon="7.238">
        <ele>332.281616</ele>
        <time>2010-06-13T09:56:02Z</time>
      </trkpt>
      <trkpt lat="48.72921" lon="7.23826">
        <ele>327.406616</ele>
        <time>2010-06-13T09:56:06Z</time>
      </trkpt>
      <trkpt lat="48.72917" lon="7.23857">
        <ele>330.164429</ele>
        <time>2010-06-13T09:56:12Z</time>
      </trkpt>
      <trkpt lat="48.72913" lon="7.23888">
        <ele>335.930054</ele>
        <time>2010-06-13T09:56:18Z</time>
      </trkpt>
      <trkpt lat="48.72905" lon="7.23918">
        <ele>340.383179</ele>
        <time>2010-06-13T09:56:24Z</time>
      </trkpt>
      <trkpt lat="48.72897" lon="7.23948">
        <ele>342.586304</ele>
        <time>2010-06-13T09:56:28Z</time>
      </trkpt>
      <trkpt lat="48.72892" lon="7.23977">
        <ele>345.344116</ele>
        <time>2010-06-13T09:56:32Z</time>
      </trkpt>
      <trkpt lat="48.72894" lon="7.24006">
        <ele>344.047241</ele>
        <time>2010-06-13T09:56:35Z</time>
      </trkpt>
      <trkpt lat="48.72893" lon="7.24043">
        <ele>335.422241</ele>
        <time>2010-06-13T09:56:38Z</time>
      </trkpt>
      <trkpt lat="48.72894" lon="7.24075">
        <ele>329.195679</ele>
        <time>2010-06-13T09:56:40Z</time>
      </trkpt>
      <trkpt lat="48.72896" lon="7.24106">
        <ele>320.890991</ele>
        <time>2010-06-13T09:56:42Z</time>
      </trkpt>
      <trkpt lat="48.72898" lon="7.24138">
        <ele>319.273804</ele>
        <time>2010-06-13T09:56:45Z</time>
      </trkpt>
      <trkpt lat="48.72902" lon="7.24175">
        <ele>311.375366</ele>
        <time>2010-06-13T09:56:48Z</time>
      </trkpt>
      <trkpt lat="48.72908" lon="7.24211">
        <ele>307.953491</ele>
        <time>2010-06-13T09:56:51Z</time>
      </trkpt>
      <trkpt lat="48.72916" lon="7.24246">
        <ele>304.883179</ele>
        <time>2010-06-13T09:56:54Z</time>
      </trkpt>
      <trkpt lat="48.72925" lon="7.24278">
        <ele>300.953491</ele>
        <time>2010-06-13T09:56:57Z</time>
      </trkpt>
      <trkpt lat="48.72935" lon="7.2431">
        <ele>298.578491</ele>
        <time>2010-06-13T09:57:00Z</time>
      </trkpt>
      <trkpt lat="48.72945" lon="7.24339">
        <ele>297.070679</ele>
        <time>2010-06-13T09:57:03Z</time>
      </trkpt>
      <trkpt lat="48.72955" lon="7.24369">
        <ele>294.148804</ele>
        <time>2010-06-13T09:57:06Z</time>
      </trkpt>
      <trkpt lat="48.72965" lon="7.24405">
        <ele>292.023804</ele>
        <time>2010-06-13T09:57:09Z</time>
      </trkpt>
      <trkpt lat="48.7298" lon="7.24437">
        <ele>290.062866</ele>
        <time>2010-06-13T09:57:12Z</time>
      </trkpt>
      <trkpt lat="48.72987" lon="7.24462">
        <ele>289.453491</ele>
        <time>2010-06-13T09:57:14Z</time>
      </trkpt>
      <trkpt lat="48.73002" lon="7.24486">
        <ele>285.562866</ele>
        <time>2010-06-13T09:57:16Z</time>
      </trkpt>
      <trkpt lat="48.73013" lon="7.24512">
        <ele>284.047241</ele>
        <time>2010-06-13T09:57:18Z</time>
      </trkpt>
      <trkpt lat="48.7302" lon="7.24541">
        <ele>280.625366</ele>
        <time>2010-06-13T09:57:20Z</time>
      </trkpt>
      <trkpt lat="48.73029" lon="7.24573">
        <ele>277.211304</ele>
        <time>2010-06-13T09:57:23Z</time>
      </trkpt>
      <trkpt lat="48.73035" lon="7.24601">
        <ele>275.195679</ele>
        <time>2010-06-13T09:57:26Z</time>
      </trkpt>
      <trkpt lat="48.73041" lon="7.24636">
        <ele>275.578491</ele>
        <time>2010-06-13T09:57:29Z</time>
      </trkpt>
      <trkpt lat="48.73045" lon="7.24665">
        <ele>274.758179</ele>
        <time>2010-06-13T09:57:31Z</time>
      </trkpt>
      <trkpt lat="48.73044" lon="7.24695">
        <ele>274.226929</ele>
        <time>2010-06-13T09:57:33Z</time>
      </trkpt>
      <trkpt lat="48.73047" lon="7.24722">
        <ele>272.375366</ele>
        <time>2010-06-13T09:57:35Z</time>
      </trkpt>
      <trkpt lat="48.73048" lon="7.24755">
        <ele>271.633179</ele>
        <time>2010-06-13T09:57:37Z</time>
      </trkpt>
      <trkpt lat="48.73051" lon="7.2479">
        <ele>266.187866</ele>
        <time>2010-06-13T09:57:40Z</time>
      </trkpt>
      <trkpt lat="48.73059" lon="7.24814">
        <ele>261.789429</ele>
        <time>2010-06-13T09:57:46Z</time>
      </trkpt>
      <trkpt lat="48.73074" lon="7.24827">
        <ele>267.922241</ele>
        <time>2010-06-13T09:57:57Z</time>
      </trkpt>
      <trkpt lat="48.73093" lon="7.24844">
        <ele>271.211304</ele>
        <time>2010-06-13T09:58:02Z</time>
      </trkpt>
      <trkpt lat="48.73114" lon="7.24857">
        <ele>270.445679</ele>
        <time>2010-06-13T09:58:06Z</time>
      </trkpt>
      <trkpt lat="48.73114" lon="7.24889">
        <ele>274.687866</ele>
        <time>2010-06-13T09:58:13Z</time>
      </trkpt>
      <trkpt lat="48.73113" lon="7.24918">
        <ele>271.820679</ele>
        <time>2010-06-13T09:58:16Z</time>
      </trkpt>
      <trkpt lat="48.73126" lon="7.24942">
        <ele>262.125366</ele>
        <time>2010-06-13T09:58:20Z</time>
      </trkpt>
      <trkpt lat="48.73145" lon="7.24953">
        <ele>255.054871</ele>
        <time>2010-06-13T09:58:23Z</time>
      </trkpt>
      <trkpt lat="48.73164" lon="7.24959">
        <ele>248.300964</ele>
        <time>2010-06-13T09:58:26Z</time>
      </trkpt>
      <trkpt lat="48.73182" lon="7.24956">
        <ele>244.019714</ele>
        <time>2010-06-13T09:58:30Z</time>
      </trkpt>
      <trkpt lat="48.73204" lon="7.24947">
        <ele>240.851746</ele>
        <time>2010-06-13T09:58:36Z</time>
      </trkpt>
      <trkpt lat="48.73223" lon="7.2494">
        <ele>241.445496</ele>
        <time>2010-06-13T09:58:39Z</time>
      </trkpt>
      <trkpt lat="48.7324" lon="7.24924">
        <ele>237.699402</ele>
        <time>2010-06-13T09:58:43Z</time>
      </trkpt>
      <trkpt lat="48.73244" lon="7.24891">
        <ele>233.718933</ele>
        <time>2010-06-13T09:58:48Z</time>
      </trkpt>
      <trkpt lat="48.73247" lon="7.24859">
        <ele>229.965027</ele>
        <time>2010-06-13T09:58:51Z</time>
      </trkpt>
      <trkpt lat="48.7325" lon="7.24829">
        <ele>226.632996</ele>
        <time>2010-06-13T09:58:54Z</time>
      </trkpt>
      <trkpt lat="48.73259" lon="7.24806">
        <ele>223.363464</ele>
        <time>2010-06-13T09:58:58Z</time>
      </trkpt>
      <trkpt lat="48.73249" lon="7.2483">
        <ele>219.492371</ele>
        <time>2010-06-13T09:59:29Z</time>
      </trkpt>
      <trkpt lat="48.73254" lon="7.24857">
        <ele>217.629089</ele>
        <time>2010-06-13T09:59:39Z</time>
      </trkpt>
      <trkpt lat="48.73257" lon="7.24887">
        <ele>218.105652</ele>
        <time>2010-06-13T09:59:46Z</time>
      </trkpt>
      <trkpt lat="48.73267" lon="7.24913">
        <ele>214.543152</ele>
        <time>2010-06-13T09:59:53Z</time>
      </trkpt>
      <trkpt lat="48.73286" lon="7.24916">
        <ele>211.191589</ele>
        <time>2010-06-13T10:00:00Z</time>
      </trkpt>
      <trkpt lat="48.73306" lon="7.24911">
        <ele>212.570496</ele>
        <time>2010-06-13T10:00:07Z</time>
      </trkpt>
      <trkpt lat="48.73324" lon="7.24904">
        <ele>213.375183</ele>
        <time>2010-06-13T10:00:14Z</time>
      </trkpt>
      <trkpt lat="48.73345" lon="7.24907">
        <ele>214.242371</ele>
        <time>2010-06-13T10:00:21Z</time>
      </trkpt>
      <trkpt lat="48.73363" lon="7.24916">
        <ele>215.742371</ele>
        <time>2010-06-13T10:00:27Z</time>
      </trkpt>
      <trkpt lat="48.73381" lon="7.24924">
        <ele>218.019714</ele>
        <time>2010-06-13T10:00:33Z</time>
      </trkpt>
      <trkpt lat="48.734" lon="7.24929">
        <ele>217.382996</ele>
        <time>2010-06-13T10:00:37Z</time>
      </trkpt>
      <trkpt lat="48.7342" lon="7.24944">
        <ele>217.644714</ele>
        <time>2010-06-13T10:00:43Z</time>
      </trkpt>
      <trkpt lat="48.73436" lon="7.24962">
        <ele>216.847839</ele>
        <time>2010-06-13T10:00:48Z</time>
      </trkpt>
      <trkpt lat="48.73449" lon="7.24982">
        <ele>217.937683</ele>
        <time>2010-06-13T10:00:53Z</time>
      </trkpt>
      <trkpt lat="48.73461" lon="7.25005">
        <ele>218.347839</ele>
        <time>2010-06-13T10:00:58Z</time>
      </trkpt>
      <trkpt lat="48.73472" lon="7.25029">
        <ele>218.500183</ele>
        <time>2010-06-13T10:01:03Z</time>
      </trkpt>
      <trkpt lat="48.73484" lon="7.25051">
        <ele>219.511902</ele>
        <time>2010-06-13T10:01:08Z</time>
      </trkpt>
      <trkpt lat="48.73496" lon="7.25075">
        <ele>220.148621</ele>
        <time>2010-06-13T10:01:14Z</time>
      </trkpt>
      <trkpt lat="48.73497" lon="7.25103">
        <ele>222.023621</ele>
        <time>2010-06-13T10:01:39Z</time>
      </trkpt>
      <trkpt lat="48.73493" lon="7.25128">
        <ele>214.558777</ele>
        <time>2010-06-13T10:02:34Z</time>
      </trkpt>
      <trkpt lat="48.73508" lon="7.25145">
        <ele>214.429871</ele>
        <time>2010-06-13T10:04:49Z</time>
      </trkpt>
      <trkpt lat="48.73513" lon="7.25172">
        <ele>216.539246</ele>
        <time>2010-06-13T10:04:59Z</time>
      </trkpt>
      <trkpt lat="48.73531" lon="7.2518">
        <ele>216.707214</ele>
        <time>2010-06-13T10:05:24Z</time>
      </trkpt>
      <trkpt lat="48.7352" lon="7.25206">
        <ele>218.070496</ele>
        <time>2010-06-13T10:06:20Z</time>
      </trkpt>
      <trkpt lat="48.73523" lon="7.25235">
        <ele>224.730652</ele>
        <time>2010-06-13T10:07:36Z</time>
      </trkpt>
      <trkpt lat="48.73533" lon="7.25259">
        <ele>229.879089</ele>
        <time>2010-06-13T10:07:44Z</time>
      </trkpt>
      <trkpt lat="48.73525" lon="7.25287">
        <ele>231.437683</ele>
        <time>2010-06-13T10:07:47Z</time>
      </trkpt>
      <trkpt lat="48.73523" lon="7.25316">
        <ele>233.918152</ele>
        <time>2010-06-13T10:07:52Z</time>
      </trkpt>
      <trkpt lat="48.73521" lon="7.25344">
        <ele>238.160339</ele>
        <time>2010-06-13T10:07:57Z</time>
      </trkpt>
      <trkpt lat="48.73523" lon="7.25377">
        <ele>240.316589</ele>
        <time>2010-06-13T10:08:02Z</time>
      </trkpt>
      <trkpt lat="48.73525" lon="7.25409">
        <ele>239.097839</ele>
        <time>2010-06-13T10:08:07Z</time>
      </trkpt>
      <trkpt lat="48.73526" lon="7.25437">
        <ele>237.867371</ele>
        <time>2010-06-13T10:08:11Z</time>
      </trkpt>
      <trkpt lat="48.7353" lon="7.25465">
        <ele>233.129089</ele>
        <time>2010-06-13T10:08:15Z</time>
      </trkpt>
      <trkpt lat="48.73532" lon="7.25498">
        <ele>231.480652</ele>
        <time>2010-06-13T10:08:20Z</time>
      </trkpt>
      <trkpt lat="48.73536" lon="7.25526">
        <ele>229.957214</ele>
        <time>2010-06-13T10:08:25Z</time>
      </trkpt>
      <trkpt lat="48.7354" lon="7.25553">
        <ele>229.004089</ele>
        <time>2010-06-13T10:08:30Z</time>
      </trkpt>
      <trkpt lat="48.73543" lon="7.25581">
        <ele>228.711121</ele>
        <time>2010-06-13T10:08:34Z</time>
      </trkpt>
      <trkpt lat="48.7355" lon="7.25606">
        <ele>227.976746</ele>
        <time>2010-06-13T10:08:39Z</time>
      </trkpt>
      <trkpt lat="48.73557" lon="7.25636">
        <ele>228.203308</ele>
        <time>2010-06-13T10:08:44Z</time>
      </trkpt>
      <trkpt lat="48.7355" lon="7.25668">
        <ele>228.129089</ele>
        <time>2010-06-13T10:08:48Z</time>
      </trkpt>
      <trkpt lat="48.73553" lon="7.257">
        <ele>228.273621</ele>
        <time>2010-06-13T10:08:52Z</time>
      </trkpt>
      <trkpt lat="48.73557" lon="7.25732">
        <ele>228.359558</ele>
        <time>2010-06-13T10:08:57Z</time>
      </trkpt>
      <trkpt lat="48.73566" lon="7.25757">
        <ele>228.785339</ele>
        <time>2010-06-13T10:09:02Z</time>
      </trkpt>
      <trkpt lat="48.73567" lon="7.25788">
        <ele>228.144714</ele>
        <time>2010-06-13T10:09:06Z</time>
      </trkpt>
      <trkpt lat="48.73572" lon="7.25817">
        <ele>226.332214</ele>
        <time>2010-06-13T10:09:10Z</time>
      </trkpt>
      <trkpt lat="48.73571" lon="7.25846">
        <ele>225.597839</ele>
        <time>2010-06-13T10:09:14Z</time>
      </trkpt>
      <trkpt lat="48.73581" lon="7.25871">
        <ele>226.625183</ele>
        <time>2010-06-13T10:09:19Z</time>
      </trkpt>
      <trkpt lat="48.73602" lon="7.25876">
        <ele>218.640808</ele>
        <time>2010-06-13T10:09:24Z</time>
      </trkpt>
      <trkpt lat="48.7362" lon="7.25871">
        <ele>214.988464</ele>
        <time>2010-06-13T10:09:28Z</time>
      </trkpt>
      <trkpt lat="48.73634" lon="7.25889">
        <ele>213.855652</ele>
        <time>2010-06-13T10:09:35Z</time>
      </trkpt>
      <trkpt lat="48.73647" lon="7.25913">
        <ele>213.718933</ele>
        <time>2010-06-13T10:09:41Z</time>
      </trkpt>
      <trkpt lat="48.73658" lon="7.25935">
        <ele>213.687683</ele>
        <time>2010-06-13T10:09:46Z</time>
      </trkpt>
      <trkpt lat="48.73672" lon="7.25959">
        <ele>214.093933</ele>
        <time>2010-06-13T10:09:52Z</time>
      </trkpt>
      <trkpt lat="48.73687" lon="7.2598">
        <ele>214.769714</ele>
        <time>2010-06-13T10:09:58Z</time>
      </trkpt>
      <trkpt lat="48.73702" lon="7.26">
        <ele>214.605652</ele>
        <time>2010-06-13T10:10:03Z</time>
      </trkpt>
      <trkpt lat="48.73718" lon="7.26021">
        <ele>213.781433</ele>
        <time>2010-06-13T10:10:08Z</time>
      </trkpt>
      <trkpt lat="48.73734" lon="7.26044">
        <ele>213.711121</ele>
        <time>2010-06-13T10:10:13Z</time>
      </trkpt>
      <trkpt lat="48.73751" lon="7.26063">
        <ele>215.011902</ele>
        <time>2010-06-13T10:10:18Z</time>
      </trkpt>
      <trkpt lat="48.73766" lon="7.26086">
        <ele>214.711121</ele>
        <time>2010-06-13T10:10:23Z</time>
      </trkpt>
      <trkpt lat="48.73781" lon="7.26108">
        <ele>215.312683</ele>
        <time>2010-06-13T10:10:28Z</time>
      </trkpt>
      <trkpt lat="48.73798" lon="7.26125">
        <ele>216.672058</ele>
        <time>2010-06-13T10:10:33Z</time>
      </trkpt>
      <trkpt lat="48.73816" lon="7.26139">
        <ele>218.992371</ele>
        <time>2010-06-13T10:10:38Z</time>
      </trkpt>
      <trkpt lat="48.7383" lon="7.26161">
        <ele>220.129089</ele>
        <time>2010-06-13T10:10:44Z</time>
      </trkpt>
      <trkpt lat="48.73844" lon="7.26181">
        <ele>218.058777</ele>
        <time>2010-06-13T10:10:51Z</time>
      </trkpt>
      <trkpt lat="48.73858" lon="7.262">
        <ele>219.535339</ele>
        <time>2010-06-13T10:10:59Z</time>
      </trkpt>
      <trkpt lat="48.73871" lon="7.26221">
        <ele>223.961121</ele>
        <time>2010-06-13T10:11:14Z</time>
      </trkpt>
      <trkpt lat="48.7388" lon="7.26243">
        <ele>230.289246</ele>
        <time>2010-06-13T10:11:31Z</time>
      </trkpt>
      <trkpt lat="48.73882" lon="7.2627">
        <ele>237.152527</ele>
        <time>2010-06-13T10:11:44Z</time>
      </trkpt>
      <trkpt lat="48.73889" lon="7.26294">
        <ele>246.242371</ele>
        <time>2010-06-13T10:11:58Z</time>
      </trkpt>
      <trkpt lat="48.7389" lon="7.26323">
        <ele>252.281433</ele>
        <time>2010-06-13T10:12:08Z</time>
      </trkpt>
      <trkpt lat="48.73893" lon="7.26349">
        <ele>260.140991</ele>
        <time>2010-06-13T10:12:20Z</time>
      </trkpt>
      <trkpt lat="48.73888" lon="7.26376">
        <ele>266.672241</ele>
        <time>2010-06-13T10:12:32Z</time>
      </trkpt>
      <trkpt lat="48.73888" lon="7.26402">
        <ele>275.101929</ele>
        <time>2010-06-13T10:12:45Z</time>
      </trkpt>
      <trkpt lat="48.73891" lon="7.2643">
        <ele>280.617554</ele>
        <time>2010-06-13T10:12:56Z</time>
      </trkpt>
      <trkpt lat="48.73893" lon="7.26459">
        <ele>283.617554</ele>
        <time>2010-06-13T10:13:05Z</time>
      </trkpt>
      <trkpt lat="48.73894" lon="7.26488">
        <ele>287.383179</ele>
        <time>2010-06-13T10:13:22Z</time>
      </trkpt>
      <trkpt lat="48.73888" lon="7.26514">
        <ele>289.390991</ele>
        <time>2010-06-13T10:13:29Z</time>
      </trkpt>
      <trkpt lat="48.73885" lon="7.26541">
        <ele>292.180054</ele>
        <time>2010-06-13T10:13:42Z</time>
      </trkpt>
      <trkpt lat="48.73877" lon="7.26568">
        <ele>293.234741</ele>
        <time>2010-06-13T10:13:53Z</time>
      </trkpt>
      <trkpt lat="48.73875" lon="7.26598">
        <ele>292.672241</ele>
        <time>2010-06-13T10:14:04Z</time>
      </trkpt>
      <trkpt lat="48.7387" lon="7.26625">
        <ele>292.890991</ele>
        <time>2010-06-13T10:14:16Z</time>
      </trkpt>
      <trkpt lat="48.7387" lon="7.26654">
        <ele>288.976929</ele>
        <time>2010-06-13T10:14:28Z</time>
      </trkpt>
      <trkpt lat="48.73867" lon="7.26682">
        <ele>286.492554</ele>
        <time>2010-06-13T10:14:43Z</time>
      </trkpt>
      <trkpt lat="48.73872" lon="7.26708">
        <ele>282.680054</ele>
        <time>2010-06-13T10:14:57Z</time>
      </trkpt>
      <trkpt lat="48.73869" lon="7.26737">
        <ele>281.890991</ele>
        <time>2010-06-13T10:15:08Z</time>
      </trkpt>
      <trkpt lat="48.73872" lon="7.26765">
        <ele>282.586304</ele>
        <time>2010-06-13T10:15:23Z</time>
      </trkpt>
      <trkpt lat="48.7387" lon="7.26794">
        <ele>282.359741</ele>
        <time>2010-06-13T10:15:34Z</time>
      </trkpt>
      <trkpt lat="48.73874" lon="7.26821">
        <ele>281.453491</ele>
        <time>2010-06-13T10:15:43Z</time>
      </trkpt>
      <trkpt lat="48.73877" lon="7.26848">
        <ele>278.258179</ele>
        <time>2010-06-13T10:15:57Z</time>
      </trkpt>
      <trkpt lat="48.73882" lon="7.26874">
        <ele>276.922241</ele>
        <time>2010-06-13T10:16:08Z</time>
      </trkpt>
      <trkpt lat="48.73886" lon="7.26901">
        <ele>276.789429</ele>
        <time>2010-06-13T10:16:21Z</time>
      </trkpt>
      <trkpt lat="48.73893" lon="7.26928">
        <ele>275.492554</ele>
        <time>2010-06-13T10:16:33Z</time>
      </trkpt>
      <trkpt lat="48.739" lon="7.26954">
        <ele>274.164429</ele>
        <time>2010-06-13T10:16:46Z</time>
      </trkpt>
      <trkpt lat="48.73914" lon="7.26978">
        <ele>272.414429</ele>
        <time>2010-06-13T10:17:00Z</time>
      </trkpt>
      <trkpt lat="48.73927" lon="7.26999">
        <ele>273.180054</ele>
        <time>2010-06-13T10:17:14Z</time>
      </trkpt>
      <trkpt lat="48.73932" lon="7.27026">
        <ele>275.703491</ele>
        <time>2010-06-13T10:17:29Z</time>
      </trkpt>
      <trkpt lat="48.73945" lon="7.27045">
        <ele>278.133179</ele>
        <time>2010-06-13T10:17:44Z</time>
      </trkpt>
      <trkpt lat="48.73941" lon="7.2707">
        <ele>287.140991</ele>
        <time>2010-06-13T10:18:10Z</time>
      </trkpt>
      <trkpt lat="48.73945" lon="7.27097">
        <ele>291.484741</ele>
        <time>2010-06-13T10:18:27Z</time>
      </trkpt>
      <trkpt lat="48.73938" lon="7.27124">
        <ele>294.883179</ele>
        <time>2010-06-13T10:18:41Z</time>
      </trkpt>
      <trkpt lat="48.73931" lon="7.27151">
        <ele>297.328491</ele>
        <time>2010-06-13T10:18:57Z</time>
      </trkpt>
      <trkpt lat="48.7393" lon="7.27179">
        <ele>300.539429</ele>
        <time>2010-06-13T10:19:12Z</time>
      </trkpt>
      <trkpt lat="48.73928" lon="7.27206">
        <ele>303.750366</ele>
        <time>2010-06-13T10:19:32Z</time>
      </trkpt>
      <trkpt lat="48.73928" lon="7.27234">
        <ele>304.180054</ele>
        <time>2010-06-13T10:19:45Z</time>
      </trkpt>
      <trkpt lat="48.73926" lon="7.27262">
        <ele>302.851929</ele>
        <time>2010-06-13T10:20:08Z</time>
      </trkpt>
      <trkpt lat="48.7394" lon="7.27277">
        <ele>297.422241</ele>
        <time>2010-06-13T10:20:28Z</time>
      </trkpt>
      <trkpt lat="48.73947" lon="7.27253">
        <ele>290.078491</ele>
        <time>2010-06-13T10:24:42Z</time>
      </trkpt>
      <trkpt lat="48.73948" lon="7.27225">
        <ele>292.953491</ele>
        <time>2010-06-13T10:24:54Z</time>
      </trkpt>
      <trkpt lat="48.73955" lon="7.272">
        <ele>294.609741</ele>
        <time>2010-06-13T10:25:04Z</time>
      </trkpt>
      <trkpt lat="48.73964" lon="7.27176">
        <ele>297.351929</ele>
        <time>2010-06-13T10:25:11Z</time>
      </trkpt>
      <trkpt lat="48.7397" lon="7.27148">
        <ele>301.437866</ele>
        <time>2010-06-13T10:25:18Z</time>
      </trkpt>
      <trkpt lat="48.73974" lon="7.27119">
        <ele>305.734741</ele>
        <time>2010-06-13T10:25:28Z</time>
      </trkpt>
      <trkpt lat="48.73979" lon="7.27092">
        <ele>310.437866</ele>
        <time>2010-06-13T10:25:36Z</time>
      </trkpt>
      <trkpt lat="48.73968" lon="7.2707">
        <ele>314.672241</ele>
        <time>2010-06-13T10:25:47Z</time>
      </trkpt>
      <trkpt lat="48.73956" lon="7.27049">
        <ele>317.734741</ele>
        <time>2010-06-13T10:25:57Z</time>
      </trkpt>
      <trkpt lat="48.7395" lon="7.27021">
        <ele>320.359741</ele>
        <time>2010-06-13T10:26:08Z</time>
      </trkpt>
      <trkpt lat="48.73952" lon="7.2699">
        <ele>320.586304</ele>
        <time>2010-06-13T10:26:14Z</time>
      </trkpt>
      <trkpt lat="48.73957" lon="7.26963">
        <ele>322.758179</ele>
        <time>2010-06-13T10:26:27Z</time>
      </trkpt>
      <trkpt lat="48.73952" lon="7.26936">
        <ele>323.297241</ele>
        <time>2010-06-13T10:26:41Z</time>
      </trkpt>
      <trkpt lat="48.73953" lon="7.26908">
        <ele>322.156616</ele>
        <time>2010-06-13T10:26:51Z</time>
      </trkpt>
      <trkpt lat="48.73952" lon="7.2688">
        <ele>320.484741</ele>
        <time>2010-06-13T10:26:58Z</time>
      </trkpt>
      <trkpt lat="48.73956" lon="7.26852">
        <ele>319.961304</ele>
        <time>2010-06-13T10:27:06Z</time>
      </trkpt>
      <trkpt lat="48.73961" lon="7.26824">
        <ele>320.265991</ele>
        <time>2010-06-13T10:27:14Z</time>
      </trkpt>
      <trkpt lat="48.73961" lon="7.26796">
        <ele>321.117554</ele>
        <time>2010-06-13T10:27:19Z</time>
      </trkpt>
      <trkpt lat="48.7396" lon="7.26768">
        <ele>318.984741</ele>
        <time>2010-06-13T10:27:26Z</time>
      </trkpt>
      <trkpt lat="48.73961" lon="7.26736">
        <ele>317.219116</ele>
        <time>2010-06-13T10:27:33Z</time>
      </trkpt>
      <trkpt lat="48.73963" lon="7.26705">
        <ele>314.945679</ele>
        <time>2010-06-13T10:27:38Z</time>
      </trkpt>
      <trkpt lat="48.73968" lon="7.26676">
        <ele>315.047241</ele>
        <time>2010-06-13T10:27:44Z</time>
      </trkpt>
      <trkpt lat="48.73977" lon="7.2665">
        <ele>316.703491</ele>
        <time>2010-06-13T10:27:52Z</time>
      </trkpt>
      <trkpt lat="48.73982" lon="7.26623">
        <ele>316.531616</ele>
        <time>2010-06-13T10:27:59Z</time>
      </trkpt>
      <trkpt lat="48.73987" lon="7.26594">
        <ele>317.547241</ele>
        <time>2010-06-13T10:28:06Z</time>
      </trkpt>
      <trkpt lat="48.74001" lon="7.26576">
        <ele>314.422241</ele>
        <time>2010-06-13T10:28:28Z</time>
      </trkpt>
      <trkpt lat="48.74007" lon="7.26547">
        <ele>312.594116</ele>
        <time>2010-06-13T10:28:43Z</time>
      </trkpt>
      <trkpt lat="48.74012" lon="7.26519">
        <ele>310.805054</ele>
        <time>2010-06-13T10:28:53Z</time>
      </trkpt>
      <trkpt lat="48.74015" lon="7.26492">
        <ele>309.422241</ele>
        <time>2010-06-13T10:28:59Z</time>
      </trkpt>
      <trkpt lat="48.74019" lon="7.26465">
        <ele>308.195679</ele>
        <time>2010-06-13T10:29:04Z</time>
      </trkpt>
      <trkpt lat="48.74021" lon="7.26436">
        <ele>307.914429</ele>
        <time>2010-06-13T10:29:12Z</time>
      </trkpt>
      <trkpt lat="48.74027" lon="7.26408">
        <ele>308.234741</ele>
        <time>2010-06-13T10:29:20Z</time>
      </trkpt>
      <trkpt lat="48.74027" lon="7.26379">
        <ele>309.234741</ele>
        <time>2010-06-13T10:29:29Z</time>
      </trkpt>
      <trkpt lat="48.74033" lon="7.26352">
        <ele>313.031616</ele>
        <time>2010-06-13T10:29:36Z</time>
      </trkpt>
      <trkpt lat="48.74031" lon="7.26325">
        <ele>314.812866</ele>
        <time>2010-06-13T10:29:41Z</time>
      </trkpt>
      <trkpt lat="48.74032" lon="7.26297">
        <ele>314.140991</ele>
        <time>2010-06-13T10:29:46Z</time>
      </trkpt>
      <trkpt lat="48.74035" lon="7.26266">
        <ele>313.742554</ele>
        <time>2010-06-13T10:29:51Z</time>
      </trkpt>
      <trkpt lat="48.74034" lon="7.26237">
        <ele>315.148804</ele>
        <time>2010-06-13T10:30:02Z</time>
      </trkpt>
      <trkpt lat="48.74025" lon="7.26213">
        <ele>318.765991</ele>
        <time>2010-06-13T10:30:15Z</time>
      </trkpt>
      <trkpt lat="48.7401" lon="7.26192">
        <ele>322.430054</ele>
        <time>2010-06-13T10:30:21Z</time>
      </trkpt>
      <trkpt lat="48.73998" lon="7.2617">
        <ele>325.531616</ele>
        <time>2010-06-13T10:30:27Z</time>
      </trkpt>
      <trkpt lat="48.73985" lon="7.2615">
        <ele>331.226929</ele>
        <time>2010-06-13T10:30:32Z</time>
      </trkpt>
      <trkpt lat="48.7397" lon="7.26132">
        <ele>337.453491</ele>
        <time>2010-06-13T10:30:39Z</time>
      </trkpt>
      <trkpt lat="48.7396" lon="7.2611">
        <ele>342.875366</ele>
        <time>2010-06-13T10:31:06Z</time>
      </trkpt>
      <trkpt lat="48.73952" lon="7.26085">
        <ele>343.531616</ele>
        <time>2010-06-13T10:31:20Z</time>
      </trkpt>
      <trkpt lat="48.73944" lon="7.26059">
        <ele>342.109741</ele>
        <time>2010-06-13T10:31:33Z</time>
      </trkpt>
      <trkpt lat="48.73935" lon="7.26034">
        <ele>335.867554</ele>
        <time>2010-06-13T10:31:46Z</time>
      </trkpt>
      <trkpt lat="48.73926" lon="7.26011">
        <ele>328.640991</ele>
        <time>2010-06-13T10:32:06Z</time>
      </trkpt>
      <trkpt lat="48.73916" lon="7.25987">
        <ele>325.945679</ele>
        <time>2010-06-13T10:32:34Z</time>
      </trkpt>
      <trkpt lat="48.73899" lon="7.25977">
        <ele>328.515991</ele>
        <time>2010-06-13T10:32:52Z</time>
      </trkpt>
      <trkpt lat="48.73889" lon="7.25951">
        <ele>329.187866</ele>
        <time>2010-06-13T10:33:05Z</time>
      </trkpt>
      <trkpt lat="48.73896" lon="7.25926">
        <ele>329.656616</ele>
        <time>2010-06-13T10:33:56Z</time>
      </trkpt>
      <trkpt lat="48.73877" lon="7.25934">
        <ele>326.805054</ele>
        <time>2010-06-13T10:35:09Z</time>
      </trkpt>
      <trkpt lat="48.73867" lon="7.25917">
        <ele>314.969116</ele>
        <time>2010-06-13T10:37:22Z</time>
      </trkpt>
      <trkpt lat="48.73855" lon="7.25897">
        <ele>313.805054</ele>
        <time>2010-06-13T10:37:33Z</time>
      </trkpt>
      <trkpt lat="48.73839" lon="7.25881">
        <ele>314.742554</ele>
        <time>2010-06-13T10:37:41Z</time>
      </trkpt>
      <trkpt lat="48.73822" lon="7.25868">
        <ele>316.172241</ele>
        <time>2010-06-13T10:37:50Z</time>
      </trkpt>
      <trkpt lat="48.73805" lon="7.25854">
        <ele>318.023804</ele>
        <time>2010-06-13T10:38:00Z</time>
      </trkpt>
      <trkpt lat="48.73787" lon="7.25844">
        <ele>319.703491</ele>
        <time>2010-06-13T10:38:08Z</time>
      </trkpt>
      <trkpt lat="48.7377" lon="7.2583">
        <ele>321.797241</ele>
        <time>2010-06-13T10:38:16Z</time>
      </trkpt>
      <trkpt lat="48.73756" lon="7.25808">
        <ele>322.625366</ele>
        <time>2010-06-13T10:38:25Z</time>
      </trkpt>
      <trkpt lat="48.73743" lon="7.25787">
        <ele>323.734741</ele>
        <time>2010-06-13T10:38:33Z</time>
      </trkpt>
      <trkpt lat="48.73731" lon="7.25766">
        <ele>323.859741</ele>
        <time>2010-06-13T10:38:38Z</time>
      </trkpt>
      <trkpt lat="48.73726" lon="7.25738">
        <ele>328.187866</ele>
        <time>2010-06-13T10:38:42Z</time>
      </trkpt>
      <trkpt lat="48.73733" lon="7.25711">
        <ele>333.414429</ele>
        <time>2010-06-13T10:38:47Z</time>
      </trkpt>
      <trkpt lat="48.73736" lon="7.25681">
        <ele>334.305054</ele>
        <time>2010-06-13T10:38:53Z</time>
      </trkpt>
      <trkpt lat="48.73742" lon="7.25651">
        <ele>330.781616</ele>
        <time>2010-06-13T10:38:59Z</time>
      </trkpt>
      <trkpt lat="48.73742" lon="7.25622">
        <ele>329.867554</ele>
        <time>2010-06-13T10:39:07Z</time>
      </trkpt>
      <trkpt lat="48.73751" lon="7.25598">
        <ele>326.445679</ele>
        <time>2010-06-13T10:39:16Z</time>
      </trkpt>
      <trkpt lat="48.73768" lon="7.2559">
        <ele>331.461304</ele>
        <time>2010-06-13T10:39:41Z</time>
      </trkpt>
      <trkpt lat="48.73787" lon="7.25583">
        <ele>332.078491</ele>
        <time>2010-06-13T10:39:51Z</time>
      </trkpt>
      <trkpt lat="48.73807" lon="7.25583">
        <ele>331.047241</ele>
        <time>2010-06-13T10:40:09Z</time>
      </trkpt>
      <trkpt lat="48.73824" lon="7.2559">
        <ele>323.695679</ele>
        <time>2010-06-13T10:40:25Z</time>
      </trkpt>
      <trkpt lat="48.73842" lon="7.25592">
        <ele>324.039429</ele>
        <time>2010-06-13T10:40:48Z</time>
      </trkpt>
      <trkpt lat="48.73859" lon="7.25593">
        <ele>332.359741</ele>
        <time>2010-06-13T10:41:13Z</time>
      </trkpt>
      <trkpt lat="48.73877" lon="7.256">
        <ele>334.547241</ele>
        <time>2010-06-13T10:41:32Z</time>
      </trkpt>
      <trkpt lat="48.73895" lon="7.25605">
        <ele>335.687866</ele>
        <time>2010-06-13T10:41:44Z</time>
      </trkpt>
      <trkpt lat="48.73881" lon="7.25621">
        <ele>341.476929</ele>
        <time>2010-06-13T10:42:03Z</time>
      </trkpt>
      <trkpt lat="48.73864" lon="7.25633">
        <ele>350.344116</ele>
        <time>2010-06-13T10:42:11Z</time>
      </trkpt>
      <trkpt lat="48.73846" lon="7.25644">
        <ele>352.289429</ele>
        <time>2010-06-13T10:42:15Z</time>
      </trkpt>
      <trkpt lat="48.73856" lon="7.25659">
        <ele>338.984741</ele>
        <time>2010-06-13T10:42:31Z</time>
      </trkpt>
      <trkpt lat="48.73874" lon="7.25671">
        <ele>335.101929</ele>
        <time>2010-06-13T10:42:49Z</time>
      </trkpt>
      <trkpt lat="48.7389" lon="7.25685">
        <ele>333.523804</ele>
        <time>2010-06-13T10:43:01Z</time>
      </trkpt>
      <trkpt lat="48.73908" lon="7.25687">
        <ele>332.555054</ele>
        <time>2010-06-13T10:43:12Z</time>
      </trkpt>
      <trkpt lat="48.73926" lon="7.25688">
        <ele>338.523804</ele>
        <time>2010-06-13T10:43:29Z</time>
      </trkpt>
      <trkpt lat="48.73943" lon="7.25701">
        <ele>338.601929</ele>
        <time>2010-06-13T10:43:41Z</time>
      </trkpt>
      <trkpt lat="48.7396" lon="7.2571">
        <ele>337.875366</ele>
        <time>2010-06-13T10:43:51Z</time>
      </trkpt>
      <trkpt lat="48.73978" lon="7.25719">
        <ele>335.125366</ele>
        <time>2010-06-13T10:44:14Z</time>
      </trkpt>
      <trkpt lat="48.73996" lon="7.25721">
        <ele>340.594116</ele>
        <time>2010-06-13T10:44:28Z</time>
      </trkpt>
      <trkpt lat="48.74011" lon="7.25732">
        <ele>347.789429</ele>
        <time>2010-06-13T10:44:44Z</time>
      </trkpt>
      <trkpt lat="48.74029" lon="7.25737">
        <ele>351.414429</ele>
        <time>2010-06-13T10:45:03Z</time>
      </trkpt>
      <trkpt lat="48.74048" lon="7.25735">
        <ele>354.328491</ele>
        <time>2010-06-13T10:45:23Z</time>
      </trkpt>
      <trkpt lat="48.74066" lon="7.25724">
        <ele>356.109741</ele>
        <time>2010-06-13T10:45:32Z</time>
      </trkpt>
      <trkpt lat="48.74085" lon="7.2572">
        <ele>355.242554</ele>
        <time>2010-06-13T10:45:38Z</time>
      </trkpt>
      <trkpt lat="48.74103" lon="7.25716">
        <ele>355.023804</ele>
        <time>2010-06-13T10:45:45Z</time>
      </trkpt>
      <trkpt lat="48.74121" lon="7.25707">
        <ele>355.265991</ele>
        <time>2010-06-13T10:45:57Z</time>
      </trkpt>
      <trkpt lat="48.74123" lon="7.25733">
        <ele>361.578491</ele>
        <time>2010-06-13T10:46:18Z</time>
      </trkpt>
      <trkpt lat="48.74112" lon="7.25754">
        <ele>364.648804</ele>
        <time>2010-06-13T10:46:36Z</time>
      </trkpt>
      <trkpt lat="48.74104" lon="7.25781">
        <ele>364.625366</ele>
        <time>2010-06-13T10:46:46Z</time>
      </trkpt>
      <trkpt lat="48.74088" lon="7.25802">
        <ele>363.453491</ele>
        <time>2010-06-13T10:46:53Z</time>
      </trkpt>
      <trkpt lat="48.74082" lon="7.25831">
        <ele>360.680054</ele>
        <time>2010-06-13T10:46:59Z</time>
      </trkpt>
      <trkpt lat="48.74092" lon="7.2586">
        <ele>357.937866</ele>
        <time>2010-06-13T10:47:03Z</time>
      </trkpt>
      <trkpt lat="48.74104" lon="7.25886">
        <ele>353.164429</ele>
        <time>2010-06-13T10:47:09Z</time>
      </trkpt>
      <trkpt lat="48.7412" lon="7.25905">
        <ele>350.219116</ele>
        <time>2010-06-13T10:47:14Z</time>
      </trkpt>
      <trkpt lat="48.74131" lon="7.25926">
        <ele>345.961304</ele>
        <time>2010-06-13T10:47:20Z</time>
      </trkpt>
      <trkpt lat="48.74141" lon="7.2595">
        <ele>341.148804</ele>
        <time>2010-06-13T10:47:25Z</time>
      </trkpt>
      <trkpt lat="48.74151" lon="7.25985">
        <ele>336.430054</ele>
        <time>2010-06-13T10:47:30Z</time>
      </trkpt>
      <trkpt lat="48.74164" lon="7.26008">
        <ele>333.078491</ele>
        <time>2010-06-13T10:47:34Z</time>
      </trkpt>
      <trkpt lat="48.74178" lon="7.26034">
        <ele>331.047241</ele>
        <time>2010-06-13T10:47:38Z</time>
      </trkpt>
      <trkpt lat="48.74189" lon="7.26059">
        <ele>327.758179</ele>
        <time>2010-06-13T10:47:43Z</time>
      </trkpt>
      <trkpt lat="48.742" lon="7.26083">
        <ele>325.664429</ele>
        <time>2010-06-13T10:47:50Z</time>
      </trkpt>
      <trkpt lat="48.74209" lon="7.26108">
        <ele>323.312866</ele>
        <time>2010-06-13T10:47:56Z</time>
      </trkpt>
      <trkpt lat="48.74217" lon="7.26132">
        <ele>318.984741</ele>
        <time>2010-06-13T10:48:04Z</time>
      </trkpt>
      <trkpt lat="48.74225" lon="7.26154">
        <ele>310.992554</ele>
        <time>2010-06-13T10:48:23Z</time>
      </trkpt>
      <trkpt lat="48.74236" lon="7.26176">
        <ele>312.437866</ele>
        <time>2010-06-13T10:48:31Z</time>
      </trkpt>
      <trkpt lat="48.74253" lon="7.26185">
        <ele>313.492554</ele>
        <time>2010-06-13T10:48:47Z</time>
      </trkpt>
      <trkpt lat="48.74271" lon="7.26196">
        <ele>320.851929</ele>
        <time>2010-06-13T10:49:19Z</time>
      </trkpt>
      <trkpt lat="48.74265" lon="7.26203">
        <ele>341.765991</ele>
        <time>2010-06-13T10:50:50Z</time>
      </trkpt>
      <trkpt lat="48.7426" lon="7.26225">
        <ele>353.109741</ele>
        <time>2010-06-13T10:51:01Z</time>
      </trkpt>
      <trkpt lat="48.74261" lon="7.26253">
        <ele>354.461304</ele>
        <time>2010-06-13T10:51:08Z</time>
      </trkpt>
      <trkpt lat="48.74256" lon="7.2628">
        <ele>357.156616</ele>
        <time>2010-06-13T10:51:15Z</time>
      </trkpt>
      <trkpt lat="48.74254" lon="7.26309">
        <ele>360.945679</ele>
        <time>2010-06-13T10:51:24Z</time>
      </trkpt>
      <trkpt lat="48.74247" lon="7.26334">
        <ele>364.062866</ele>
        <time>2010-06-13T10:51:32Z</time>
      </trkpt>
      <trkpt lat="48.74246" lon="7.26363">
        <ele>366.039429</ele>
        <time>2010-06-13T10:51:40Z</time>
      </trkpt>
      <trkpt lat="48.74251" lon="7.2639">
        <ele>364.945679</ele>
        <time>2010-06-13T10:51:48Z</time>
      </trkpt>
      <trkpt lat="48.74255" lon="7.26418">
        <ele>366.890991</ele>
        <time>2010-06-13T10:51:57Z</time>
      </trkpt>
      <trkpt lat="48.74257" lon="7.26446">
        <ele>367.351929</ele>
        <time>2010-06-13T10:52:03Z</time>
      </trkpt>
      <trkpt lat="48.74258" lon="7.26475">
        <ele>369.320679</ele>
        <time>2010-06-13T10:52:11Z</time>
      </trkpt>
      <trkpt lat="48.74254" lon="7.26505">
        <ele>369.281616</ele>
        <time>2010-06-13T10:52:21Z</time>
      </trkpt>
      <trkpt lat="48.74249" lon="7.26532">
        <ele>374.398804</ele>
        <time>2010-06-13T10:52:30Z</time>
      </trkpt>
      <trkpt lat="48.74246" lon="7.26562">
        <ele>376.890991</ele>
        <time>2010-06-13T10:52:39Z</time>
      </trkpt>
      <trkpt lat="48.74246" lon="7.26588">
        <ele>383.640991</ele>
        <time>2010-06-13T10:52:52Z</time>
      </trkpt>
      <trkpt lat="48.74247" lon="7.26616">
        <ele>386.351929</ele>
        <time>2010-06-13T10:53:02Z</time>
      </trkpt>
      <trkpt lat="48.74241" lon="7.26644">
        <ele>389.258179</ele>
        <time>2010-06-13T10:53:13Z</time>
      </trkpt>
      <trkpt lat="48.74239" lon="7.26673">
        <ele>388.414429</ele>
        <time>2010-06-13T10:53:23Z</time>
      </trkpt>
      <trkpt lat="48.74236" lon="7.26702">
        <ele>389.562866</ele>
        <time>2010-06-13T10:53:36Z</time>
      </trkpt>
      <trkpt lat="48.74235" lon="7.2673">
        <ele>392.015991</ele>
        <time>2010-06-13T10:53:51Z</time>
      </trkpt>
      <trkpt lat="48.74242" lon="7.26757">
        <ele>390.547241</ele>
        <time>2010-06-13T10:54:08Z</time>
      </trkpt>
      <trkpt lat="48.74241" lon="7.26785">
        <ele>390.351929</ele>
        <time>2010-06-13T10:54:20Z</time>
      </trkpt>
      <trkpt lat="48.74254" lon="7.26808">
        <ele>386.781616</ele>
        <time>2010-06-13T10:54:27Z</time>
      </trkpt>
      <trkpt lat="48.7427" lon="7.26794">
        <ele>388.219116</ele>
        <time>2010-06-13T10:54:40Z</time>
      </trkpt>
      <trkpt lat="48.74289" lon="7.26787">
        <ele>390.359741</ele>
        <time>2010-06-13T10:54:51Z</time>
      </trkpt>
      <trkpt lat="48.74305" lon="7.26773">
        <ele>394.078491</ele>
        <time>2010-06-13T10:55:05Z</time>
      </trkpt>
      <trkpt lat="48.74322" lon="7.26762">
        <ele>398.867554</ele>
        <time>2010-06-13T10:55:20Z</time>
      </trkpt>
      <trkpt lat="48.74337" lon="7.26746">
        <ele>398.883179</ele>
        <time>2010-06-13T10:55:34Z</time>
      </trkpt>
      <trkpt lat="48.74355" lon="7.26738">
        <ele>401.492554</ele>
        <time>2010-06-13T10:55:48Z</time>
      </trkpt>
      <trkpt lat="48.74373" lon="7.26735">
        <ele>402.437866</ele>
        <time>2010-06-13T10:55:59Z</time>
      </trkpt>
      <trkpt lat="48.74391" lon="7.26726">
        <ele>405.375366</ele>
        <time>2010-06-13T10:56:10Z</time>
      </trkpt>
      <trkpt lat="48.74407" lon="7.26711">
        <ele>407.023804</ele>
        <time>2010-06-13T10:56:20Z</time>
      </trkpt>
      <trkpt lat="48.74424" lon="7.26702">
        <ele>412.562866</ele>
        <time>2010-06-13T10:56:30Z</time>
      </trkpt>
      <trkpt lat="48.74441" lon="7.26691">
        <ele>415.015991</ele>
        <time>2010-06-13T10:56:42Z</time>
      </trkpt>
      <trkpt lat="48.74457" lon="7.26672">
        <ele>414.805054</ele>
        <time>2010-06-13T10:56:53Z</time>
      </trkpt>
      <trkpt lat="48.74472" lon="7.26658">
        <ele>420.992554</ele>
        <time>2010-06-13T10:57:06Z</time>
      </trkpt>
      <trkpt lat="48.74488" lon="7.26647">
        <ele>424.000366</ele>
        <time>2010-06-13T10:57:17Z</time>
      </trkpt>
      <trkpt lat="48.74505" lon="7.26633">
        <ele>425.750366</ele>
        <time>2010-06-13T10:57:30Z</time>
      </trkpt>
      <trkpt lat="48.74521" lon="7.26617">
        <ele>425.758179</ele>
        <time>2010-06-13T10:57:38Z</time>
      </trkpt>
      <trkpt lat="48.7454" lon="7.26611">
        <ele>427.047241</ele>
        <time>2010-06-13T10:57:48Z</time>
      </trkpt>
      <trkpt lat="48.74557" lon="7.26598">
        <ele>426.883179</ele>
        <time>2010-06-13T10:57:56Z</time>
      </trkpt>
      <trkpt lat="48.74577" lon="7.26597">
        <ele>429.476929</ele>
        <time>2010-06-13T10:58:04Z</time>
      </trkpt>
      <trkpt lat="48.74594" lon="7.26591">
        <ele>431.336304</ele>
        <time>2010-06-13T10:58:11Z</time>
      </trkpt>
      <trkpt lat="48.74611" lon="7.26582">
        <ele>439.992554</ele>
        <time>2010-06-13T10:58:19Z</time>
      </trkpt>
      <trkpt lat="48.74624" lon="7.2656">
        <ele>439.461304</ele>
        <time>2010-06-13T10:58:25Z</time>
      </trkpt>
      <trkpt lat="48.74641" lon="7.26549">
        <ele>440.461304</ele>
        <time>2010-06-13T10:58:32Z</time>
      </trkpt>
      <trkpt lat="48.74657" lon="7.26533">
        <ele>439.187866</ele>
        <time>2010-06-13T10:58:42Z</time>
      </trkpt>
      <trkpt lat="48.74661" lon="7.26559">
        <ele>433.617554</ele>
        <time>2010-06-13T10:58:55Z</time>
      </trkpt>
      <trkpt lat="48.74669" lon="7.26583">
        <ele>428.945679</ele>
        <time>2010-06-13T10:58:59Z</time>
      </trkpt>
      <trkpt lat="48.74672" lon="7.2661">
        <ele>425.578491</ele>
        <time>2010-06-13T10:59:03Z</time>
      </trkpt>
      <trkpt lat="48.74669" lon="7.26638">
        <ele>419.312866</ele>
        <time>2010-06-13T10:59:07Z</time>
      </trkpt>
      <trkpt lat="48.74675" lon="7.26666">
        <ele>415.859741</ele>
        <time>2010-06-13T10:59:11Z</time>
      </trkpt>
      <trkpt lat="48.74681" lon="7.26688">
        <ele>405.539429</ele>
        <time>2010-06-13T10:59:17Z</time>
      </trkpt>
      <trkpt lat="48.74685" lon="7.26715">
        <ele>399.750366</ele>
        <time>2010-06-13T10:59:23Z</time>
      </trkpt>
      <trkpt lat="48.74676" lon="7.26741">
        <ele>397.750366</ele>
        <time>2010-06-13T10:59:28Z</time>
      </trkpt>
      <trkpt lat="48.74665" lon="7.26764">
        <ele>395.765991</ele>
        <time>2010-06-13T10:59:34Z</time>
      </trkpt>
      <trkpt lat="48.74656" lon="7.26787">
        <ele>392.836304</ele>
        <time>2010-06-13T11:01:05Z</time>
      </trkpt>
      <trkpt lat="48.74673" lon="7.26799">
        <ele>386.812866</ele>
        <time>2010-06-13T11:01:54Z</time>
      </trkpt>
      <trkpt lat="48.74677" lon="7.26824">
        <ele>377.937866</ele>
        <time>2010-06-13T11:02:45Z</time>
      </trkpt>
      <trkpt lat="48.7469" lon="7.26846">
        <ele>373.656616</ele>
        <time>2010-06-13T11:02:55Z</time>
      </trkpt>
      <trkpt lat="48.747" lon="7.26868">
        <ele>369.898804</ele>
        <time>2010-06-13T11:03:28Z</time>
      </trkpt>
      <trkpt lat="48.74717" lon="7.26862">
        <ele>364.805054</ele>
        <time>2010-06-13T11:04:27Z</time>
      </trkpt>
      <trkpt lat="48.74735" lon="7.26852">
        <ele>362.359741</ele>
        <time>2010-06-13T11:04:39Z</time>
      </trkpt>
      <trkpt lat="48.74754" lon="7.26847">
        <ele>361.359741</ele>
        <time>2010-06-13T11:04:48Z</time>
      </trkpt>
      <trkpt lat="48.74773" lon="7.26835">
        <ele>361.430054</ele>
        <time>2010-06-13T11:05:06Z</time>
      </trkpt>
      <trkpt lat="48.74793" lon="7.2684">
        <ele>360.469116</ele>
        <time>2010-06-13T11:05:18Z</time>
      </trkpt>
      <trkpt lat="48.7481" lon="7.26842">
        <ele>361.156616</ele>
        <time>2010-06-13T11:05:26Z</time>
      </trkpt>
      <trkpt lat="48.74825" lon="7.26824">
        <ele>362.375366</ele>
        <time>2010-06-13T11:05:32Z</time>
      </trkpt>
      <trkpt lat="48.74844" lon="7.26816">
        <ele>357.211304</ele>
        <time>2010-06-13T11:05:38Z</time>
      </trkpt>
      <trkpt lat="48.74858" lon="7.26796">
        <ele>352.453491</ele>
        <time>2010-06-13T11:05:44Z</time>
      </trkpt>
      <trkpt lat="48.74863" lon="7.2677">
        <ele>347.750366</ele>
        <time>2010-06-13T11:05:50Z</time>
      </trkpt>
      <trkpt lat="48.7487" lon="7.26741">
        <ele>343.445679</ele>
        <time>2010-06-13T11:05:58Z</time>
      </trkpt>
      <trkpt lat="48.74876" lon="7.26713">
        <ele>340.883179</ele>
        <time>2010-06-13T11:06:03Z</time>
      </trkpt>
      <trkpt lat="48.74882" lon="7.26686">
        <ele>338.265991</ele>
        <time>2010-06-13T11:06:07Z</time>
      </trkpt>
      <trkpt lat="48.74893" lon="7.26656">
        <ele>334.914429</ele>
        <time>2010-06-13T11:06:11Z</time>
      </trkpt>
      <trkpt lat="48.74909" lon="7.26631">
        <ele>331.242554</ele>
        <time>2010-06-13T11:06:15Z</time>
      </trkpt>
      <trkpt lat="48.74928" lon="7.26614">
        <ele>329.656616</ele>
        <time>2010-06-13T11:06:19Z</time>
      </trkpt>
      <trkpt lat="48.74945" lon="7.26601">
        <ele>328.648804</ele>
        <time>2010-06-13T11:06:23Z</time>
      </trkpt>
      <trkpt lat="48.74962" lon="7.26588">
        <ele>328.086304</ele>
        <time>2010-06-13T11:06:28Z</time>
      </trkpt>
      <trkpt lat="48.7498" lon="7.26578">
        <ele>327.109741</ele>
        <time>2010-06-13T11:06:33Z</time>
      </trkpt>
      <trkpt lat="48.74997" lon="7.26589">
        <ele>327.914429</ele>
        <time>2010-06-13T11:06:40Z</time>
      </trkpt>
      <trkpt lat="48.75004" lon="7.26616">
        <ele>324.023804</ele>
        <time>2010-06-13T11:06:48Z</time>
      </trkpt>
      <trkpt lat="48.75001" lon="7.26637">
        <ele>311.476929</ele>
        <time>2010-06-13T11:06:54Z</time>
      </trkpt>
      <trkpt lat="48.74998" lon="7.26664">
        <ele>301.265991</ele>
        <time>2010-06-13T11:07:02Z</time>
      </trkpt>
      <trkpt lat="48.75" lon="7.26689">
        <ele>293.765991</ele>
        <time>2010-06-13T11:07:13Z</time>
      </trkpt>
      <trkpt lat="48.75015" lon="7.26707">
        <ele>292.008179</ele>
        <time>2010-06-13T11:07:32Z</time>
      </trkpt>
      <trkpt lat="48.75021" lon="7.26736">
        <ele>290.828491</ele>
        <time>2010-06-13T11:07:44Z</time>
      </trkpt>
      <trkpt lat="48.75032" lon="7.26758">
        <ele>290.672241</ele>
        <time>2010-06-13T11:07:52Z</time>
      </trkpt>
      <trkpt lat="48.7504" lon="7.26784">
        <ele>296.320679</ele>
        <time>2010-06-13T11:08:01Z</time>
      </trkpt>
      <trkpt lat="48.75042" lon="7.26815">
        <ele>300.320679</ele>
        <time>2010-06-13T11:08:10Z</time>
      </trkpt>
      <trkpt lat="48.7505" lon="7.26844">
        <ele>303.398804</ele>
        <time>2010-06-13T11:08:15Z</time>
      </trkpt>
      <trkpt lat="48.75064" lon="7.26863">
        <ele>308.781616</ele>
        <time>2010-06-13T11:08:25Z</time>
      </trkpt>
      <trkpt lat="48.75081" lon="7.26886">
        <ele>310.586304</ele>
        <time>2010-06-13T11:08:32Z</time>
      </trkpt>
      <trkpt lat="48.751" lon="7.269">
        <ele>310.039429</ele>
        <time>2010-06-13T11:08:36Z</time>
      </trkpt>
      <trkpt lat="48.75118" lon="7.26909">
        <ele>309.086304</ele>
        <time>2010-06-13T11:08:40Z</time>
      </trkpt>
      <trkpt lat="48.75138" lon="7.26913">
        <ele>311.219116</ele>
        <time>2010-06-13T11:08:49Z</time>
      </trkpt>
      <trkpt lat="48.75157" lon="7.26911">
        <ele>313.969116</ele>
        <time>2010-06-13T11:08:56Z</time>
      </trkpt>
      <trkpt lat="48.75176" lon="7.26904">
        <ele>318.758179</ele>
        <time>2010-06-13T11:09:03Z</time>
      </trkpt>
      <trkpt lat="48.75193" lon="7.26908">
        <ele>326.250366</ele>
        <time>2010-06-13T11:09:18Z</time>
      </trkpt>
      <trkpt lat="48.75213" lon="7.26912">
        <ele>330.859741</ele>
        <time>2010-06-13T11:09:29Z</time>
      </trkpt>
      <trkpt lat="48.75231" lon="7.26908">
        <ele>334.773804</ele>
        <time>2010-06-13T11:09:42Z</time>
      </trkpt>
      <trkpt lat="48.75251" lon="7.26906">
        <ele>334.734741</ele>
        <time>2010-06-13T11:09:58Z</time>
      </trkpt>
      <trkpt lat="48.75269" lon="7.26896">
        <ele>329.812866</ele>
        <time>2010-06-13T11:10:13Z</time>
      </trkpt>
      <trkpt lat="48.75287" lon="7.26892">
        <ele>323.492554</ele>
        <time>2010-06-13T11:10:21Z</time>
      </trkpt>
      <trkpt lat="48.75302" lon="7.26879">
        <ele>319.664429</ele>
        <time>2010-06-13T11:10:38Z</time>
      </trkpt>
      <trkpt lat="48.75318" lon="7.26865">
        <ele>317.422241</ele>
        <time>2010-06-13T11:10:51Z</time>
      </trkpt>
      <trkpt lat="48.75337" lon="7.26858">
        <ele>318.570679</ele>
        <time>2010-06-13T11:11:05Z</time>
      </trkpt>
      <trkpt lat="48.75353" lon="7.26846">
        <ele>316.203491</ele>
        <time>2010-06-13T11:11:21Z</time>
      </trkpt>
      <trkpt lat="48.75369" lon="7.26833">
        <ele>314.484741</ele>
        <time>2010-06-13T11:11:34Z</time>
      </trkpt>
      <trkpt lat="48.75386" lon="7.26815">
        <ele>317.031616</ele>
        <time>2010-06-13T11:11:46Z</time>
      </trkpt>
      <trkpt lat="48.75403" lon="7.26802">
        <ele>314.734741</ele>
        <time>2010-06-13T11:11:54Z</time>
      </trkpt>
      <trkpt lat="48.75419" lon="7.26793">
        <ele>319.601929</ele>
        <time>2010-06-13T11:12:05Z</time>
      </trkpt>
      <trkpt lat="48.75437" lon="7.26786">
        <ele>323.351929</ele>
        <time>2010-06-13T11:12:16Z</time>
      </trkpt>
      <trkpt lat="48.75453" lon="7.2677">
        <ele>323.930054</ele>
        <time>2010-06-13T11:12:25Z</time>
      </trkpt>
      <trkpt lat="48.75471" lon="7.2676">
        <ele>325.859741</ele>
        <time>2010-06-13T11:12:34Z</time>
      </trkpt>
      <trkpt lat="48.75489" lon="7.26744">
        <ele>323.242554</ele>
        <time>2010-06-13T11:12:39Z</time>
      </trkpt>
      <trkpt lat="48.75507" lon="7.26734">
        <ele>329.094116</ele>
        <time>2010-06-13T11:12:51Z</time>
      </trkpt>
      <trkpt lat="48.75525" lon="7.26731">
        <ele>335.359741</ele>
        <time>2010-06-13T11:13:00Z</time>
      </trkpt>
      <trkpt lat="48.7554" lon="7.26712">
        <ele>339.836304</ele>
        <time>2010-06-13T11:13:09Z</time>
      </trkpt>
      <trkpt lat="48.75551" lon="7.26689">
        <ele>342.015991</ele>
        <time>2010-06-13T11:13:17Z</time>
      </trkpt>
      <trkpt lat="48.75557" lon="7.26664">
        <ele>341.555054</ele>
        <time>2010-06-13T11:13:30Z</time>
      </trkpt>
      <trkpt lat="48.7556" lon="7.26636">
        <ele>342.070679</ele>
        <time>2010-06-13T11:13:41Z</time>
      </trkpt>
      <trkpt lat="48.75568" lon="7.26611">
        <ele>344.000366</ele>
        <time>2010-06-13T11:13:55Z</time>
      </trkpt>
      <trkpt lat="48.75578" lon="7.26588">
        <ele>343.320679</ele>
        <time>2010-06-13T11:14:13Z</time>
      </trkpt>
      <trkpt lat="48.75592" lon="7.26572">
        <ele>342.609741</ele>
        <time>2010-06-13T11:14:23Z</time>
      </trkpt>
      <trkpt lat="48.75607" lon="7.26552">
        <ele>342.000366</ele>
        <time>2010-06-13T11:14:37Z</time>
      </trkpt>
      <trkpt lat="48.75625" lon="7.26535">
        <ele>340.539429</ele>
        <time>2010-06-13T11:14:46Z</time>
      </trkpt>
      <trkpt lat="48.75642" lon="7.26516">
        <ele>339.039429</ele>
        <time>2010-06-13T11:14:52Z</time>
      </trkpt>
      <trkpt lat="48.75659" lon="7.26505">
        <ele>339.656616</ele>
        <time>2010-06-13T11:15:02Z</time>
      </trkpt>
      <trkpt lat="48.75676" lon="7.26494">
        <ele>340.265991</ele>
        <time>2010-06-13T11:15:12Z</time>
      </trkpt>
      <trkpt lat="48.75695" lon="7.26476">
        <ele>341.789429</ele>
        <time>2010-06-13T11:15:21Z</time>
      </trkpt>
      <trkpt lat="48.7571" lon="7.26457">
        <ele>343.555054</ele>
        <time>2010-06-13T11:15:28Z</time>
      </trkpt>
      <trkpt lat="48.75726" lon="7.26438">
        <ele>346.367554</ele>
        <time>2010-06-13T11:15:35Z</time>
      </trkpt>
      <trkpt lat="48.75744" lon="7.26427">
        <ele>353.047241</ele>
        <time>2010-06-13T11:15:41Z</time>
      </trkpt>
      <trkpt lat="48.75761" lon="7.26424">
        <ele>359.461304</ele>
        <time>2010-06-13T11:15:48Z</time>
      </trkpt>
      <trkpt lat="48.75777" lon="7.26419">
        <ele>369.961304</ele>
        <time>2010-06-13T11:15:55Z</time>
      </trkpt>
      <trkpt lat="48.75794" lon="7.26403">
        <ele>374.008179</ele>
        <time>2010-06-13T11:15:57Z</time>
      </trkpt>
      <trkpt lat="48.75806" lon="7.26381">
        <ele>379.633179</ele>
        <time>2010-06-13T11:16:02Z</time>
      </trkpt>
      <trkpt lat="48.75819" lon="7.26358">
        <ele>383.719116</ele>
        <time>2010-06-13T11:16:05Z</time>
      </trkpt>
      <trkpt lat="48.75833" lon="7.26333">
        <ele>389.953491</ele>
        <time>2010-06-13T11:16:10Z</time>
      </trkpt>
      <trkpt lat="48.75847" lon="7.26316">
        <ele>394.601929</ele>
        <time>2010-06-13T11:16:17Z</time>
      </trkpt>
      <trkpt lat="48.75858" lon="7.26295">
        <ele>397.555054</ele>
        <time>2010-06-13T11:16:31Z</time>
      </trkpt>
      <trkpt lat="48.75873" lon="7.26274">
        <ele>395.351929</ele>
        <time>2010-06-13T11:16:38Z</time>
      </trkpt>
      <trkpt lat="48.75888" lon="7.26251">
        <ele>392.140991</ele>
        <time>2010-06-13T11:16:44Z</time>
      </trkpt>
      <trkpt lat="48.75901" lon="7.2623">
        <ele>388.914429</ele>
        <time>2010-06-13T11:16:50Z</time>
      </trkpt>
      <trkpt lat="48.75913" lon="7.26209">
        <ele>390.140991</ele>
        <time>2010-06-13T11:17:01Z</time>
      </trkpt>
      <trkpt lat="48.75924" lon="7.26185">
        <ele>394.023804</ele>
        <time>2010-06-13T11:17:11Z</time>
      </trkpt>
      <trkpt lat="48.75942" lon="7.26177">
        <ele>398.094116</ele>
        <time>2010-06-13T11:17:19Z</time>
      </trkpt>
      <trkpt lat="48.75959" lon="7.26182">
        <ele>406.062866</ele>
        <time>2010-06-13T11:17:26Z</time>
      </trkpt>
      <trkpt lat="48.75976" lon="7.2618">
        <ele>413.094116</ele>
        <time>2010-06-13T11:17:31Z</time>
      </trkpt>
      <trkpt lat="48.75998" lon="7.26163">
        <ele>423.305054</ele>
        <time>2010-06-13T11:17:42Z</time>
      </trkpt>
      <trkpt lat="48.76048" lon="7.26123">
        <ele>433.008179</ele>
        <time>2010-06-13T11:17:50Z</time>
      </trkpt>
      <trkpt lat="48.7607" lon="7.26098">
        <ele>431.883179</ele>
        <time>2010-06-13T11:17:53Z</time>
      </trkpt>
      <trkpt lat="48.76086" lon="7.26077">
        <ele>428.281616</ele>
        <time>2010-06-13T11:17:58Z</time>
      </trkpt>
      <trkpt lat="48.76102" lon="7.26073">
        <ele>419.062866</ele>
        <time>2010-06-13T11:18:01Z</time>
      </trkpt>
      <trkpt lat="48.76115" lon="7.26056">
        <ele>407.836304</ele>
        <time>2010-06-13T11:18:04Z</time>
      </trkpt>
      <trkpt lat="48.76128" lon="7.2604">
        <ele>396.758179</ele>
        <time>2010-06-13T11:18:08Z</time>
      </trkpt>
      <trkpt lat="48.76143" lon="7.2603">
        <ele>384.656616</ele>
        <time>2010-06-13T11:18:12Z</time>
      </trkpt>
      <trkpt lat="48.7616" lon="7.2604">
        <ele>373.320679</ele>
        <time>2010-06-13T11:18:18Z</time>
      </trkpt>
      <trkpt lat="48.76177" lon="7.26048">
        <ele>369.008179</ele>
        <time>2010-06-13T11:18:28Z</time>
      </trkpt>
      <trkpt lat="48.76195" lon="7.26053">
        <ele>363.883179</ele>
        <time>2010-06-13T11:18:42Z</time>
      </trkpt>
      <trkpt lat="48.76209" lon="7.26059">
        <ele>352.125366</ele>
        <time>2010-06-13T11:18:52Z</time>
      </trkpt>
      <trkpt lat="48.76226" lon="7.26059">
        <ele>340.203491</ele>
        <time>2010-06-13T11:19:02Z</time>
      </trkpt>
      <trkpt lat="48.76243" lon="7.26069">
        <ele>338.953491</ele>
        <time>2010-06-13T11:19:16Z</time>
      </trkpt>
      <trkpt lat="48.7626" lon="7.26074">
        <ele>346.234741</ele>
        <time>2010-06-13T11:19:26Z</time>
      </trkpt>
      <trkpt lat="48.76278" lon="7.26078">
        <ele>348.320679</ele>
        <time>2010-06-13T11:19:40Z</time>
      </trkpt>
      <trkpt lat="48.76297" lon="7.26084">
        <ele>350.156616</ele>
        <time>2010-06-13T11:19:57Z</time>
      </trkpt>
      <trkpt lat="48.76315" lon="7.26092">
        <ele>353.914429</ele>
        <time>2010-06-13T11:20:08Z</time>
      </trkpt>
      <trkpt lat="48.76332" lon="7.261">
        <ele>357.305054</ele>
        <time>2010-06-13T11:20:26Z</time>
      </trkpt>
      <trkpt lat="48.76349" lon="7.2611">
        <ele>358.875366</ele>
        <time>2010-06-13T11:20:38Z</time>
      </trkpt>
      <trkpt lat="48.76364" lon="7.26126">
        <ele>353.797241</ele>
        <time>2010-06-13T11:23:43Z</time>
      </trkpt>
      <trkpt lat="48.76382" lon="7.26127">
        <ele>353.976929</ele>
        <time>2010-06-13T11:23:55Z</time>
      </trkpt>
      <trkpt lat="48.76401" lon="7.26124">
        <ele>355.945679</ele>
        <time>2010-06-13T11:24:06Z</time>
      </trkpt>
      <trkpt lat="48.76421" lon="7.26125">
        <ele>350.398804</ele>
        <time>2010-06-13T11:24:16Z</time>
      </trkpt>
      <trkpt lat="48.76438" lon="7.26113">
        <ele>354.273804</ele>
        <time>2010-06-13T11:24:31Z</time>
      </trkpt>
      <trkpt lat="48.76451" lon="7.26086">
        <ele>354.984741</ele>
        <time>2010-06-13T11:24:45Z</time>
      </trkpt>
      <trkpt lat="48.76465" lon="7.26058">
        <ele>355.461304</ele>
        <time>2010-06-13T11:24:49Z</time>
      </trkpt>
      <trkpt lat="48.76481" lon="7.26044">
        <ele>361.719116</ele>
        <time>2010-06-13T11:24:55Z</time>
      </trkpt>
      <trkpt lat="48.76495" lon="7.26022">
        <ele>365.601929</ele>
        <time>2010-06-13T11:24:59Z</time>
      </trkpt>
      <trkpt lat="48.7651" lon="7.26002">
        <ele>363.633179</ele>
        <time>2010-06-13T11:25:02Z</time>
      </trkpt>
      <trkpt lat="48.76526" lon="7.25981">
        <ele>361.672241</ele>
        <time>2010-06-13T11:25:06Z</time>
      </trkpt>
      <trkpt lat="48.76538" lon="7.25959">
        <ele>361.586304</ele>
        <time>2010-06-13T11:25:11Z</time>
      </trkpt>
      <trkpt lat="48.76551" lon="7.25939">
        <ele>367.320679</ele>
        <time>2010-06-13T11:25:17Z</time>
      </trkpt>
      <trkpt lat="48.76569" lon="7.25931">
        <ele>373.539429</ele>
        <time>2010-06-13T11:25:24Z</time>
      </trkpt>
      <trkpt lat="48.76587" lon="7.25918">
        <ele>380.601929</ele>
        <time>2010-06-13T11:25:29Z</time>
      </trkpt>
      <trkpt lat="48.76606" lon="7.25907">
        <ele>375.453491</ele>
        <time>2010-06-13T11:25:33Z</time>
      </trkpt>
      <trkpt lat="48.76626" lon="7.259">
        <ele>375.422241</ele>
        <time>2010-06-13T11:25:38Z</time>
      </trkpt>
      <trkpt lat="48.76645" lon="7.25894">
        <ele>373.336304</ele>
        <time>2010-06-13T11:25:43Z</time>
      </trkpt>
      <trkpt lat="48.76666" lon="7.25887">
        <ele>365.125366</ele>
        <time>2010-06-13T11:25:47Z</time>
      </trkpt>
      <trkpt lat="48.76683" lon="7.25878">
        <ele>357.633179</ele>
        <time>2010-06-13T11:25:57Z</time>
      </trkpt>
      <trkpt lat="48.76701" lon="7.25876">
        <ele>356.500366</ele>
        <time>2010-06-13T11:26:07Z</time>
      </trkpt>
    </trkseg>
  </trk>
</gpx>